<?xml version="1.0" encoding="UTF-8" standalone="no" ?>
<gpx xmlns="http://www.topografix.com/GPX/1/1" xmlns:xsi="http://www.w3.org/2001/XMLSchema-instance" xsi:schemaLocation="http://www.topografix.com/GPX/1/1 http://www.topografix.com/GPX/1/1/gpx.xsd" version="1.1" creator="VisuGPX - https://www.visugpx.com">
  <metadata>
    <name>Sun Trip 2019</name>
    <desc><![CDATA[Le parcours du Sun Trip 2019]]></desc>
  </metadata>
  <trk>
    <name><![CDATA[J9]]></name>
    <trkseg>
      <trkpt lat="45.62249" lon="6.78547">
        <ele>820</ele>
        <time>2019-04-17T10:46:40Z</time>
      </trkpt>
      <trkpt lat="45.62201" lon="6.78685">
        <ele>821</ele>
        <time>2019-04-17T10:47:40Z</time>
      </trkpt>
      <trkpt lat="45.62171" lon="6.78767">
        <ele>823</ele>
        <time>2019-04-17T10:48:40Z</time>
      </trkpt>
      <trkpt lat="45.62155" lon="6.78798">
        <ele>822</ele>
        <time>2019-04-17T10:49:40Z</time>
      </trkpt>
      <trkpt lat="45.62144" lon="6.78817">
        <ele>821</ele>
        <time>2019-04-17T10:50:40Z</time>
      </trkpt>
      <trkpt lat="45.62112" lon="6.78852">
        <ele>820</ele>
        <time>2019-04-17T10:51:40Z</time>
      </trkpt>
      <trkpt lat="45.62085" lon="6.78868">
        <ele>818</ele>
        <time>2019-04-17T10:52:40Z</time>
      </trkpt>
      <trkpt lat="45.62043" lon="6.78886">
        <ele>816</ele>
        <time>2019-04-17T10:53:40Z</time>
      </trkpt>
      <trkpt lat="45.62023" lon="6.78891">
        <ele>815</ele>
        <time>2019-04-17T10:54:40Z</time>
      </trkpt>
      <trkpt lat="45.62025" lon="6.78899">
        <ele>815</ele>
        <time>2019-04-17T10:55:40Z</time>
      </trkpt>
      <trkpt lat="45.62098" lon="6.79103">
        <ele>822</ele>
        <time>2019-04-17T10:56:40Z</time>
      </trkpt>
      <trkpt lat="45.6211" lon="6.79157">
        <ele>826</ele>
        <time>2019-04-17T10:57:40Z</time>
      </trkpt>
      <trkpt lat="45.62109" lon="6.7919">
        <ele>828</ele>
        <time>2019-04-17T10:58:40Z</time>
      </trkpt>
      <trkpt lat="45.62084" lon="6.7928">
        <ele>834</ele>
        <time>2019-04-17T10:59:40Z</time>
      </trkpt>
      <trkpt lat="45.62029" lon="6.79468">
        <ele>834</ele>
        <time>2019-04-17T11:00:40Z</time>
      </trkpt>
      <trkpt lat="45.62027" lon="6.79484">
        <ele>835</ele>
        <time>2019-04-17T11:01:40Z</time>
      </trkpt>
      <trkpt lat="45.62028" lon="6.79504">
        <ele>837</ele>
        <time>2019-04-17T11:02:40Z</time>
      </trkpt>
      <trkpt lat="45.62035" lon="6.79517">
        <ele>839</ele>
        <time>2019-04-17T11:03:40Z</time>
      </trkpt>
      <trkpt lat="45.62044" lon="6.7953">
        <ele>841</ele>
        <time>2019-04-17T11:04:40Z</time>
      </trkpt>
      <trkpt lat="45.62056" lon="6.79533">
        <ele>842</ele>
        <time>2019-04-17T11:05:40Z</time>
      </trkpt>
      <trkpt lat="45.62123" lon="6.79523">
        <ele>847</ele>
        <time>2019-04-17T11:06:40Z</time>
      </trkpt>
      <trkpt lat="45.62345" lon="6.79481">
        <ele>858</ele>
        <time>2019-04-17T11:07:40Z</time>
      </trkpt>
      <trkpt lat="45.62375" lon="6.79537">
        <ele>864</ele>
        <time>2019-04-17T11:08:40Z</time>
      </trkpt>
      <trkpt lat="45.6238" lon="6.79549">
        <ele>865</ele>
        <time>2019-04-17T11:09:40Z</time>
      </trkpt>
      <trkpt lat="45.62383" lon="6.79565">
        <ele>867</ele>
        <time>2019-04-17T11:10:40Z</time>
      </trkpt>
      <trkpt lat="45.62387" lon="6.79609">
        <ele>870</ele>
        <time>2019-04-17T11:11:40Z</time>
      </trkpt>
      <trkpt lat="45.62397" lon="6.79708">
        <ele>878</ele>
        <time>2019-04-17T11:12:40Z</time>
      </trkpt>
      <trkpt lat="45.62401" lon="6.79712">
        <ele>879</ele>
        <time>2019-04-17T11:13:40Z</time>
      </trkpt>
      <trkpt lat="45.62339" lon="6.79844">
        <ele>886</ele>
        <time>2019-04-17T11:14:40Z</time>
      </trkpt>
      <trkpt lat="45.62321" lon="6.79879">
        <ele>887</ele>
        <time>2019-04-17T11:15:40Z</time>
      </trkpt>
      <trkpt lat="45.62294" lon="6.79945">
        <ele>891</ele>
        <time>2019-04-17T11:16:40Z</time>
      </trkpt>
      <trkpt lat="45.62286" lon="6.7996">
        <ele>892</ele>
        <time>2019-04-17T11:17:40Z</time>
      </trkpt>
      <trkpt lat="45.62274" lon="6.79975">
        <ele>892</ele>
        <time>2019-04-17T11:18:40Z</time>
      </trkpt>
      <trkpt lat="45.62233" lon="6.80031">
        <ele>893</ele>
        <time>2019-04-17T11:19:40Z</time>
      </trkpt>
      <trkpt lat="45.62225" lon="6.80043">
        <ele>893</ele>
        <time>2019-04-17T11:20:40Z</time>
      </trkpt>
      <trkpt lat="45.62208" lon="6.80076">
        <ele>894</ele>
        <time>2019-04-17T11:21:40Z</time>
      </trkpt>
      <trkpt lat="45.62198" lon="6.80102">
        <ele>895</ele>
        <time>2019-04-17T11:22:40Z</time>
      </trkpt>
      <trkpt lat="45.62182" lon="6.8015">
        <ele>896</ele>
        <time>2019-04-17T11:23:40Z</time>
      </trkpt>
      <trkpt lat="45.62178" lon="6.80148">
        <ele>896</ele>
        <time>2019-04-17T11:24:40Z</time>
      </trkpt>
      <trkpt lat="45.6217" lon="6.80149">
        <ele>895</ele>
        <time>2019-04-17T11:25:40Z</time>
      </trkpt>
      <trkpt lat="45.62165" lon="6.80158">
        <ele>895</ele>
        <time>2019-04-17T11:26:40Z</time>
      </trkpt>
      <trkpt lat="45.62165" lon="6.80165">
        <ele>896</ele>
        <time>2019-04-17T11:27:40Z</time>
      </trkpt>
      <trkpt lat="45.62158" lon="6.8017">
        <ele>896</ele>
        <time>2019-04-17T11:28:40Z</time>
      </trkpt>
      <trkpt lat="45.6214" lon="6.80191">
        <ele>895</ele>
        <time>2019-04-17T11:29:40Z</time>
      </trkpt>
      <trkpt lat="45.62093" lon="6.80232">
        <ele>894</ele>
        <time>2019-04-17T11:30:40Z</time>
      </trkpt>
      <trkpt lat="45.62055" lon="6.80273">
        <ele>894</ele>
        <time>2019-04-17T11:31:40Z</time>
      </trkpt>
      <trkpt lat="45.62043" lon="6.80281">
        <ele>893</ele>
        <time>2019-04-17T11:32:40Z</time>
      </trkpt>
      <trkpt lat="45.62034" lon="6.80292">
        <ele>893</ele>
        <time>2019-04-17T11:33:40Z</time>
      </trkpt>
      <trkpt lat="45.61986" lon="6.80365">
        <ele>892</ele>
        <time>2019-04-17T11:34:40Z</time>
      </trkpt>
      <trkpt lat="45.61968" lon="6.80397">
        <ele>890</ele>
        <time>2019-04-17T11:35:40Z</time>
      </trkpt>
      <trkpt lat="45.6194" lon="6.80461">
        <ele>887</ele>
        <time>2019-04-17T11:36:40Z</time>
      </trkpt>
      <trkpt lat="45.61836" lon="6.80709">
        <ele>882</ele>
        <time>2019-04-17T11:37:40Z</time>
      </trkpt>
      <trkpt lat="45.61801" lon="6.80796">
        <ele>881</ele>
        <time>2019-04-17T11:38:40Z</time>
      </trkpt>
      <trkpt lat="45.61785" lon="6.8086">
        <ele>880</ele>
        <time>2019-04-17T11:39:40Z</time>
      </trkpt>
      <trkpt lat="45.61762" lon="6.81034">
        <ele>878</ele>
        <time>2019-04-17T11:40:40Z</time>
      </trkpt>
      <trkpt lat="45.6173" lon="6.81234">
        <ele>873</ele>
        <time>2019-04-17T11:41:40Z</time>
      </trkpt>
      <trkpt lat="45.61701" lon="6.81637">
        <ele>863</ele>
        <time>2019-04-17T11:42:40Z</time>
      </trkpt>
      <trkpt lat="45.61697" lon="6.81664">
        <ele>863</ele>
        <time>2019-04-17T11:43:40Z</time>
      </trkpt>
      <trkpt lat="45.61681" lon="6.81725">
        <ele>865</ele>
        <time>2019-04-17T11:44:40Z</time>
      </trkpt>
      <trkpt lat="45.61551" lon="6.82118">
        <ele>861</ele>
        <time>2019-04-17T11:45:40Z</time>
      </trkpt>
      <trkpt lat="45.61534" lon="6.82156">
        <ele>860</ele>
        <time>2019-04-17T11:46:40Z</time>
      </trkpt>
      <trkpt lat="45.61527" lon="6.82156">
        <ele>858</ele>
        <time>2019-04-17T11:47:40Z</time>
      </trkpt>
      <trkpt lat="45.6151" lon="6.82169">
        <ele>854</ele>
        <time>2019-04-17T11:48:40Z</time>
      </trkpt>
      <trkpt lat="45.61484" lon="6.82184">
        <ele>852</ele>
        <time>2019-04-17T11:49:40Z</time>
      </trkpt>
      <trkpt lat="45.61465" lon="6.82208">
        <ele>852</ele>
        <time>2019-04-17T11:50:40Z</time>
      </trkpt>
      <trkpt lat="45.61455" lon="6.8224">
        <ele>854</ele>
        <time>2019-04-17T11:51:40Z</time>
      </trkpt>
      <trkpt lat="45.6145" lon="6.82263">
        <ele>856</ele>
        <time>2019-04-17T11:52:40Z</time>
      </trkpt>
      <trkpt lat="45.61451" lon="6.82273">
        <ele>857</ele>
        <time>2019-04-17T11:53:40Z</time>
      </trkpt>
      <trkpt lat="45.61391" lon="6.82351">
        <ele>853</ele>
        <time>2019-04-17T11:54:40Z</time>
      </trkpt>
      <trkpt lat="45.61349" lon="6.8241">
        <ele>853</ele>
        <time>2019-04-17T11:55:40Z</time>
      </trkpt>
      <trkpt lat="45.6132" lon="6.82479">
        <ele>855</ele>
        <time>2019-04-17T11:56:40Z</time>
      </trkpt>
      <trkpt lat="45.61297" lon="6.82546">
        <ele>856</ele>
        <time>2019-04-17T11:57:40Z</time>
      </trkpt>
      <trkpt lat="45.61289" lon="6.82582">
        <ele>856</ele>
        <time>2019-04-17T11:58:40Z</time>
      </trkpt>
      <trkpt lat="45.61283" lon="6.82619">
        <ele>857</ele>
        <time>2019-04-17T11:59:40Z</time>
      </trkpt>
      <trkpt lat="45.61282" lon="6.82666">
        <ele>860</ele>
        <time>2019-04-17T12:00:40Z</time>
      </trkpt>
      <trkpt lat="45.61285" lon="6.82709">
        <ele>860</ele>
        <time>2019-04-17T12:01:40Z</time>
      </trkpt>
      <trkpt lat="45.61295" lon="6.82767">
        <ele>862</ele>
        <time>2019-04-17T12:02:40Z</time>
      </trkpt>
      <trkpt lat="45.61295" lon="6.82795">
        <ele>864</ele>
        <time>2019-04-17T12:03:40Z</time>
      </trkpt>
      <trkpt lat="45.61291" lon="6.82821">
        <ele>865</ele>
        <time>2019-04-17T12:04:40Z</time>
      </trkpt>
      <trkpt lat="45.61233" lon="6.83056">
        <ele>866</ele>
        <time>2019-04-17T12:05:40Z</time>
      </trkpt>
      <trkpt lat="45.61116" lon="6.83446">
        <ele>870</ele>
        <time>2019-04-17T12:06:40Z</time>
      </trkpt>
      <trkpt lat="45.61092" lon="6.83518">
        <ele>867</ele>
        <time>2019-04-17T12:07:40Z</time>
      </trkpt>
      <trkpt lat="45.61071" lon="6.83573">
        <ele>870</ele>
        <time>2019-04-17T12:08:40Z</time>
      </trkpt>
      <trkpt lat="45.61042" lon="6.8362">
        <ele>873</ele>
        <time>2019-04-17T12:09:40Z</time>
      </trkpt>
      <trkpt lat="45.60976" lon="6.83717">
        <ele>872</ele>
        <time>2019-04-17T12:10:40Z</time>
      </trkpt>
      <trkpt lat="45.60949" lon="6.83775">
        <ele>872</ele>
        <time>2019-04-17T12:11:40Z</time>
      </trkpt>
      <trkpt lat="45.60934" lon="6.83811">
        <ele>872</ele>
        <time>2019-04-17T12:12:40Z</time>
      </trkpt>
      <trkpt lat="45.60906" lon="6.83878">
        <ele>875</ele>
        <time>2019-04-17T12:13:40Z</time>
      </trkpt>
      <trkpt lat="45.60869" lon="6.83951">
        <ele>874</ele>
        <time>2019-04-17T12:14:40Z</time>
      </trkpt>
      <trkpt lat="45.60853" lon="6.84016">
        <ele>879</ele>
        <time>2019-04-17T12:15:40Z</time>
      </trkpt>
      <trkpt lat="45.60835" lon="6.84105">
        <ele>886</ele>
        <time>2019-04-17T12:16:40Z</time>
      </trkpt>
      <trkpt lat="45.60814" lon="6.84188">
        <ele>887</ele>
        <time>2019-04-17T12:17:40Z</time>
      </trkpt>
      <trkpt lat="45.60787" lon="6.84369">
        <ele>889</ele>
        <time>2019-04-17T12:18:40Z</time>
      </trkpt>
      <trkpt lat="45.60773" lon="6.84443">
        <ele>889</ele>
        <time>2019-04-17T12:19:40Z</time>
      </trkpt>
      <trkpt lat="45.60756" lon="6.84523">
        <ele>890</ele>
        <time>2019-04-17T12:20:40Z</time>
      </trkpt>
      <trkpt lat="45.60713" lon="6.84661">
        <ele>900</ele>
        <time>2019-04-17T12:21:40Z</time>
      </trkpt>
      <trkpt lat="45.60688" lon="6.84754">
        <ele>899</ele>
        <time>2019-04-17T12:22:40Z</time>
      </trkpt>
      <trkpt lat="45.60665" lon="6.8487">
        <ele>901</ele>
        <time>2019-04-17T12:23:40Z</time>
      </trkpt>
      <trkpt lat="45.60649" lon="6.84979">
        <ele>908</ele>
        <time>2019-04-17T12:24:40Z</time>
      </trkpt>
      <trkpt lat="45.60632" lon="6.85046">
        <ele>907</ele>
        <time>2019-04-17T12:25:40Z</time>
      </trkpt>
      <trkpt lat="45.60618" lon="6.85076">
        <ele>904</ele>
        <time>2019-04-17T12:26:40Z</time>
      </trkpt>
      <trkpt lat="45.60605" lon="6.85115">
        <ele>899</ele>
        <time>2019-04-17T12:27:40Z</time>
      </trkpt>
      <trkpt lat="45.60594" lon="6.85168">
        <ele>892</ele>
        <time>2019-04-17T12:28:40Z</time>
      </trkpt>
      <trkpt lat="45.6059" lon="6.85289">
        <ele>894</ele>
        <time>2019-04-17T12:29:40Z</time>
      </trkpt>
      <trkpt lat="45.60579" lon="6.85402">
        <ele>897</ele>
        <time>2019-04-17T12:30:40Z</time>
      </trkpt>
      <trkpt lat="45.60563" lon="6.85474">
        <ele>898</ele>
        <time>2019-04-17T12:31:40Z</time>
      </trkpt>
      <trkpt lat="45.60551" lon="6.85508">
        <ele>897</ele>
        <time>2019-04-17T12:32:40Z</time>
      </trkpt>
      <trkpt lat="45.60493" lon="6.85604">
        <ele>887</ele>
        <time>2019-04-17T12:33:40Z</time>
      </trkpt>
      <trkpt lat="45.60417" lon="6.85722">
        <ele>892</ele>
        <time>2019-04-17T12:34:40Z</time>
      </trkpt>
      <trkpt lat="45.60357" lon="6.85874">
        <ele>894</ele>
        <time>2019-04-17T12:35:40Z</time>
      </trkpt>
      <trkpt lat="45.60351" lon="6.85902">
        <ele>894</ele>
        <time>2019-04-17T12:36:40Z</time>
      </trkpt>
      <trkpt lat="45.60349" lon="6.85934">
        <ele>895</ele>
        <time>2019-04-17T12:37:40Z</time>
      </trkpt>
      <trkpt lat="45.6035" lon="6.86077">
        <ele>898</ele>
        <time>2019-04-17T12:38:40Z</time>
      </trkpt>
      <trkpt lat="45.60348" lon="6.86098">
        <ele>898</ele>
        <time>2019-04-17T12:39:40Z</time>
      </trkpt>
      <trkpt lat="45.60307" lon="6.86313">
        <ele>907</ele>
        <time>2019-04-17T12:40:40Z</time>
      </trkpt>
      <trkpt lat="45.60293" lon="6.86396">
        <ele>911</ele>
        <time>2019-04-17T12:41:40Z</time>
      </trkpt>
      <trkpt lat="45.60282" lon="6.86447">
        <ele>909</ele>
        <time>2019-04-17T12:42:40Z</time>
      </trkpt>
      <trkpt lat="45.60271" lon="6.86483">
        <ele>906</ele>
        <time>2019-04-17T12:43:40Z</time>
      </trkpt>
      <trkpt lat="45.60242" lon="6.86538">
        <ele>900</ele>
        <time>2019-04-17T12:44:40Z</time>
      </trkpt>
      <trkpt lat="45.60204" lon="6.86582">
        <ele>899</ele>
        <time>2019-04-17T12:45:40Z</time>
      </trkpt>
      <trkpt lat="45.60032" lon="6.86755">
        <ele>907</ele>
        <time>2019-04-17T12:46:40Z</time>
      </trkpt>
      <trkpt lat="45.6001" lon="6.86791">
        <ele>907</ele>
        <time>2019-04-17T12:47:40Z</time>
      </trkpt>
      <trkpt lat="45.59978" lon="6.86866">
        <ele>909</ele>
        <time>2019-04-17T12:48:40Z</time>
      </trkpt>
      <trkpt lat="45.59971" lon="6.86885">
        <ele>910</ele>
        <time>2019-04-17T12:49:40Z</time>
      </trkpt>
      <trkpt lat="45.59944" lon="6.87003">
        <ele>917</ele>
        <time>2019-04-17T12:50:40Z</time>
      </trkpt>
      <trkpt lat="45.59905" lon="6.8714">
        <ele>914</ele>
        <time>2019-04-17T12:51:40Z</time>
      </trkpt>
      <trkpt lat="45.59782" lon="6.87611">
        <ele>920</ele>
        <time>2019-04-17T12:52:40Z</time>
      </trkpt>
      <trkpt lat="45.59775" lon="6.87641">
        <ele>922</ele>
        <time>2019-04-17T12:53:40Z</time>
      </trkpt>
      <trkpt lat="45.59729" lon="6.87939">
        <ele>939</ele>
        <time>2019-04-17T12:54:40Z</time>
      </trkpt>
      <trkpt lat="45.59711" lon="6.87964">
        <ele>937</ele>
        <time>2019-04-17T12:55:40Z</time>
      </trkpt>
      <trkpt lat="45.59635" lon="6.88047">
        <ele>939</ele>
        <time>2019-04-17T12:56:40Z</time>
      </trkpt>
      <trkpt lat="45.59549" lon="6.88123">
        <ele>961</ele>
        <time>2019-04-17T12:57:40Z</time>
      </trkpt>
      <trkpt lat="45.5953" lon="6.88121">
        <ele>963</ele>
        <time>2019-04-17T12:58:40Z</time>
      </trkpt>
      <trkpt lat="45.59494" lon="6.88083">
        <ele>955</ele>
        <time>2019-04-17T12:59:40Z</time>
      </trkpt>
      <trkpt lat="45.59409" lon="6.88074">
        <ele>959</ele>
        <time>2019-04-17T13:00:40Z</time>
      </trkpt>
      <trkpt lat="45.59365" lon="6.88103">
        <ele>969</ele>
        <time>2019-04-17T13:01:40Z</time>
      </trkpt>
      <trkpt lat="45.59345" lon="6.88109">
        <ele>972</ele>
        <time>2019-04-17T13:02:40Z</time>
      </trkpt>
      <trkpt lat="45.59325" lon="6.88111">
        <ele>974</ele>
        <time>2019-04-17T13:03:40Z</time>
      </trkpt>
      <trkpt lat="45.59295" lon="6.88108">
        <ele>974</ele>
        <time>2019-04-17T13:04:40Z</time>
      </trkpt>
      <trkpt lat="45.59282" lon="6.88103">
        <ele>973</ele>
        <time>2019-04-17T13:05:40Z</time>
      </trkpt>
      <trkpt lat="45.59269" lon="6.88096">
        <ele>972</ele>
        <time>2019-04-17T13:06:40Z</time>
      </trkpt>
      <trkpt lat="45.59258" lon="6.88088">
        <ele>969</ele>
        <time>2019-04-17T13:07:40Z</time>
      </trkpt>
      <trkpt lat="45.59239" lon="6.88069">
        <ele>964</ele>
        <time>2019-04-17T13:08:40Z</time>
      </trkpt>
      <trkpt lat="45.59229" lon="6.88062">
        <ele>963</ele>
        <time>2019-04-17T13:09:40Z</time>
      </trkpt>
      <trkpt lat="45.5922" lon="6.88063">
        <ele>964</ele>
        <time>2019-04-17T13:10:40Z</time>
      </trkpt>
      <trkpt lat="45.59216" lon="6.88066">
        <ele>965</ele>
        <time>2019-04-17T13:11:40Z</time>
      </trkpt>
      <trkpt lat="45.59213" lon="6.88072">
        <ele>967</ele>
        <time>2019-04-17T13:12:40Z</time>
      </trkpt>
      <trkpt lat="45.59211" lon="6.88081">
        <ele>969</ele>
        <time>2019-04-17T13:13:40Z</time>
      </trkpt>
      <trkpt lat="45.59213" lon="6.88093">
        <ele>974</ele>
        <time>2019-04-17T13:14:40Z</time>
      </trkpt>
      <trkpt lat="45.59222" lon="6.88101">
        <ele>976</ele>
        <time>2019-04-17T13:15:40Z</time>
      </trkpt>
      <trkpt lat="45.59241" lon="6.88105">
        <ele>977</ele>
        <time>2019-04-17T13:16:40Z</time>
      </trkpt>
      <trkpt lat="45.59305" lon="6.88138">
        <ele>985</ele>
        <time>2019-04-17T13:17:40Z</time>
      </trkpt>
      <trkpt lat="45.59438" lon="6.88158">
        <ele>984</ele>
        <time>2019-04-17T13:18:40Z</time>
      </trkpt>
      <trkpt lat="45.59476" lon="6.88186">
        <ele>991</ele>
        <time>2019-04-17T13:19:40Z</time>
      </trkpt>
      <trkpt lat="45.59516" lon="6.88229">
        <ele>1005</ele>
        <time>2019-04-17T13:20:40Z</time>
      </trkpt>
      <trkpt lat="45.59567" lon="6.8823">
        <ele>1002</ele>
        <time>2019-04-17T13:21:40Z</time>
      </trkpt>
      <trkpt lat="45.5959" lon="6.88222">
        <ele>998</ele>
        <time>2019-04-17T13:22:40Z</time>
      </trkpt>
      <trkpt lat="45.59603" lon="6.8822">
        <ele>999</ele>
        <time>2019-04-17T13:23:40Z</time>
      </trkpt>
      <trkpt lat="45.5961" lon="6.88224">
        <ele>1002</ele>
        <time>2019-04-17T13:24:40Z</time>
      </trkpt>
      <trkpt lat="45.59614" lon="6.88231">
        <ele>1006</ele>
        <time>2019-04-17T13:25:40Z</time>
      </trkpt>
      <trkpt lat="45.59615" lon="6.88241">
        <ele>1011</ele>
        <time>2019-04-17T13:26:40Z</time>
      </trkpt>
      <trkpt lat="45.59615" lon="6.88252">
        <ele>1016</ele>
        <time>2019-04-17T13:27:40Z</time>
      </trkpt>
      <trkpt lat="45.59611" lon="6.88261">
        <ele>1022</ele>
        <time>2019-04-17T13:28:40Z</time>
      </trkpt>
      <trkpt lat="45.59605" lon="6.88265">
        <ele>1023</ele>
        <time>2019-04-17T13:29:40Z</time>
      </trkpt>
      <trkpt lat="45.59592" lon="6.88264">
        <ele>1021</ele>
        <time>2019-04-17T13:30:40Z</time>
      </trkpt>
      <trkpt lat="45.59568" lon="6.88251">
        <ele>1012</ele>
        <time>2019-04-17T13:31:40Z</time>
      </trkpt>
      <trkpt lat="45.59517" lon="6.88262">
        <ele>1020</ele>
        <time>2019-04-17T13:32:40Z</time>
      </trkpt>
      <trkpt lat="45.59474" lon="6.8824">
        <ele>1014</ele>
        <time>2019-04-17T13:33:40Z</time>
      </trkpt>
      <trkpt lat="45.59379" lon="6.88235">
        <ele>1020</ele>
        <time>2019-04-17T13:34:40Z</time>
      </trkpt>
      <trkpt lat="45.59334" lon="6.88236">
        <ele>1022</ele>
        <time>2019-04-17T13:35:40Z</time>
      </trkpt>
      <trkpt lat="45.59274" lon="6.8826">
        <ele>1031</ele>
        <time>2019-04-17T13:36:40Z</time>
      </trkpt>
      <trkpt lat="45.59238" lon="6.88252">
        <ele>1029</ele>
        <time>2019-04-17T13:37:40Z</time>
      </trkpt>
      <trkpt lat="45.59143" lon="6.88257">
        <ele>1035</ele>
        <time>2019-04-17T13:38:40Z</time>
      </trkpt>
      <trkpt lat="45.59117" lon="6.88264">
        <ele>1035</ele>
        <time>2019-04-17T13:39:40Z</time>
      </trkpt>
      <trkpt lat="45.59084" lon="6.8828">
        <ele>1037</ele>
        <time>2019-04-17T13:40:40Z</time>
      </trkpt>
      <trkpt lat="45.59057" lon="6.88299">
        <ele>1038</ele>
        <time>2019-04-17T13:41:40Z</time>
      </trkpt>
      <trkpt lat="45.59049" lon="6.8831">
        <ele>1040</ele>
        <time>2019-04-17T13:42:40Z</time>
      </trkpt>
      <trkpt lat="45.59045" lon="6.88321">
        <ele>1042</ele>
        <time>2019-04-17T13:43:40Z</time>
      </trkpt>
      <trkpt lat="45.5904" lon="6.88343">
        <ele>1045</ele>
        <time>2019-04-17T13:44:40Z</time>
      </trkpt>
      <trkpt lat="45.59034" lon="6.88386">
        <ele>1051</ele>
        <time>2019-04-17T13:45:40Z</time>
      </trkpt>
      <trkpt lat="45.59024" lon="6.88405">
        <ele>1053</ele>
        <time>2019-04-17T13:46:40Z</time>
      </trkpt>
      <trkpt lat="45.59013" lon="6.88413">
        <ele>1054</ele>
        <time>2019-04-17T13:47:40Z</time>
      </trkpt>
      <trkpt lat="45.59003" lon="6.88413">
        <ele>1054</ele>
        <time>2019-04-17T13:48:40Z</time>
      </trkpt>
      <trkpt lat="45.5899" lon="6.88405">
        <ele>1054</ele>
        <time>2019-04-17T13:49:40Z</time>
      </trkpt>
      <trkpt lat="45.58977" lon="6.88392">
        <ele>1053</ele>
        <time>2019-04-17T13:50:40Z</time>
      </trkpt>
      <trkpt lat="45.58945" lon="6.88351">
        <ele>1051</ele>
        <time>2019-04-17T13:51:40Z</time>
      </trkpt>
      <trkpt lat="45.58926" lon="6.8834">
        <ele>1052</ele>
        <time>2019-04-17T13:52:40Z</time>
      </trkpt>
      <trkpt lat="45.58905" lon="6.88341">
        <ele>1053</ele>
        <time>2019-04-17T13:53:40Z</time>
      </trkpt>
      <trkpt lat="45.58884" lon="6.88345">
        <ele>1054</ele>
        <time>2019-04-17T13:54:40Z</time>
      </trkpt>
      <trkpt lat="45.58867" lon="6.88358">
        <ele>1056</ele>
        <time>2019-04-17T13:55:40Z</time>
      </trkpt>
      <trkpt lat="45.58861" lon="6.88372">
        <ele>1058</ele>
        <time>2019-04-17T13:56:40Z</time>
      </trkpt>
      <trkpt lat="45.58847" lon="6.88439">
        <ele>1069</ele>
        <time>2019-04-17T13:57:40Z</time>
      </trkpt>
      <trkpt lat="45.58831" lon="6.88459">
        <ele>1072</ele>
        <time>2019-04-17T13:58:40Z</time>
      </trkpt>
      <trkpt lat="45.58783" lon="6.88494">
        <ele>1080</ele>
        <time>2019-04-17T13:59:40Z</time>
      </trkpt>
      <trkpt lat="45.58765" lon="6.88496">
        <ele>1081</ele>
        <time>2019-04-17T14:00:40Z</time>
      </trkpt>
      <trkpt lat="45.58651" lon="6.88442">
        <ele>1083</ele>
        <time>2019-04-17T14:01:40Z</time>
      </trkpt>
      <trkpt lat="45.5863" lon="6.88439">
        <ele>1084</ele>
        <time>2019-04-17T14:02:40Z</time>
      </trkpt>
      <trkpt lat="45.58613" lon="6.88438">
        <ele>1084</ele>
        <time>2019-04-17T14:03:40Z</time>
      </trkpt>
      <trkpt lat="45.58599" lon="6.88446">
        <ele>1086</ele>
        <time>2019-04-17T14:04:40Z</time>
      </trkpt>
      <trkpt lat="45.58532" lon="6.88501">
        <ele>1098</ele>
        <time>2019-04-17T14:05:40Z</time>
      </trkpt>
      <trkpt lat="45.58506" lon="6.88513">
        <ele>1103</ele>
        <time>2019-04-17T14:06:40Z</time>
      </trkpt>
      <trkpt lat="45.58479" lon="6.88503">
        <ele>1103</ele>
        <time>2019-04-17T14:07:40Z</time>
      </trkpt>
      <trkpt lat="45.58394" lon="6.88489">
        <ele>1113</ele>
        <time>2019-04-17T14:08:40Z</time>
      </trkpt>
      <trkpt lat="45.5834" lon="6.88471">
        <ele>1123</ele>
        <time>2019-04-17T14:09:40Z</time>
      </trkpt>
      <trkpt lat="45.58289" lon="6.88435">
        <ele>1121</ele>
        <time>2019-04-17T14:10:40Z</time>
      </trkpt>
      <trkpt lat="45.58257" lon="6.88423">
        <ele>1126</ele>
        <time>2019-04-17T14:11:40Z</time>
      </trkpt>
      <trkpt lat="45.58205" lon="6.88419">
        <ele>1131</ele>
        <time>2019-04-17T14:12:40Z</time>
      </trkpt>
      <trkpt lat="45.5812" lon="6.88395">
        <ele>1136</ele>
        <time>2019-04-17T14:13:40Z</time>
      </trkpt>
      <trkpt lat="45.58075" lon="6.88376">
        <ele>1137</ele>
        <time>2019-04-17T14:14:40Z</time>
      </trkpt>
      <trkpt lat="45.5812" lon="6.88395">
        <ele>1136</ele>
        <time>2019-04-17T14:15:40Z</time>
      </trkpt>
      <trkpt lat="45.58075" lon="6.88387">
        <ele>1141</ele>
        <time>2019-04-17T14:16:40Z</time>
      </trkpt>
      <trkpt lat="45.58042" lon="6.88385">
        <ele>1143</ele>
        <time>2019-04-17T14:17:40Z</time>
      </trkpt>
      <trkpt lat="45.58015" lon="6.88392">
        <ele>1147</ele>
        <time>2019-04-17T14:18:40Z</time>
      </trkpt>
      <trkpt lat="45.57984" lon="6.88396">
        <ele>1156</ele>
        <time>2019-04-17T14:19:40Z</time>
      </trkpt>
      <trkpt lat="45.5796" lon="6.8839">
        <ele>1164</ele>
        <time>2019-04-17T14:20:40Z</time>
      </trkpt>
      <trkpt lat="45.57909" lon="6.88344">
        <ele>1165</ele>
        <time>2019-04-17T14:21:40Z</time>
      </trkpt>
      <trkpt lat="45.57869" lon="6.8828">
        <ele>1163</ele>
        <time>2019-04-17T14:22:40Z</time>
      </trkpt>
      <trkpt lat="45.57859" lon="6.88256">
        <ele>1158</ele>
        <time>2019-04-17T14:23:40Z</time>
      </trkpt>
      <trkpt lat="45.57857" lon="6.88232">
        <ele>1150</ele>
        <time>2019-04-17T14:24:40Z</time>
      </trkpt>
      <trkpt lat="45.57848" lon="6.88222">
        <ele>1150</ele>
        <time>2019-04-17T14:25:40Z</time>
      </trkpt>
      <trkpt lat="45.5784" lon="6.88222">
        <ele>1152</ele>
        <time>2019-04-17T14:26:40Z</time>
      </trkpt>
      <trkpt lat="45.57833" lon="6.88229">
        <ele>1157</ele>
        <time>2019-04-17T14:27:40Z</time>
      </trkpt>
      <trkpt lat="45.57831" lon="6.88245">
        <ele>1163</ele>
        <time>2019-04-17T14:28:40Z</time>
      </trkpt>
      <trkpt lat="45.57842" lon="6.88266">
        <ele>1168</ele>
        <time>2019-04-17T14:29:40Z</time>
      </trkpt>
      <trkpt lat="45.57918" lon="6.8839">
        <ele>1181</ele>
        <time>2019-04-17T14:30:40Z</time>
      </trkpt>
      <trkpt lat="45.57952" lon="6.88436">
        <ele>1184</ele>
        <time>2019-04-17T14:31:40Z</time>
      </trkpt>
      <trkpt lat="45.57967" lon="6.88445">
        <ele>1179</ele>
        <time>2019-04-17T14:32:40Z</time>
      </trkpt>
      <trkpt lat="45.57995" lon="6.88455">
        <ele>1169</ele>
        <time>2019-04-17T14:33:40Z</time>
      </trkpt>
      <trkpt lat="45.57999" lon="6.88468">
        <ele>1171</ele>
        <time>2019-04-17T14:34:40Z</time>
      </trkpt>
      <trkpt lat="45.57998" lon="6.8848">
        <ele>1175</ele>
        <time>2019-04-17T14:35:40Z</time>
      </trkpt>
      <trkpt lat="45.5799" lon="6.88486">
        <ele>1181</ele>
        <time>2019-04-17T14:36:40Z</time>
      </trkpt>
      <trkpt lat="45.57979" lon="6.88484">
        <ele>1186</ele>
        <time>2019-04-17T14:37:40Z</time>
      </trkpt>
      <trkpt lat="45.5795" lon="6.88465">
        <ele>1195</ele>
        <time>2019-04-17T14:38:40Z</time>
      </trkpt>
      <trkpt lat="45.57927" lon="6.88432">
        <ele>1194</ele>
        <time>2019-04-17T14:39:40Z</time>
      </trkpt>
      <trkpt lat="45.57852" lon="6.88336">
        <ele>1192</ele>
        <time>2019-04-17T14:40:40Z</time>
      </trkpt>
      <trkpt lat="45.57823" lon="6.88308">
        <ele>1192</ele>
        <time>2019-04-17T14:41:40Z</time>
      </trkpt>
      <trkpt lat="45.57786" lon="6.88295">
        <ele>1194</ele>
        <time>2019-04-17T14:42:40Z</time>
      </trkpt>
      <trkpt lat="45.57735" lon="6.88291">
        <ele>1200</ele>
        <time>2019-04-17T14:43:40Z</time>
      </trkpt>
      <trkpt lat="45.57688" lon="6.88316">
        <ele>1204</ele>
        <time>2019-04-17T14:44:40Z</time>
      </trkpt>
      <trkpt lat="45.57643" lon="6.88356">
        <ele>1209</ele>
        <time>2019-04-17T14:45:40Z</time>
      </trkpt>
      <trkpt lat="45.57625" lon="6.88401">
        <ele>1218</ele>
        <time>2019-04-17T14:46:40Z</time>
      </trkpt>
      <trkpt lat="45.57597" lon="6.88424">
        <ele>1222</ele>
        <time>2019-04-17T14:47:40Z</time>
      </trkpt>
      <trkpt lat="45.57564" lon="6.88438">
        <ele>1226</ele>
        <time>2019-04-17T14:48:40Z</time>
      </trkpt>
      <trkpt lat="45.57533" lon="6.88441">
        <ele>1227</ele>
        <time>2019-04-17T14:49:40Z</time>
      </trkpt>
      <trkpt lat="45.57487" lon="6.8843">
        <ele>1225</ele>
        <time>2019-04-17T14:50:40Z</time>
      </trkpt>
      <trkpt lat="45.57476" lon="6.88431">
        <ele>1226</ele>
        <time>2019-04-17T14:51:40Z</time>
      </trkpt>
      <trkpt lat="45.57454" lon="6.88439">
        <ele>1228</ele>
        <time>2019-04-17T14:52:40Z</time>
      </trkpt>
      <trkpt lat="45.57439" lon="6.88448">
        <ele>1230</ele>
        <time>2019-04-17T14:53:40Z</time>
      </trkpt>
      <trkpt lat="45.57412" lon="6.88474">
        <ele>1234</ele>
        <time>2019-04-17T14:54:40Z</time>
      </trkpt>
      <trkpt lat="45.57379" lon="6.8851">
        <ele>1239</ele>
        <time>2019-04-17T14:55:40Z</time>
      </trkpt>
      <trkpt lat="45.57362" lon="6.88523">
        <ele>1241</ele>
        <time>2019-04-17T14:56:40Z</time>
      </trkpt>
      <trkpt lat="45.57325" lon="6.8854">
        <ele>1242</ele>
        <time>2019-04-17T14:57:40Z</time>
      </trkpt>
      <trkpt lat="45.57307" lon="6.8857">
        <ele>1246</ele>
        <time>2019-04-17T14:58:40Z</time>
      </trkpt>
      <trkpt lat="45.57292" lon="6.886">
        <ele>1250</ele>
        <time>2019-04-17T14:59:40Z</time>
      </trkpt>
      <trkpt lat="45.57268" lon="6.88621">
        <ele>1254</ele>
        <time>2019-04-17T15:00:40Z</time>
      </trkpt>
      <trkpt lat="45.57186" lon="6.88641">
        <ele>1257</ele>
        <time>2019-04-17T15:01:40Z</time>
      </trkpt>
      <trkpt lat="45.57135" lon="6.88658">
        <ele>1255</ele>
        <time>2019-04-17T15:02:40Z</time>
      </trkpt>
      <trkpt lat="45.57081" lon="6.88689">
        <ele>1258</ele>
        <time>2019-04-17T15:03:40Z</time>
      </trkpt>
      <trkpt lat="45.57041" lon="6.88717">
        <ele>1254</ele>
        <time>2019-04-17T15:04:40Z</time>
      </trkpt>
      <trkpt lat="45.57007" lon="6.88756">
        <ele>1256</ele>
        <time>2019-04-17T15:05:40Z</time>
      </trkpt>
      <trkpt lat="45.56956" lon="6.8882">
        <ele>1271</ele>
        <time>2019-04-17T15:06:40Z</time>
      </trkpt>
      <trkpt lat="45.56937" lon="6.88841">
        <ele>1276</ele>
        <time>2019-04-17T15:07:40Z</time>
      </trkpt>
      <trkpt lat="45.56915" lon="6.88859">
        <ele>1279</ele>
        <time>2019-04-17T15:08:40Z</time>
      </trkpt>
      <trkpt lat="45.56769" lon="6.88937">
        <ele>1290</ele>
        <time>2019-04-17T15:09:40Z</time>
      </trkpt>
      <trkpt lat="45.56757" lon="6.8894">
        <ele>1289</ele>
        <time>2019-04-17T15:10:40Z</time>
      </trkpt>
      <trkpt lat="45.56709" lon="6.88935">
        <ele>1276</ele>
        <time>2019-04-17T15:11:40Z</time>
      </trkpt>
      <trkpt lat="45.56699" lon="6.88936">
        <ele>1274</ele>
        <time>2019-04-17T15:12:40Z</time>
      </trkpt>
      <trkpt lat="45.56692" lon="6.88941">
        <ele>1275</ele>
        <time>2019-04-17T15:13:40Z</time>
      </trkpt>
      <trkpt lat="45.5668" lon="6.88952">
        <ele>1278</ele>
        <time>2019-04-17T15:14:40Z</time>
      </trkpt>
      <trkpt lat="45.56651" lon="6.88998">
        <ele>1290</ele>
        <time>2019-04-17T15:15:40Z</time>
      </trkpt>
      <trkpt lat="45.56605" lon="6.8906">
        <ele>1300</ele>
        <time>2019-04-17T15:16:40Z</time>
      </trkpt>
      <trkpt lat="45.56587" lon="6.89081">
        <ele>1306</ele>
        <time>2019-04-17T15:17:40Z</time>
      </trkpt>
      <trkpt lat="45.56546" lon="6.89112">
        <ele>1309</ele>
        <time>2019-04-17T15:18:40Z</time>
      </trkpt>
      <trkpt lat="45.56512" lon="6.89131">
        <ele>1309</ele>
        <time>2019-04-17T15:19:40Z</time>
      </trkpt>
      <trkpt lat="45.56497" lon="6.89144">
        <ele>1312</ele>
        <time>2019-04-17T15:20:40Z</time>
      </trkpt>
      <trkpt lat="45.5647" lon="6.89168">
        <ele>1315</ele>
        <time>2019-04-17T15:21:40Z</time>
      </trkpt>
      <trkpt lat="45.56397" lon="6.89247">
        <ele>1337</ele>
        <time>2019-04-17T15:22:40Z</time>
      </trkpt>
      <trkpt lat="45.56381" lon="6.89259">
        <ele>1340</ele>
        <time>2019-04-17T15:23:40Z</time>
      </trkpt>
      <trkpt lat="45.56364" lon="6.89265">
        <ele>1339</ele>
        <time>2019-04-17T15:24:40Z</time>
      </trkpt>
      <trkpt lat="45.56316" lon="6.89277">
        <ele>1335</ele>
        <time>2019-04-17T15:25:40Z</time>
      </trkpt>
      <trkpt lat="45.56298" lon="6.89284">
        <ele>1336</ele>
        <time>2019-04-17T15:26:40Z</time>
      </trkpt>
      <trkpt lat="45.56252" lon="6.8932">
        <ele>1344</ele>
        <time>2019-04-17T15:27:40Z</time>
      </trkpt>
      <trkpt lat="45.56137" lon="6.89422">
        <ele>1345</ele>
        <time>2019-04-17T15:28:40Z</time>
      </trkpt>
      <trkpt lat="45.56112" lon="6.89438">
        <ele>1349</ele>
        <time>2019-04-17T15:29:40Z</time>
      </trkpt>
      <trkpt lat="45.56087" lon="6.89449">
        <ele>1349</ele>
        <time>2019-04-17T15:30:40Z</time>
      </trkpt>
      <trkpt lat="45.56057" lon="6.89458">
        <ele>1345</ele>
        <time>2019-04-17T15:31:40Z</time>
      </trkpt>
      <trkpt lat="45.5602" lon="6.89463">
        <ele>1338</ele>
        <time>2019-04-17T15:32:40Z</time>
      </trkpt>
      <trkpt lat="45.55995" lon="6.8947">
        <ele>1334</ele>
        <time>2019-04-17T15:33:40Z</time>
      </trkpt>
      <trkpt lat="45.55983" lon="6.89478">
        <ele>1333</ele>
        <time>2019-04-17T15:34:40Z</time>
      </trkpt>
      <trkpt lat="45.55969" lon="6.89494">
        <ele>1332</ele>
        <time>2019-04-17T15:35:40Z</time>
      </trkpt>
      <trkpt lat="45.55958" lon="6.89516">
        <ele>1333</ele>
        <time>2019-04-17T15:36:40Z</time>
      </trkpt>
      <trkpt lat="45.55923" lon="6.89614">
        <ele>1342</ele>
        <time>2019-04-17T15:37:40Z</time>
      </trkpt>
      <trkpt lat="45.55881" lon="6.89684">
        <ele>1345</ele>
        <time>2019-04-17T15:38:40Z</time>
      </trkpt>
      <trkpt lat="45.55866" lon="6.89707">
        <ele>1346</ele>
        <time>2019-04-17T15:39:40Z</time>
      </trkpt>
      <trkpt lat="45.55852" lon="6.89723">
        <ele>1344</ele>
        <time>2019-04-17T15:40:40Z</time>
      </trkpt>
      <trkpt lat="45.55838" lon="6.89734">
        <ele>1341</ele>
        <time>2019-04-17T15:41:40Z</time>
      </trkpt>
      <trkpt lat="45.55827" lon="6.89744">
        <ele>1339</ele>
        <time>2019-04-17T15:42:40Z</time>
      </trkpt>
      <trkpt lat="45.55819" lon="6.89758">
        <ele>1341</ele>
        <time>2019-04-17T15:43:40Z</time>
      </trkpt>
      <trkpt lat="45.55799" lon="6.89806">
        <ele>1350</ele>
        <time>2019-04-17T15:44:40Z</time>
      </trkpt>
      <trkpt lat="45.5578" lon="6.89834">
        <ele>1354</ele>
        <time>2019-04-17T15:45:40Z</time>
      </trkpt>
      <trkpt lat="45.5574" lon="6.89884">
        <ele>1352</ele>
        <time>2019-04-17T15:46:40Z</time>
      </trkpt>
      <trkpt lat="45.55731" lon="6.89899">
        <ele>1352</ele>
        <time>2019-04-17T15:47:40Z</time>
      </trkpt>
      <trkpt lat="45.55725" lon="6.89913">
        <ele>1352</ele>
        <time>2019-04-17T15:48:40Z</time>
      </trkpt>
      <trkpt lat="45.5571" lon="6.89937">
        <ele>1354</ele>
        <time>2019-04-17T15:49:40Z</time>
      </trkpt>
      <trkpt lat="45.55674" lon="6.89981">
        <ele>1353</ele>
        <time>2019-04-17T15:50:40Z</time>
      </trkpt>
      <trkpt lat="45.55604" lon="6.90081">
        <ele>1371</ele>
        <time>2019-04-17T15:51:40Z</time>
      </trkpt>
      <trkpt lat="45.55584" lon="6.90099">
        <ele>1378</ele>
        <time>2019-04-17T15:52:40Z</time>
      </trkpt>
      <trkpt lat="45.55562" lon="6.90114">
        <ele>1383</ele>
        <time>2019-04-17T15:53:40Z</time>
      </trkpt>
      <trkpt lat="45.5553" lon="6.90125">
        <ele>1377</ele>
        <time>2019-04-17T15:54:40Z</time>
      </trkpt>
      <trkpt lat="45.55459" lon="6.90158">
        <ele>1369</ele>
        <time>2019-04-17T15:55:40Z</time>
      </trkpt>
      <trkpt lat="45.55434" lon="6.90164">
        <ele>1366</ele>
        <time>2019-04-17T15:56:40Z</time>
      </trkpt>
      <trkpt lat="45.55334" lon="6.90159">
        <ele>1382</ele>
        <time>2019-04-17T15:57:40Z</time>
      </trkpt>
      <trkpt lat="45.55303" lon="6.90151">
        <ele>1375</ele>
        <time>2019-04-17T15:58:40Z</time>
      </trkpt>
      <trkpt lat="45.55286" lon="6.90149">
        <ele>1373</ele>
        <time>2019-04-17T15:59:40Z</time>
      </trkpt>
      <trkpt lat="45.55269" lon="6.90153">
        <ele>1374</ele>
        <time>2019-04-17T16:00:40Z</time>
      </trkpt>
      <trkpt lat="45.55254" lon="6.9016">
        <ele>1376</ele>
        <time>2019-04-17T16:01:40Z</time>
      </trkpt>
      <trkpt lat="45.55091" lon="6.90283">
        <ele>1392</ele>
        <time>2019-04-17T16:02:40Z</time>
      </trkpt>
      <trkpt lat="45.55065" lon="6.90308">
        <ele>1393</ele>
        <time>2019-04-17T16:03:40Z</time>
      </trkpt>
      <trkpt lat="45.55035" lon="6.90346">
        <ele>1397</ele>
        <time>2019-04-17T16:04:40Z</time>
      </trkpt>
      <trkpt lat="45.55005" lon="6.90382">
        <ele>1397</ele>
        <time>2019-04-17T16:05:40Z</time>
      </trkpt>
      <trkpt lat="45.54976" lon="6.90425">
        <ele>1400</ele>
        <time>2019-04-17T16:06:40Z</time>
      </trkpt>
      <trkpt lat="45.54863" lon="6.90617">
        <ele>1416</ele>
        <time>2019-04-17T16:07:40Z</time>
      </trkpt>
      <trkpt lat="45.54843" lon="6.9064">
        <ele>1418</ele>
        <time>2019-04-17T16:08:40Z</time>
      </trkpt>
      <trkpt lat="45.54759" lon="6.90705">
        <ele>1423</ele>
        <time>2019-04-17T16:09:40Z</time>
      </trkpt>
      <trkpt lat="45.54724" lon="6.90727">
        <ele>1426</ele>
        <time>2019-04-17T16:10:40Z</time>
      </trkpt>
      <trkpt lat="45.54699" lon="6.90738">
        <ele>1426</ele>
        <time>2019-04-17T16:11:40Z</time>
      </trkpt>
      <trkpt lat="45.54627" lon="6.90759">
        <ele>1419</ele>
        <time>2019-04-17T16:12:40Z</time>
      </trkpt>
      <trkpt lat="45.54576" lon="6.90781">
        <ele>1419</ele>
        <time>2019-04-17T16:13:40Z</time>
      </trkpt>
      <trkpt lat="45.54531" lon="6.90794">
        <ele>1418</ele>
        <time>2019-04-17T16:14:40Z</time>
      </trkpt>
      <trkpt lat="45.54488" lon="6.90819">
        <ele>1423</ele>
        <time>2019-04-17T16:15:40Z</time>
      </trkpt>
      <trkpt lat="45.54462" lon="6.90838">
        <ele>1427</ele>
        <time>2019-04-17T16:16:40Z</time>
      </trkpt>
      <trkpt lat="45.54435" lon="6.90853">
        <ele>1432</ele>
        <time>2019-04-17T16:17:40Z</time>
      </trkpt>
      <trkpt lat="45.54375" lon="6.90878">
        <ele>1432</ele>
        <time>2019-04-17T16:18:40Z</time>
      </trkpt>
      <trkpt lat="45.54354" lon="6.9089">
        <ele>1432</ele>
        <time>2019-04-17T16:19:40Z</time>
      </trkpt>
      <trkpt lat="45.54319" lon="6.90916">
        <ele>1436</ele>
        <time>2019-04-17T16:20:40Z</time>
      </trkpt>
      <trkpt lat="45.54275" lon="6.90953">
        <ele>1444</ele>
        <time>2019-04-17T16:21:40Z</time>
      </trkpt>
      <trkpt lat="45.54246" lon="6.90981">
        <ele>1447</ele>
        <time>2019-04-17T16:22:40Z</time>
      </trkpt>
      <trkpt lat="45.54177" lon="6.91059">
        <ele>1456</ele>
        <time>2019-04-17T16:23:40Z</time>
      </trkpt>
      <trkpt lat="45.54157" lon="6.91073">
        <ele>1457</ele>
        <time>2019-04-17T16:24:40Z</time>
      </trkpt>
      <trkpt lat="45.54126" lon="6.91091">
        <ele>1463</ele>
        <time>2019-04-17T16:25:40Z</time>
      </trkpt>
      <trkpt lat="45.54105" lon="6.911">
        <ele>1467</ele>
        <time>2019-04-17T16:26:40Z</time>
      </trkpt>
      <trkpt lat="45.54083" lon="6.91101">
        <ele>1466</ele>
        <time>2019-04-17T16:27:40Z</time>
      </trkpt>
      <trkpt lat="45.54067" lon="6.91098">
        <ele>1464</ele>
        <time>2019-04-17T16:28:40Z</time>
      </trkpt>
      <trkpt lat="45.54047" lon="6.91088">
        <ele>1457</ele>
        <time>2019-04-17T16:29:40Z</time>
      </trkpt>
      <trkpt lat="45.54028" lon="6.91082">
        <ele>1453</ele>
        <time>2019-04-17T16:30:40Z</time>
      </trkpt>
      <trkpt lat="45.54006" lon="6.91088">
        <ele>1456</ele>
        <time>2019-04-17T16:31:40Z</time>
      </trkpt>
      <trkpt lat="45.53988" lon="6.91101">
        <ele>1462</ele>
        <time>2019-04-17T16:32:40Z</time>
      </trkpt>
      <trkpt lat="45.53949" lon="6.91125">
        <ele>1470</ele>
        <time>2019-04-17T16:33:40Z</time>
      </trkpt>
      <trkpt lat="45.5392" lon="6.91148">
        <ele>1481</ele>
        <time>2019-04-17T16:34:40Z</time>
      </trkpt>
      <trkpt lat="45.53903" lon="6.91149">
        <ele>1479</ele>
        <time>2019-04-17T16:35:40Z</time>
      </trkpt>
      <trkpt lat="45.53863" lon="6.91142">
        <ele>1469</ele>
        <time>2019-04-17T16:36:40Z</time>
      </trkpt>
      <trkpt lat="45.5384" lon="6.91148">
        <ele>1470</ele>
        <time>2019-04-17T16:37:40Z</time>
      </trkpt>
      <trkpt lat="45.53803" lon="6.91167">
        <ele>1472</ele>
        <time>2019-04-17T16:38:40Z</time>
      </trkpt>
      <trkpt lat="45.5378" lon="6.91185">
        <ele>1471</ele>
        <time>2019-04-17T16:39:40Z</time>
      </trkpt>
      <trkpt lat="45.53704" lon="6.91278">
        <ele>1473</ele>
        <time>2019-04-17T16:40:40Z</time>
      </trkpt>
      <trkpt lat="45.53689" lon="6.913">
        <ele>1473</ele>
        <time>2019-04-17T16:41:40Z</time>
      </trkpt>
      <trkpt lat="45.5368" lon="6.91323">
        <ele>1477</ele>
        <time>2019-04-17T16:42:40Z</time>
      </trkpt>
      <trkpt lat="45.53656" lon="6.91412">
        <ele>1489</ele>
        <time>2019-04-17T16:43:40Z</time>
      </trkpt>
      <trkpt lat="45.53648" lon="6.91424">
        <ele>1493</ele>
        <time>2019-04-17T16:44:40Z</time>
      </trkpt>
      <trkpt lat="45.5364" lon="6.91434">
        <ele>1497</ele>
        <time>2019-04-17T16:45:40Z</time>
      </trkpt>
      <trkpt lat="45.53629" lon="6.91438">
        <ele>1499</ele>
        <time>2019-04-17T16:46:40Z</time>
      </trkpt>
      <trkpt lat="45.53617" lon="6.91439">
        <ele>1499</ele>
        <time>2019-04-17T16:47:40Z</time>
      </trkpt>
      <trkpt lat="45.53581" lon="6.91429">
        <ele>1491</ele>
        <time>2019-04-17T16:48:40Z</time>
      </trkpt>
      <trkpt lat="45.53566" lon="6.91432">
        <ele>1492</ele>
        <time>2019-04-17T16:49:40Z</time>
      </trkpt>
      <trkpt lat="45.53515" lon="6.91462">
        <ele>1501</ele>
        <time>2019-04-17T16:50:40Z</time>
      </trkpt>
      <trkpt lat="45.53504" lon="6.91461">
        <ele>1499</ele>
        <time>2019-04-17T16:51:40Z</time>
      </trkpt>
      <trkpt lat="45.53485" lon="6.91456">
        <ele>1495</ele>
        <time>2019-04-17T16:52:40Z</time>
      </trkpt>
      <trkpt lat="45.53464" lon="6.91459">
        <ele>1495</ele>
        <time>2019-04-17T16:53:40Z</time>
      </trkpt>
      <trkpt lat="45.534" lon="6.91486">
        <ele>1507</ele>
        <time>2019-04-17T16:54:40Z</time>
      </trkpt>
      <trkpt lat="45.53375" lon="6.91495">
        <ele>1513</ele>
        <time>2019-04-17T16:55:40Z</time>
      </trkpt>
      <trkpt lat="45.53329" lon="6.915">
        <ele>1518</ele>
        <time>2019-04-17T16:56:40Z</time>
      </trkpt>
      <trkpt lat="45.53235" lon="6.91516">
        <ele>1517</ele>
        <time>2019-04-17T16:57:40Z</time>
      </trkpt>
      <trkpt lat="45.53203" lon="6.91529">
        <ele>1520</ele>
        <time>2019-04-17T16:58:40Z</time>
      </trkpt>
      <trkpt lat="45.53195" lon="6.9154">
        <ele>1524</ele>
        <time>2019-04-17T16:59:40Z</time>
      </trkpt>
      <trkpt lat="45.53177" lon="6.91584">
        <ele>1544</ele>
        <time>2019-04-17T17:00:40Z</time>
      </trkpt>
      <trkpt lat="45.53165" lon="6.9159">
        <ele>1545</ele>
        <time>2019-04-17T17:01:40Z</time>
      </trkpt>
      <trkpt lat="45.53153" lon="6.91587">
        <ele>1548</ele>
        <time>2019-04-17T17:02:40Z</time>
      </trkpt>
      <trkpt lat="45.53137" lon="6.9157">
        <ele>1545</ele>
        <time>2019-04-17T17:03:40Z</time>
      </trkpt>
      <trkpt lat="45.53109" lon="6.91526">
        <ele>1533</ele>
        <time>2019-04-17T17:04:40Z</time>
      </trkpt>
      <trkpt lat="45.53096" lon="6.91512">
        <ele>1531</ele>
        <time>2019-04-17T17:05:40Z</time>
      </trkpt>
      <trkpt lat="45.53053" lon="6.91487">
        <ele>1534</ele>
        <time>2019-04-17T17:06:40Z</time>
      </trkpt>
      <trkpt lat="45.53031" lon="6.91478">
        <ele>1537</ele>
        <time>2019-04-17T17:07:40Z</time>
      </trkpt>
      <trkpt lat="45.5301" lon="6.91463">
        <ele>1538</ele>
        <time>2019-04-17T17:08:40Z</time>
      </trkpt>
      <trkpt lat="45.52956" lon="6.91406">
        <ele>1532</ele>
        <time>2019-04-17T17:09:40Z</time>
      </trkpt>
      <trkpt lat="45.52931" lon="6.91384">
        <ele>1533</ele>
        <time>2019-04-17T17:10:40Z</time>
      </trkpt>
      <trkpt lat="45.52903" lon="6.91368">
        <ele>1538</ele>
        <time>2019-04-17T17:11:40Z</time>
      </trkpt>
      <trkpt lat="45.52719" lon="6.91311">
        <ele>1567</ele>
        <time>2019-04-17T17:12:40Z</time>
      </trkpt>
      <trkpt lat="45.52647" lon="6.91281">
        <ele>1564</ele>
        <time>2019-04-17T17:13:40Z</time>
      </trkpt>
      <trkpt lat="45.52614" lon="6.91274">
        <ele>1565</ele>
        <time>2019-04-17T17:14:40Z</time>
      </trkpt>
      <trkpt lat="45.52559" lon="6.91268">
        <ele>1566</ele>
        <time>2019-04-17T17:15:40Z</time>
      </trkpt>
      <trkpt lat="45.52498" lon="6.91264">
        <ele>1564</ele>
        <time>2019-04-17T17:16:40Z</time>
      </trkpt>
      <trkpt lat="45.52476" lon="6.91265">
        <ele>1561</ele>
        <time>2019-04-17T17:17:40Z</time>
      </trkpt>
      <trkpt lat="45.52448" lon="6.91271">
        <ele>1560</ele>
        <time>2019-04-17T17:18:40Z</time>
      </trkpt>
      <trkpt lat="45.52418" lon="6.9128">
        <ele>1560</ele>
        <time>2019-04-17T17:19:40Z</time>
      </trkpt>
      <trkpt lat="45.52395" lon="6.91291">
        <ele>1560</ele>
        <time>2019-04-17T17:20:40Z</time>
      </trkpt>
      <trkpt lat="45.52309" lon="6.91349">
        <ele>1567</ele>
        <time>2019-04-17T17:21:40Z</time>
      </trkpt>
      <trkpt lat="45.52288" lon="6.91359">
        <ele>1570</ele>
        <time>2019-04-17T17:22:40Z</time>
      </trkpt>
      <trkpt lat="45.52193" lon="6.91391">
        <ele>1577</ele>
        <time>2019-04-17T17:23:40Z</time>
      </trkpt>
      <trkpt lat="45.52179" lon="6.91393">
        <ele>1577</ele>
        <time>2019-04-17T17:24:40Z</time>
      </trkpt>
      <trkpt lat="45.52158" lon="6.91391">
        <ele>1576</ele>
        <time>2019-04-17T17:25:40Z</time>
      </trkpt>
      <trkpt lat="45.52139" lon="6.91383">
        <ele>1575</ele>
        <time>2019-04-17T17:26:40Z</time>
      </trkpt>
      <trkpt lat="45.52123" lon="6.91369">
        <ele>1572</ele>
        <time>2019-04-17T17:27:40Z</time>
      </trkpt>
      <trkpt lat="45.52089" lon="6.91335">
        <ele>1568</ele>
        <time>2019-04-17T17:28:40Z</time>
      </trkpt>
      <trkpt lat="45.52071" lon="6.9133">
        <ele>1566</ele>
        <time>2019-04-17T17:29:40Z</time>
      </trkpt>
      <trkpt lat="45.52059" lon="6.9133">
        <ele>1564</ele>
        <time>2019-04-17T17:30:40Z</time>
      </trkpt>
      <trkpt lat="45.52047" lon="6.91335">
        <ele>1564</ele>
        <time>2019-04-17T17:31:40Z</time>
      </trkpt>
      <trkpt lat="45.52024" lon="6.9136">
        <ele>1567</ele>
        <time>2019-04-17T17:32:40Z</time>
      </trkpt>
      <trkpt lat="45.52006" lon="6.91392">
        <ele>1572</ele>
        <time>2019-04-17T17:33:40Z</time>
      </trkpt>
      <trkpt lat="45.5198" lon="6.91428">
        <ele>1578</ele>
        <time>2019-04-17T17:34:40Z</time>
      </trkpt>
      <trkpt lat="45.51935" lon="6.91469">
        <ele>1584</ele>
        <time>2019-04-17T17:35:40Z</time>
      </trkpt>
      <trkpt lat="45.51895" lon="6.91493">
        <ele>1587</ele>
        <time>2019-04-17T17:36:40Z</time>
      </trkpt>
      <trkpt lat="45.51803" lon="6.91539">
        <ele>1598</ele>
        <time>2019-04-17T17:37:40Z</time>
      </trkpt>
      <trkpt lat="45.51782" lon="6.91555">
        <ele>1601</ele>
        <time>2019-04-17T17:38:40Z</time>
      </trkpt>
      <trkpt lat="45.51761" lon="6.91577">
        <ele>1602</ele>
        <time>2019-04-17T17:39:40Z</time>
      </trkpt>
      <trkpt lat="45.51733" lon="6.9161">
        <ele>1611</ele>
        <time>2019-04-17T17:40:40Z</time>
      </trkpt>
      <trkpt lat="45.51704" lon="6.91624">
        <ele>1618</ele>
        <time>2019-04-17T17:41:40Z</time>
      </trkpt>
      <trkpt lat="45.51675" lon="6.9163">
        <ele>1623</ele>
        <time>2019-04-17T17:42:40Z</time>
      </trkpt>
      <trkpt lat="45.51652" lon="6.91631">
        <ele>1622</ele>
        <time>2019-04-17T17:43:40Z</time>
      </trkpt>
      <trkpt lat="45.51601" lon="6.91641">
        <ele>1623</ele>
        <time>2019-04-17T17:44:40Z</time>
      </trkpt>
      <trkpt lat="45.51554" lon="6.91654">
        <ele>1624</ele>
        <time>2019-04-17T17:45:40Z</time>
      </trkpt>
      <trkpt lat="45.51515" lon="6.91669">
        <ele>1623</ele>
        <time>2019-04-17T17:46:40Z</time>
      </trkpt>
      <trkpt lat="45.51475" lon="6.91688">
        <ele>1628</ele>
        <time>2019-04-17T17:47:40Z</time>
      </trkpt>
      <trkpt lat="45.51432" lon="6.91714">
        <ele>1635</ele>
        <time>2019-04-17T17:48:40Z</time>
      </trkpt>
      <trkpt lat="45.51404" lon="6.91734">
        <ele>1638</ele>
        <time>2019-04-17T17:49:40Z</time>
      </trkpt>
      <trkpt lat="45.51372" lon="6.91769">
        <ele>1640</ele>
        <time>2019-04-17T17:50:40Z</time>
      </trkpt>
      <trkpt lat="45.5129" lon="6.91882">
        <ele>1648</ele>
        <time>2019-04-17T17:51:40Z</time>
      </trkpt>
      <trkpt lat="45.51144" lon="6.92069">
        <ele>1657</ele>
        <time>2019-04-17T17:52:40Z</time>
      </trkpt>
      <trkpt lat="45.51093" lon="6.92137">
        <ele>1661</ele>
        <time>2019-04-17T17:53:40Z</time>
      </trkpt>
      <trkpt lat="45.51054" lon="6.922">
        <ele>1668</ele>
        <time>2019-04-17T17:54:40Z</time>
      </trkpt>
      <trkpt lat="45.5103" lon="6.92244">
        <ele>1672</ele>
        <time>2019-04-17T17:55:40Z</time>
      </trkpt>
      <trkpt lat="45.5099" lon="6.9235">
        <ele>1690</ele>
        <time>2019-04-17T17:56:40Z</time>
      </trkpt>
      <trkpt lat="45.50969" lon="6.9239">
        <ele>1696</ele>
        <time>2019-04-17T17:57:40Z</time>
      </trkpt>
      <trkpt lat="45.50941" lon="6.92422">
        <ele>1694</ele>
        <time>2019-04-17T17:58:40Z</time>
      </trkpt>
      <trkpt lat="45.50907" lon="6.92453">
        <ele>1699</ele>
        <time>2019-04-17T17:59:40Z</time>
      </trkpt>
      <trkpt lat="45.50879" lon="6.92471">
        <ele>1702</ele>
        <time>2019-04-17T18:00:40Z</time>
      </trkpt>
      <trkpt lat="45.50842" lon="6.9249">
        <ele>1705</ele>
        <time>2019-04-17T18:01:40Z</time>
      </trkpt>
      <trkpt lat="45.50782" lon="6.92517">
        <ele>1701</ele>
        <time>2019-04-17T18:02:40Z</time>
      </trkpt>
      <trkpt lat="45.50756" lon="6.9253">
        <ele>1699</ele>
        <time>2019-04-17T18:03:40Z</time>
      </trkpt>
      <trkpt lat="45.50742" lon="6.92545">
        <ele>1701</ele>
        <time>2019-04-17T18:04:40Z</time>
      </trkpt>
      <trkpt lat="45.50726" lon="6.92569">
        <ele>1708</ele>
        <time>2019-04-17T18:05:40Z</time>
      </trkpt>
      <trkpt lat="45.50684" lon="6.92639">
        <ele>1725</ele>
        <time>2019-04-17T18:06:40Z</time>
      </trkpt>
      <trkpt lat="45.50672" lon="6.92656">
        <ele>1729</ele>
        <time>2019-04-17T18:07:40Z</time>
      </trkpt>
      <trkpt lat="45.50619" lon="6.9271">
        <ele>1732</ele>
        <time>2019-04-17T18:08:40Z</time>
      </trkpt>
      <trkpt lat="45.50526" lon="6.92825">
        <ele>1735</ele>
        <time>2019-04-17T18:09:40Z</time>
      </trkpt>
      <trkpt lat="45.50453" lon="6.92919">
        <ele>1749</ele>
        <time>2019-04-17T18:10:40Z</time>
      </trkpt>
      <trkpt lat="45.50374" lon="6.92985">
        <ele>1754</ele>
        <time>2019-04-17T18:11:40Z</time>
      </trkpt>
      <trkpt lat="45.50298" lon="6.93016">
        <ele>1756</ele>
        <time>2019-04-17T18:12:40Z</time>
      </trkpt>
      <trkpt lat="45.50259" lon="6.9302">
        <ele>1756</ele>
        <time>2019-04-17T18:13:40Z</time>
      </trkpt>
      <trkpt lat="45.50204" lon="6.93017">
        <ele>1751</ele>
        <time>2019-04-17T18:14:40Z</time>
      </trkpt>
      <trkpt lat="45.50182" lon="6.93022">
        <ele>1753</ele>
        <time>2019-04-17T18:15:40Z</time>
      </trkpt>
      <trkpt lat="45.50122" lon="6.93055">
        <ele>1768</ele>
        <time>2019-04-17T18:16:40Z</time>
      </trkpt>
      <trkpt lat="45.50043" lon="6.93086">
        <ele>1774</ele>
        <time>2019-04-17T18:17:40Z</time>
      </trkpt>
      <trkpt lat="45.49946" lon="6.93144">
        <ele>1786</ele>
        <time>2019-04-17T18:18:40Z</time>
      </trkpt>
      <trkpt lat="45.49835" lon="6.93196">
        <ele>1783</ele>
        <time>2019-04-17T18:19:40Z</time>
      </trkpt>
      <trkpt lat="45.49818" lon="6.9321">
        <ele>1782</ele>
        <time>2019-04-17T18:20:40Z</time>
      </trkpt>
      <trkpt lat="45.49791" lon="6.9324">
        <ele>1787</ele>
        <time>2019-04-17T18:21:40Z</time>
      </trkpt>
      <trkpt lat="45.49757" lon="6.93271">
        <ele>1791</ele>
        <time>2019-04-17T18:22:40Z</time>
      </trkpt>
      <trkpt lat="45.49738" lon="6.93295">
        <ele>1795</ele>
        <time>2019-04-17T18:23:40Z</time>
      </trkpt>
      <trkpt lat="45.49715" lon="6.93316">
        <ele>1796</ele>
        <time>2019-04-17T18:24:40Z</time>
      </trkpt>
      <trkpt lat="45.49672" lon="6.93352">
        <ele>1797</ele>
        <time>2019-04-17T18:25:40Z</time>
      </trkpt>
      <trkpt lat="45.49581" lon="6.93406">
        <ele>1769</ele>
        <time>2019-04-17T18:26:40Z</time>
      </trkpt>
      <trkpt lat="45.49562" lon="6.9342">
        <ele>1773</ele>
        <time>2019-04-17T18:27:40Z</time>
      </trkpt>
      <trkpt lat="45.49543" lon="6.93441">
        <ele>1779</ele>
        <time>2019-04-17T18:28:40Z</time>
      </trkpt>
      <trkpt lat="45.4953" lon="6.93466">
        <ele>1788</ele>
        <time>2019-04-17T18:29:40Z</time>
      </trkpt>
      <trkpt lat="45.49514" lon="6.93507">
        <ele>1803</ele>
        <time>2019-04-17T18:30:40Z</time>
      </trkpt>
      <trkpt lat="45.49389" lon="6.93686">
        <ele>1809</ele>
        <time>2019-04-17T18:31:40Z</time>
      </trkpt>
      <trkpt lat="45.49321" lon="6.93846">
        <ele>1830</ele>
        <time>2019-04-17T18:32:40Z</time>
      </trkpt>
      <trkpt lat="45.49233" lon="6.9401">
        <ele>1864</ele>
        <time>2019-04-17T18:33:40Z</time>
      </trkpt>
      <trkpt lat="45.49144" lon="6.94111">
        <ele>1853</ele>
        <time>2019-04-17T18:34:40Z</time>
      </trkpt>
      <trkpt lat="45.49014" lon="6.94182">
        <ele>1825</ele>
        <time>2019-04-17T18:35:40Z</time>
      </trkpt>
      <trkpt lat="45.48874" lon="6.94263">
        <ele>1822</ele>
        <time>2019-04-17T18:36:40Z</time>
      </trkpt>
      <trkpt lat="45.48727" lon="6.94331">
        <ele>1817</ele>
        <time>2019-04-17T18:37:40Z</time>
      </trkpt>
      <trkpt lat="45.48589" lon="6.94412">
        <ele>1815</ele>
        <time>2019-04-17T18:38:40Z</time>
      </trkpt>
      <trkpt lat="45.48495" lon="6.94472">
        <ele>1820</ele>
        <time>2019-04-17T18:39:40Z</time>
      </trkpt>
      <trkpt lat="45.48444" lon="6.94501">
        <ele>1822</ele>
        <time>2019-04-17T18:40:40Z</time>
      </trkpt>
      <trkpt lat="45.4834" lon="6.94519">
        <ele>1826</ele>
        <time>2019-04-17T18:41:40Z</time>
      </trkpt>
      <trkpt lat="45.48249" lon="6.9454">
        <ele>1816</ele>
        <time>2019-04-17T18:42:40Z</time>
      </trkpt>
      <trkpt lat="45.48184" lon="6.94566">
        <ele>1814</ele>
        <time>2019-04-17T18:43:40Z</time>
      </trkpt>
      <trkpt lat="45.48101" lon="6.9461">
        <ele>1815</ele>
        <time>2019-04-17T18:44:40Z</time>
      </trkpt>
      <trkpt lat="45.48037" lon="6.9465">
        <ele>1802</ele>
        <time>2019-04-17T18:45:40Z</time>
      </trkpt>
      <trkpt lat="45.48003" lon="6.94692">
        <ele>1800</ele>
        <time>2019-04-17T18:46:40Z</time>
      </trkpt>
      <trkpt lat="45.47951" lon="6.948">
        <ele>1807</ele>
        <time>2019-04-17T18:47:40Z</time>
      </trkpt>
      <trkpt lat="45.47901" lon="6.94872">
        <ele>1806</ele>
        <time>2019-04-17T18:48:40Z</time>
      </trkpt>
      <trkpt lat="45.47849" lon="6.94934">
        <ele>1807</ele>
        <time>2019-04-17T18:49:40Z</time>
      </trkpt>
      <trkpt lat="45.47793" lon="6.94986">
        <ele>1813</ele>
        <time>2019-04-17T18:50:40Z</time>
      </trkpt>
      <trkpt lat="45.47746" lon="6.95027">
        <ele>1811</ele>
        <time>2019-04-17T18:51:40Z</time>
      </trkpt>
      <trkpt lat="45.47735" lon="6.95035">
        <ele>1814</ele>
        <time>2019-04-17T18:52:40Z</time>
      </trkpt>
      <trkpt lat="45.47722" lon="6.95039">
        <ele>1815</ele>
        <time>2019-04-17T18:53:40Z</time>
      </trkpt>
      <trkpt lat="45.47709" lon="6.95037">
        <ele>1814</ele>
        <time>2019-04-17T18:54:40Z</time>
      </trkpt>
      <trkpt lat="45.47692" lon="6.95022">
        <ele>1811</ele>
        <time>2019-04-17T18:55:40Z</time>
      </trkpt>
      <trkpt lat="45.47685" lon="6.9501">
        <ele>1808</ele>
        <time>2019-04-17T18:56:40Z</time>
      </trkpt>
      <trkpt lat="45.47671" lon="6.9496">
        <ele>1800</ele>
        <time>2019-04-17T18:57:40Z</time>
      </trkpt>
      <trkpt lat="45.47664" lon="6.94945">
        <ele>1799</ele>
        <time>2019-04-17T18:58:40Z</time>
      </trkpt>
      <trkpt lat="45.4765" lon="6.9493">
        <ele>1798</ele>
        <time>2019-04-17T18:59:40Z</time>
      </trkpt>
      <trkpt lat="45.47639" lon="6.94924">
        <ele>1798</ele>
        <time>2019-04-17T19:00:40Z</time>
      </trkpt>
      <trkpt lat="45.47609" lon="6.94915">
        <ele>1799</ele>
        <time>2019-04-17T19:01:40Z</time>
      </trkpt>
      <trkpt lat="45.47584" lon="6.94914">
        <ele>1801</ele>
        <time>2019-04-17T19:02:40Z</time>
      </trkpt>
      <trkpt lat="45.47522" lon="6.94918">
        <ele>1809</ele>
        <time>2019-04-17T19:03:40Z</time>
      </trkpt>
      <trkpt lat="45.47512" lon="6.94916">
        <ele>1809</ele>
        <time>2019-04-17T19:04:40Z</time>
      </trkpt>
      <trkpt lat="45.47485" lon="6.9489">
        <ele>1800</ele>
        <time>2019-04-17T19:05:40Z</time>
      </trkpt>
      <trkpt lat="45.47463" lon="6.94861">
        <ele>1788</ele>
        <time>2019-04-17T19:06:40Z</time>
      </trkpt>
      <trkpt lat="45.47444" lon="6.94856">
        <ele>1785</ele>
        <time>2019-04-17T19:07:40Z</time>
      </trkpt>
      <trkpt lat="45.47425" lon="6.94857">
        <ele>1784</ele>
        <time>2019-04-17T19:08:40Z</time>
      </trkpt>
      <trkpt lat="45.47413" lon="6.94867">
        <ele>1785</ele>
        <time>2019-04-17T19:09:40Z</time>
      </trkpt>
      <trkpt lat="45.47402" lon="6.94884">
        <ele>1786</ele>
        <time>2019-04-17T19:10:40Z</time>
      </trkpt>
      <trkpt lat="45.47392" lon="6.94915">
        <ele>1790</ele>
        <time>2019-04-17T19:11:40Z</time>
      </trkpt>
      <trkpt lat="45.47355" lon="6.95134">
        <ele>1858</ele>
        <time>2019-04-17T19:12:40Z</time>
      </trkpt>
      <trkpt lat="45.47323" lon="6.95215">
        <ele>1856</ele>
        <time>2019-04-17T19:13:40Z</time>
      </trkpt>
      <trkpt lat="45.47242" lon="6.95302">
        <ele>1811</ele>
        <time>2019-04-17T19:14:40Z</time>
      </trkpt>
      <trkpt lat="45.47204" lon="6.95352">
        <ele>1802</ele>
        <time>2019-04-17T19:15:40Z</time>
      </trkpt>
      <trkpt lat="45.47193" lon="6.95387">
        <ele>1805</ele>
        <time>2019-04-17T19:16:40Z</time>
      </trkpt>
      <trkpt lat="45.47033" lon="6.95744">
        <ele>1841</ele>
        <time>2019-04-17T19:17:40Z</time>
      </trkpt>
      <trkpt lat="45.4693" lon="6.95884">
        <ele>1858</ele>
        <time>2019-04-17T19:18:40Z</time>
      </trkpt>
      <trkpt lat="45.46881" lon="6.95938">
        <ele>1864</ele>
        <time>2019-04-17T19:19:40Z</time>
      </trkpt>
      <trkpt lat="45.46851" lon="6.95955">
        <ele>1855</ele>
        <time>2019-04-17T19:20:40Z</time>
      </trkpt>
      <trkpt lat="45.46818" lon="6.95962">
        <ele>1842</ele>
        <time>2019-04-17T19:21:40Z</time>
      </trkpt>
      <trkpt lat="45.46776" lon="6.9596">
        <ele>1827</ele>
        <time>2019-04-17T19:22:40Z</time>
      </trkpt>
      <trkpt lat="45.46753" lon="6.95955">
        <ele>1819</ele>
        <time>2019-04-17T19:23:40Z</time>
      </trkpt>
      <trkpt lat="45.4673" lon="6.95954">
        <ele>1813</ele>
        <time>2019-04-17T19:24:40Z</time>
      </trkpt>
      <trkpt lat="45.46716" lon="6.95959">
        <ele>1811</ele>
        <time>2019-04-17T19:25:40Z</time>
      </trkpt>
      <trkpt lat="45.46701" lon="6.95969">
        <ele>1809</ele>
        <time>2019-04-17T19:26:40Z</time>
      </trkpt>
      <trkpt lat="45.46677" lon="6.95991">
        <ele>1806</ele>
        <time>2019-04-17T19:27:40Z</time>
      </trkpt>
      <trkpt lat="45.46653" lon="6.96017">
        <ele>1808</ele>
        <time>2019-04-17T19:28:40Z</time>
      </trkpt>
      <trkpt lat="45.466" lon="6.96089">
        <ele>1811</ele>
        <time>2019-04-17T19:29:40Z</time>
      </trkpt>
      <trkpt lat="45.46563" lon="6.96141">
        <ele>1811</ele>
        <time>2019-04-17T19:30:40Z</time>
      </trkpt>
      <trkpt lat="45.4651" lon="6.96195">
        <ele>1807</ele>
        <time>2019-04-17T19:31:40Z</time>
      </trkpt>
      <trkpt lat="45.46405" lon="6.96283">
        <ele>1809</ele>
        <time>2019-04-17T19:32:40Z</time>
      </trkpt>
      <trkpt lat="45.46367" lon="6.9632">
        <ele>1810</ele>
        <time>2019-04-17T19:33:40Z</time>
      </trkpt>
      <trkpt lat="45.46333" lon="6.96374">
        <ele>1807</ele>
        <time>2019-04-17T19:34:40Z</time>
      </trkpt>
      <trkpt lat="45.46294" lon="6.96414">
        <ele>1805</ele>
        <time>2019-04-17T19:35:40Z</time>
      </trkpt>
      <trkpt lat="45.46282" lon="6.96422">
        <ele>1804</ele>
        <time>2019-04-17T19:36:40Z</time>
      </trkpt>
      <trkpt lat="45.46276" lon="6.96413">
        <ele>1803</ele>
        <time>2019-04-17T19:37:40Z</time>
      </trkpt>
      <trkpt lat="45.46269" lon="6.96413">
        <ele>1802</ele>
        <time>2019-04-17T19:38:40Z</time>
      </trkpt>
      <trkpt lat="45.46263" lon="6.9642">
        <ele>1801</ele>
        <time>2019-04-17T19:39:40Z</time>
      </trkpt>
      <trkpt lat="45.46263" lon="6.9643">
        <ele>1803</ele>
        <time>2019-04-17T19:40:40Z</time>
      </trkpt>
      <trkpt lat="45.46122" lon="6.96505">
        <ele>1801</ele>
        <time>2019-04-17T19:41:40Z</time>
      </trkpt>
      <trkpt lat="45.45973" lon="6.96623">
        <ele>1800</ele>
        <time>2019-04-17T19:42:40Z</time>
      </trkpt>
      <trkpt lat="45.45967" lon="6.96617">
        <ele>1800</ele>
        <time>2019-04-17T19:43:40Z</time>
      </trkpt>
      <trkpt lat="45.4596" lon="6.96618">
        <ele>1800</ele>
        <time>2019-04-17T19:44:40Z</time>
      </trkpt>
      <trkpt lat="45.45956" lon="6.96626">
        <ele>1800</ele>
        <time>2019-04-17T19:45:40Z</time>
      </trkpt>
      <trkpt lat="45.45957" lon="6.96636">
        <ele>1800</ele>
        <time>2019-04-17T19:46:40Z</time>
      </trkpt>
      <trkpt lat="45.45545" lon="6.9696">
        <ele>1805</ele>
        <time>2019-04-17T19:47:40Z</time>
      </trkpt>
      <trkpt lat="45.45464" lon="6.97042">
        <ele>1809</ele>
        <time>2019-04-17T19:48:40Z</time>
      </trkpt>
      <trkpt lat="45.45435" lon="6.97084">
        <ele>1810</ele>
        <time>2019-04-17T19:49:40Z</time>
      </trkpt>
      <trkpt lat="45.45406" lon="6.97131">
        <ele>1810</ele>
        <time>2019-04-17T19:50:40Z</time>
      </trkpt>
      <trkpt lat="45.45351" lon="6.97234">
        <ele>1814</ele>
        <time>2019-04-17T19:51:40Z</time>
      </trkpt>
      <trkpt lat="45.45307" lon="6.97307">
        <ele>1815</ele>
        <time>2019-04-17T19:52:40Z</time>
      </trkpt>
      <trkpt lat="45.45268" lon="6.97359">
        <ele>1817</ele>
        <time>2019-04-17T19:53:40Z</time>
      </trkpt>
      <trkpt lat="45.45214" lon="6.97415">
        <ele>1820</ele>
        <time>2019-04-17T19:54:40Z</time>
      </trkpt>
      <trkpt lat="45.4518" lon="6.97458">
        <ele>1821</ele>
        <time>2019-04-17T19:55:40Z</time>
      </trkpt>
      <trkpt lat="45.45151" lon="6.9749">
        <ele>1820</ele>
        <time>2019-04-17T19:56:40Z</time>
      </trkpt>
      <trkpt lat="45.45108" lon="6.97566">
        <ele>1821</ele>
        <time>2019-04-17T19:57:40Z</time>
      </trkpt>
      <trkpt lat="45.45054" lon="6.9768">
        <ele>1824</ele>
        <time>2019-04-17T19:58:40Z</time>
      </trkpt>
      <trkpt lat="45.45039" lon="6.97707">
        <ele>1825</ele>
        <time>2019-04-17T19:59:40Z</time>
      </trkpt>
      <trkpt lat="45.4503" lon="6.97717">
        <ele>1825</ele>
        <time>2019-04-17T20:00:40Z</time>
      </trkpt>
      <trkpt lat="45.45016" lon="6.97729">
        <ele>1826</ele>
        <time>2019-04-17T20:01:40Z</time>
      </trkpt>
      <trkpt lat="45.4501" lon="6.97722">
        <ele>1826</ele>
        <time>2019-04-17T20:02:40Z</time>
      </trkpt>
      <trkpt lat="45.45006" lon="6.97721">
        <ele>1826</ele>
        <time>2019-04-17T20:03:40Z</time>
      </trkpt>
      <trkpt lat="45.44998" lon="6.97726">
        <ele>1826</ele>
        <time>2019-04-17T20:04:40Z</time>
      </trkpt>
      <trkpt lat="45.44995" lon="6.97737">
        <ele>1826</ele>
        <time>2019-04-17T20:05:40Z</time>
      </trkpt>
      <trkpt lat="45.44998" lon="6.97748">
        <ele>1826</ele>
        <time>2019-04-17T20:06:40Z</time>
      </trkpt>
      <trkpt lat="45.45" lon="6.97751">
        <ele>1826</ele>
        <time>2019-04-17T20:07:40Z</time>
      </trkpt>
      <trkpt lat="45.449" lon="6.97988">
        <ele>1837</ele>
        <time>2019-04-17T20:08:40Z</time>
      </trkpt>
      <trkpt lat="45.44892" lon="6.97987">
        <ele>1837</ele>
        <time>2019-04-17T20:09:40Z</time>
      </trkpt>
      <trkpt lat="45.44887" lon="6.97994">
        <ele>1838</ele>
        <time>2019-04-17T20:10:40Z</time>
      </trkpt>
      <trkpt lat="45.44885" lon="6.98002">
        <ele>1838</ele>
        <time>2019-04-17T20:11:40Z</time>
      </trkpt>
      <trkpt lat="45.44887" lon="6.98009">
        <ele>1838</ele>
        <time>2019-04-17T20:12:40Z</time>
      </trkpt>
      <trkpt lat="45.44892" lon="6.98014">
        <ele>1838</ele>
        <time>2019-04-17T20:13:40Z</time>
      </trkpt>
      <trkpt lat="45.44862" lon="6.98084">
        <ele>1837</ele>
        <time>2019-04-17T20:14:40Z</time>
      </trkpt>
      <trkpt lat="45.44823" lon="6.98168">
        <ele>1838</ele>
        <time>2019-04-17T20:15:40Z</time>
      </trkpt>
      <trkpt lat="45.44733" lon="6.98453">
        <ele>1843</ele>
        <time>2019-04-17T20:16:40Z</time>
      </trkpt>
      <trkpt lat="45.44696" lon="6.98563">
        <ele>1846</ele>
        <time>2019-04-17T20:17:40Z</time>
      </trkpt>
      <trkpt lat="45.44671" lon="6.98644">
        <ele>1849</ele>
        <time>2019-04-17T20:18:40Z</time>
      </trkpt>
      <trkpt lat="45.44662" lon="6.98686">
        <ele>1851</ele>
        <time>2019-04-17T20:19:40Z</time>
      </trkpt>
      <trkpt lat="45.44655" lon="6.98789">
        <ele>1853</ele>
        <time>2019-04-17T20:20:40Z</time>
      </trkpt>
      <trkpt lat="45.44649" lon="6.98792">
        <ele>1853</ele>
        <time>2019-04-17T20:21:40Z</time>
      </trkpt>
      <trkpt lat="45.44647" lon="6.98798">
        <ele>1853</ele>
        <time>2019-04-17T20:22:40Z</time>
      </trkpt>
      <trkpt lat="45.44647" lon="6.98805">
        <ele>1853</ele>
        <time>2019-04-17T20:23:40Z</time>
      </trkpt>
      <trkpt lat="45.44649" lon="6.9881">
        <ele>1853</ele>
        <time>2019-04-17T20:24:40Z</time>
      </trkpt>
      <trkpt lat="45.44654" lon="6.98814">
        <ele>1853</ele>
        <time>2019-04-17T20:25:40Z</time>
      </trkpt>
      <trkpt lat="45.44658" lon="6.98814">
        <ele>1853</ele>
        <time>2019-04-17T20:26:40Z</time>
      </trkpt>
      <trkpt lat="45.44674" lon="6.98911">
        <ele>1852</ele>
        <time>2019-04-17T20:27:40Z</time>
      </trkpt>
      <trkpt lat="45.44715" lon="6.99149">
        <ele>1856</ele>
        <time>2019-04-17T20:28:40Z</time>
      </trkpt>
      <trkpt lat="45.44736" lon="6.99306">
        <ele>1861</ele>
        <time>2019-04-17T20:29:40Z</time>
      </trkpt>
      <trkpt lat="45.44739" lon="6.99354">
        <ele>1862</ele>
        <time>2019-04-17T20:30:40Z</time>
      </trkpt>
      <trkpt lat="45.44738" lon="6.99424">
        <ele>1863</ele>
        <time>2019-04-17T20:31:40Z</time>
      </trkpt>
      <trkpt lat="45.44738" lon="6.9973">
        <ele>1873</ele>
        <time>2019-04-17T20:32:40Z</time>
      </trkpt>
      <trkpt lat="45.4475" lon="6.99881">
        <ele>1879</ele>
        <time>2019-04-17T20:33:40Z</time>
      </trkpt>
      <trkpt lat="45.44783" lon="7.0005">
        <ele>1895</ele>
        <time>2019-04-17T20:34:40Z</time>
      </trkpt>
      <trkpt lat="45.44787" lon="7.00145">
        <ele>1900</ele>
        <time>2019-04-17T20:35:40Z</time>
      </trkpt>
      <trkpt lat="45.44818" lon="7.00325">
        <ele>1903</ele>
        <time>2019-04-17T20:36:40Z</time>
      </trkpt>
      <trkpt lat="45.44827" lon="7.00586">
        <ele>1910</ele>
        <time>2019-04-17T20:37:40Z</time>
      </trkpt>
      <trkpt lat="45.4483" lon="7.00634">
        <ele>1911</ele>
        <time>2019-04-17T20:38:40Z</time>
      </trkpt>
      <trkpt lat="45.44839" lon="7.00674">
        <ele>1913</ele>
        <time>2019-04-17T20:39:40Z</time>
      </trkpt>
      <trkpt lat="45.44873" lon="7.00758">
        <ele>1923</ele>
        <time>2019-04-17T20:40:40Z</time>
      </trkpt>
      <trkpt lat="45.44963" lon="7.00959">
        <ele>1935</ele>
        <time>2019-04-17T20:41:40Z</time>
      </trkpt>
      <trkpt lat="45.44979" lon="7.00983">
        <ele>1937</ele>
        <time>2019-04-17T20:42:40Z</time>
      </trkpt>
      <trkpt lat="45.44986" lon="7.00998">
        <ele>1937</ele>
        <time>2019-04-17T20:43:40Z</time>
      </trkpt>
      <trkpt lat="45.45014" lon="7.01039">
        <ele>1940</ele>
        <time>2019-04-17T20:44:40Z</time>
      </trkpt>
      <trkpt lat="45.45029" lon="7.01064">
        <ele>1941</ele>
        <time>2019-04-17T20:45:40Z</time>
      </trkpt>
      <trkpt lat="45.45039" lon="7.01084">
        <ele>1942</ele>
        <time>2019-04-17T20:46:40Z</time>
      </trkpt>
      <trkpt lat="45.45049" lon="7.01109">
        <ele>1944</ele>
        <time>2019-04-17T20:47:40Z</time>
      </trkpt>
      <trkpt lat="45.45055" lon="7.01129">
        <ele>1945</ele>
        <time>2019-04-17T20:48:40Z</time>
      </trkpt>
      <trkpt lat="45.45055" lon="7.01147">
        <ele>1945</ele>
        <time>2019-04-17T20:49:40Z</time>
      </trkpt>
      <trkpt lat="45.45057" lon="7.01156">
        <ele>1946</ele>
        <time>2019-04-17T20:50:40Z</time>
      </trkpt>
      <trkpt lat="45.45067" lon="7.01181">
        <ele>1948</ele>
        <time>2019-04-17T20:51:40Z</time>
      </trkpt>
      <trkpt lat="45.45083" lon="7.01259">
        <ele>1952</ele>
        <time>2019-04-17T20:52:40Z</time>
      </trkpt>
      <trkpt lat="45.45111" lon="7.01336">
        <ele>1959</ele>
        <time>2019-04-17T20:53:40Z</time>
      </trkpt>
      <trkpt lat="45.45258" lon="7.01726">
        <ele>1984</ele>
        <time>2019-04-17T20:54:40Z</time>
      </trkpt>
      <trkpt lat="45.4527" lon="7.01773">
        <ele>1988</ele>
        <time>2019-04-17T20:55:40Z</time>
      </trkpt>
      <trkpt lat="45.45299" lon="7.01951">
        <ele>2000</ele>
        <time>2019-04-17T20:56:40Z</time>
      </trkpt>
      <trkpt lat="45.45302" lon="7.01979">
        <ele>2001</ele>
        <time>2019-04-17T20:57:40Z</time>
      </trkpt>
      <trkpt lat="45.453" lon="7.01998">
        <ele>2001</ele>
        <time>2019-04-17T20:58:40Z</time>
      </trkpt>
      <trkpt lat="45.45271" lon="7.02084">
        <ele>2002</ele>
        <time>2019-04-17T20:59:40Z</time>
      </trkpt>
      <trkpt lat="45.45259" lon="7.02129">
        <ele>2002</ele>
        <time>2019-04-17T21:00:40Z</time>
      </trkpt>
      <trkpt lat="45.45261" lon="7.02152">
        <ele>2004</ele>
        <time>2019-04-17T21:01:40Z</time>
      </trkpt>
      <trkpt lat="45.45266" lon="7.0217">
        <ele>2007</ele>
        <time>2019-04-17T21:02:40Z</time>
      </trkpt>
      <trkpt lat="45.45267" lon="7.02193">
        <ele>2010</ele>
        <time>2019-04-17T21:03:40Z</time>
      </trkpt>
      <trkpt lat="45.45263" lon="7.02215">
        <ele>2012</ele>
        <time>2019-04-17T21:04:40Z</time>
      </trkpt>
      <trkpt lat="45.45253" lon="7.02244">
        <ele>2014</ele>
        <time>2019-04-17T21:05:40Z</time>
      </trkpt>
      <trkpt lat="45.45226" lon="7.0228">
        <ele>2014</ele>
        <time>2019-04-17T21:06:40Z</time>
      </trkpt>
      <trkpt lat="45.45178" lon="7.02298">
        <ele>2010</ele>
        <time>2019-04-17T21:07:40Z</time>
      </trkpt>
      <trkpt lat="45.45152" lon="7.02341">
        <ele>2018</ele>
        <time>2019-04-17T21:08:40Z</time>
      </trkpt>
      <trkpt lat="45.45143" lon="7.02374">
        <ele>2023</ele>
        <time>2019-04-17T21:09:40Z</time>
      </trkpt>
      <trkpt lat="45.45143" lon="7.0241">
        <ele>2026</ele>
        <time>2019-04-17T21:10:40Z</time>
      </trkpt>
      <trkpt lat="45.45148" lon="7.02438">
        <ele>2026</ele>
        <time>2019-04-17T21:11:40Z</time>
      </trkpt>
      <trkpt lat="45.45247" lon="7.02706">
        <ele>2035</ele>
        <time>2019-04-17T21:12:40Z</time>
      </trkpt>
      <trkpt lat="45.4525" lon="7.02729">
        <ele>2035</ele>
        <time>2019-04-17T21:13:40Z</time>
      </trkpt>
      <trkpt lat="45.45258" lon="7.02833">
        <ele>2031</ele>
        <time>2019-04-17T21:14:40Z</time>
      </trkpt>
      <trkpt lat="45.45264" lon="7.02866">
        <ele>2032</ele>
        <time>2019-04-17T21:15:40Z</time>
      </trkpt>
      <trkpt lat="45.45376" lon="7.03152">
        <ele>2044</ele>
        <time>2019-04-17T21:16:40Z</time>
      </trkpt>
      <trkpt lat="45.45386" lon="7.03167">
        <ele>2045</ele>
        <time>2019-04-17T21:17:40Z</time>
      </trkpt>
      <trkpt lat="45.4539" lon="7.03189">
        <ele>2045</ele>
        <time>2019-04-17T21:18:40Z</time>
      </trkpt>
      <trkpt lat="45.45469" lon="7.03346">
        <ele>2053</ele>
        <time>2019-04-17T21:19:40Z</time>
      </trkpt>
      <trkpt lat="45.4548" lon="7.03401">
        <ele>2052</ele>
        <time>2019-04-17T21:20:40Z</time>
      </trkpt>
      <trkpt lat="45.45487" lon="7.03418">
        <ele>2051</ele>
        <time>2019-04-17T21:21:40Z</time>
      </trkpt>
      <trkpt lat="45.45487" lon="7.03436">
        <ele>2051</ele>
        <time>2019-04-17T21:22:40Z</time>
      </trkpt>
      <trkpt lat="45.45497" lon="7.0349">
        <ele>2051</ele>
        <time>2019-04-17T21:23:40Z</time>
      </trkpt>
      <trkpt lat="45.45496" lon="7.03603">
        <ele>2053</ele>
        <time>2019-04-17T21:24:40Z</time>
      </trkpt>
      <trkpt lat="45.45491" lon="7.03641">
        <ele>2053</ele>
        <time>2019-04-17T21:25:40Z</time>
      </trkpt>
      <trkpt lat="45.45482" lon="7.03658">
        <ele>2053</ele>
        <time>2019-04-17T21:26:40Z</time>
      </trkpt>
      <trkpt lat="45.45465" lon="7.03669">
        <ele>2054</ele>
        <time>2019-04-17T21:27:40Z</time>
      </trkpt>
      <trkpt lat="45.45414" lon="7.03664">
        <ele>2055</ele>
        <time>2019-04-17T21:28:40Z</time>
      </trkpt>
      <trkpt lat="45.45403" lon="7.0366">
        <ele>2059</ele>
        <time>2019-04-17T21:29:40Z</time>
      </trkpt>
      <trkpt lat="45.45394" lon="7.03651">
        <ele>2061</ele>
        <time>2019-04-17T21:30:40Z</time>
      </trkpt>
      <trkpt lat="45.45359" lon="7.03586">
        <ele>2066</ele>
        <time>2019-04-17T21:31:40Z</time>
      </trkpt>
      <trkpt lat="45.45348" lon="7.03561">
        <ele>2065</ele>
        <time>2019-04-17T21:32:40Z</time>
      </trkpt>
      <trkpt lat="45.45346" lon="7.03527">
        <ele>2062</ele>
        <time>2019-04-17T21:33:40Z</time>
      </trkpt>
      <trkpt lat="45.4534" lon="7.03516">
        <ele>2062</ele>
        <time>2019-04-17T21:34:40Z</time>
      </trkpt>
      <trkpt lat="45.45333" lon="7.03512">
        <ele>2063</ele>
        <time>2019-04-17T21:35:40Z</time>
      </trkpt>
      <trkpt lat="45.45325" lon="7.0352">
        <ele>2067</ele>
        <time>2019-04-17T21:36:40Z</time>
      </trkpt>
      <trkpt lat="45.45322" lon="7.03531">
        <ele>2069</ele>
        <time>2019-04-17T21:37:40Z</time>
      </trkpt>
      <trkpt lat="45.45327" lon="7.03545">
        <ele>2069</ele>
        <time>2019-04-17T21:38:40Z</time>
      </trkpt>
      <trkpt lat="45.45339" lon="7.03573">
        <ele>2069</ele>
        <time>2019-04-17T21:39:40Z</time>
      </trkpt>
      <trkpt lat="45.45377" lon="7.03771">
        <ele>2078</ele>
        <time>2019-04-17T21:40:40Z</time>
      </trkpt>
      <trkpt lat="45.45383" lon="7.03831">
        <ele>2080</ele>
        <time>2019-04-17T21:41:40Z</time>
      </trkpt>
      <trkpt lat="45.45379" lon="7.03922">
        <ele>2091</ele>
        <time>2019-04-17T21:42:40Z</time>
      </trkpt>
      <trkpt lat="45.45385" lon="7.03942">
        <ele>2091</ele>
        <time>2019-04-17T21:43:40Z</time>
      </trkpt>
      <trkpt lat="45.45397" lon="7.0396">
        <ele>2089</ele>
        <time>2019-04-17T21:44:40Z</time>
      </trkpt>
      <trkpt lat="45.45397" lon="7.0397">
        <ele>2091</ele>
        <time>2019-04-17T21:45:40Z</time>
      </trkpt>
      <trkpt lat="45.45391" lon="7.03981">
        <ele>2094</ele>
        <time>2019-04-17T21:46:40Z</time>
      </trkpt>
      <trkpt lat="45.45382" lon="7.03979">
        <ele>2097</ele>
        <time>2019-04-17T21:47:40Z</time>
      </trkpt>
      <trkpt lat="45.45375" lon="7.03969">
        <ele>2098</ele>
        <time>2019-04-17T21:48:40Z</time>
      </trkpt>
      <trkpt lat="45.45353" lon="7.03846">
        <ele>2093</ele>
        <time>2019-04-17T21:49:40Z</time>
      </trkpt>
      <trkpt lat="45.45316" lon="7.03742">
        <ele>2104</ele>
        <time>2019-04-17T21:50:40Z</time>
      </trkpt>
      <trkpt lat="45.45239" lon="7.03571">
        <ele>2109</ele>
        <time>2019-04-17T21:51:40Z</time>
      </trkpt>
      <trkpt lat="45.45206" lon="7.03476">
        <ele>2112</ele>
        <time>2019-04-17T21:52:40Z</time>
      </trkpt>
      <trkpt lat="45.45155" lon="7.03399">
        <ele>2128</ele>
        <time>2019-04-17T21:53:40Z</time>
      </trkpt>
      <trkpt lat="45.45103" lon="7.03233">
        <ele>2134</ele>
        <time>2019-04-17T21:54:40Z</time>
      </trkpt>
      <trkpt lat="45.45069" lon="7.0316">
        <ele>2141</ele>
        <time>2019-04-17T21:55:40Z</time>
      </trkpt>
      <trkpt lat="45.45041" lon="7.03074">
        <ele>2138</ele>
        <time>2019-04-17T21:56:40Z</time>
      </trkpt>
      <trkpt lat="45.45009" lon="7.03031">
        <ele>2151</ele>
        <time>2019-04-17T21:57:40Z</time>
      </trkpt>
      <trkpt lat="45.44974" lon="7.02939">
        <ele>2152</ele>
        <time>2019-04-17T21:58:40Z</time>
      </trkpt>
      <trkpt lat="45.44951" lon="7.0286">
        <ele>2152</ele>
        <time>2019-04-17T21:59:40Z</time>
      </trkpt>
      <trkpt lat="45.44913" lon="7.02769">
        <ele>2160</ele>
        <time>2019-04-17T22:00:40Z</time>
      </trkpt>
      <trkpt lat="45.44875" lon="7.02622">
        <ele>2169</ele>
        <time>2019-04-17T22:01:40Z</time>
      </trkpt>
      <trkpt lat="45.44842" lon="7.02519">
        <ele>2177</ele>
        <time>2019-04-17T22:02:40Z</time>
      </trkpt>
      <trkpt lat="45.44828" lon="7.02482">
        <ele>2178</ele>
        <time>2019-04-17T22:03:40Z</time>
      </trkpt>
      <trkpt lat="45.44795" lon="7.02422">
        <ele>2184</ele>
        <time>2019-04-17T22:04:40Z</time>
      </trkpt>
      <trkpt lat="45.44784" lon="7.02381">
        <ele>2183</ele>
        <time>2019-04-17T22:05:40Z</time>
      </trkpt>
      <trkpt lat="45.44698" lon="7.02208">
        <ele>2198</ele>
        <time>2019-04-17T22:06:40Z</time>
      </trkpt>
      <trkpt lat="45.44578" lon="7.02029">
        <ele>2214</ele>
        <time>2019-04-17T22:07:40Z</time>
      </trkpt>
      <trkpt lat="45.44534" lon="7.01947">
        <ele>2219</ele>
        <time>2019-04-17T22:08:40Z</time>
      </trkpt>
      <trkpt lat="45.44512" lon="7.01876">
        <ele>2215</ele>
        <time>2019-04-17T22:09:40Z</time>
      </trkpt>
      <trkpt lat="45.44502" lon="7.01856">
        <ele>2215</ele>
        <time>2019-04-17T22:10:40Z</time>
      </trkpt>
      <trkpt lat="45.44493" lon="7.01848">
        <ele>2217</ele>
        <time>2019-04-17T22:11:40Z</time>
      </trkpt>
      <trkpt lat="45.4448" lon="7.01862">
        <ele>2224</ele>
        <time>2019-04-17T22:12:40Z</time>
      </trkpt>
      <trkpt lat="45.44498" lon="7.01898">
        <ele>2226</ele>
        <time>2019-04-17T22:13:40Z</time>
      </trkpt>
      <trkpt lat="45.44522" lon="7.01981">
        <ele>2232</ele>
        <time>2019-04-17T22:14:40Z</time>
      </trkpt>
      <trkpt lat="45.44558" lon="7.02087">
        <ele>2233</ele>
        <time>2019-04-17T22:15:40Z</time>
      </trkpt>
      <trkpt lat="45.44578" lon="7.02184">
        <ele>2243</ele>
        <time>2019-04-17T22:16:40Z</time>
      </trkpt>
      <trkpt lat="45.44643" lon="7.02298">
        <ele>2242</ele>
        <time>2019-04-17T22:17:40Z</time>
      </trkpt>
      <trkpt lat="45.4468" lon="7.02401">
        <ele>2245</ele>
        <time>2019-04-17T22:18:40Z</time>
      </trkpt>
      <trkpt lat="45.44681" lon="7.0241">
        <ele>2246</ele>
        <time>2019-04-17T22:19:40Z</time>
      </trkpt>
      <trkpt lat="45.44678" lon="7.02419">
        <ele>2249</ele>
        <time>2019-04-17T22:20:40Z</time>
      </trkpt>
      <trkpt lat="45.44667" lon="7.02417">
        <ele>2255</ele>
        <time>2019-04-17T22:21:40Z</time>
      </trkpt>
      <trkpt lat="45.44626" lon="7.0232">
        <ele>2256</ele>
        <time>2019-04-17T22:22:40Z</time>
      </trkpt>
      <trkpt lat="45.44542" lon="7.02231">
        <ele>2269</ele>
        <time>2019-04-17T22:23:40Z</time>
      </trkpt>
      <trkpt lat="45.4452" lon="7.02196">
        <ele>2272</ele>
        <time>2019-04-17T22:24:40Z</time>
      </trkpt>
      <trkpt lat="45.44514" lon="7.02174">
        <ele>2271</ele>
        <time>2019-04-17T22:25:40Z</time>
      </trkpt>
      <trkpt lat="45.4448" lon="7.02104">
        <ele>2275</ele>
        <time>2019-04-17T22:26:40Z</time>
      </trkpt>
      <trkpt lat="45.44402" lon="7.01977">
        <ele>2284</ele>
        <time>2019-04-17T22:27:40Z</time>
      </trkpt>
      <trkpt lat="45.44375" lon="7.01942">
        <ele>2285</ele>
        <time>2019-04-17T22:28:40Z</time>
      </trkpt>
      <trkpt lat="45.44304" lon="7.01885">
        <ele>2300</ele>
        <time>2019-04-17T22:29:40Z</time>
      </trkpt>
      <trkpt lat="45.44276" lon="7.01849">
        <ele>2310</ele>
        <time>2019-04-17T22:30:40Z</time>
      </trkpt>
      <trkpt lat="45.44274" lon="7.01832">
        <ele>2310</ele>
        <time>2019-04-17T22:31:40Z</time>
      </trkpt>
      <trkpt lat="45.44292" lon="7.01767">
        <ele>2298</ele>
        <time>2019-04-17T22:32:40Z</time>
      </trkpt>
      <trkpt lat="45.44293" lon="7.01749">
        <ele>2296</ele>
        <time>2019-04-17T22:33:40Z</time>
      </trkpt>
      <trkpt lat="45.44283" lon="7.01711">
        <ele>2292</ele>
        <time>2019-04-17T22:34:40Z</time>
      </trkpt>
      <trkpt lat="45.44249" lon="7.01676">
        <ele>2299</ele>
        <time>2019-04-17T22:35:40Z</time>
      </trkpt>
      <trkpt lat="45.44197" lon="7.01675">
        <ele>2309</ele>
        <time>2019-04-17T22:36:40Z</time>
      </trkpt>
      <trkpt lat="45.44187" lon="7.01667">
        <ele>2310</ele>
        <time>2019-04-17T22:37:40Z</time>
      </trkpt>
      <trkpt lat="45.44178" lon="7.01648">
        <ele>2312</ele>
        <time>2019-04-17T22:38:40Z</time>
      </trkpt>
      <trkpt lat="45.44177" lon="7.01614">
        <ele>2312</ele>
        <time>2019-04-17T22:39:40Z</time>
      </trkpt>
      <trkpt lat="45.44179" lon="7.0157">
        <ele>2312</ele>
        <time>2019-04-17T22:40:40Z</time>
      </trkpt>
      <trkpt lat="45.44183" lon="7.01517">
        <ele>2311</ele>
        <time>2019-04-17T22:41:40Z</time>
      </trkpt>
      <trkpt lat="45.44197" lon="7.01461">
        <ele>2306</ele>
        <time>2019-04-17T22:42:40Z</time>
      </trkpt>
      <trkpt lat="45.44211" lon="7.01376">
        <ele>2309</ele>
        <time>2019-04-17T22:43:40Z</time>
      </trkpt>
      <trkpt lat="45.44211" lon="7.01351">
        <ele>2313</ele>
        <time>2019-04-17T22:44:40Z</time>
      </trkpt>
      <trkpt lat="45.44193" lon="7.01238">
        <ele>2329</ele>
        <time>2019-04-17T22:45:40Z</time>
      </trkpt>
      <trkpt lat="45.44193" lon="7.01214">
        <ele>2330</ele>
        <time>2019-04-17T22:46:40Z</time>
      </trkpt>
      <trkpt lat="45.44196" lon="7.01167">
        <ele>2329</ele>
        <time>2019-04-17T22:47:40Z</time>
      </trkpt>
      <trkpt lat="45.44191" lon="7.01134">
        <ele>2327</ele>
        <time>2019-04-17T22:48:40Z</time>
      </trkpt>
      <trkpt lat="45.44158" lon="7.01014">
        <ele>2324</ele>
        <time>2019-04-17T22:49:40Z</time>
      </trkpt>
      <trkpt lat="45.44146" lon="7.00955">
        <ele>2328</ele>
        <time>2019-04-17T22:50:40Z</time>
      </trkpt>
      <trkpt lat="45.44138" lon="7.00889">
        <ele>2326</ele>
        <time>2019-04-17T22:51:40Z</time>
      </trkpt>
      <trkpt lat="45.44132" lon="7.00858">
        <ele>2324</ele>
        <time>2019-04-17T22:52:40Z</time>
      </trkpt>
      <trkpt lat="45.44093" lon="7.00767">
        <ele>2327</ele>
        <time>2019-04-17T22:53:40Z</time>
      </trkpt>
      <trkpt lat="45.44037" lon="7.00664">
        <ele>2332</ele>
        <time>2019-04-17T22:54:40Z</time>
      </trkpt>
      <trkpt lat="45.44007" lon="7.00625">
        <ele>2333</ele>
        <time>2019-04-17T22:55:40Z</time>
      </trkpt>
      <trkpt lat="45.43946" lon="7.00579">
        <ele>2346</ele>
        <time>2019-04-17T22:56:40Z</time>
      </trkpt>
      <trkpt lat="45.439" lon="7.00526">
        <ele>2341</ele>
        <time>2019-04-17T22:57:40Z</time>
      </trkpt>
      <trkpt lat="45.43822" lon="7.00482">
        <ele>2346</ele>
        <time>2019-04-17T22:58:40Z</time>
      </trkpt>
      <trkpt lat="45.43751" lon="7.0043">
        <ele>2350</ele>
        <time>2019-04-17T22:59:40Z</time>
      </trkpt>
      <trkpt lat="45.43725" lon="7.00427">
        <ele>2360</ele>
        <time>2019-04-17T23:00:40Z</time>
      </trkpt>
      <trkpt lat="45.437" lon="7.00408">
        <ele>2363</ele>
        <time>2019-04-17T23:01:40Z</time>
      </trkpt>
      <trkpt lat="45.43643" lon="7.00338">
        <ele>2363</ele>
        <time>2019-04-17T23:02:40Z</time>
      </trkpt>
      <trkpt lat="45.43618" lon="7.00292">
        <ele>2361</ele>
        <time>2019-04-17T23:03:40Z</time>
      </trkpt>
      <trkpt lat="45.43523" lon="7.00229">
        <ele>2371</ele>
        <time>2019-04-17T23:04:40Z</time>
      </trkpt>
      <trkpt lat="45.4345" lon="7.0022">
        <ele>2384</ele>
        <time>2019-04-17T23:05:40Z</time>
      </trkpt>
      <trkpt lat="45.43407" lon="7.00202">
        <ele>2385</ele>
        <time>2019-04-17T23:06:40Z</time>
      </trkpt>
      <trkpt lat="45.4337" lon="7.00257">
        <ele>2402</ele>
        <time>2019-04-17T23:07:40Z</time>
      </trkpt>
      <trkpt lat="45.43352" lon="7.00259">
        <ele>2404</ele>
        <time>2019-04-17T23:08:40Z</time>
      </trkpt>
      <trkpt lat="45.433" lon="7.00229">
        <ele>2401</ele>
        <time>2019-04-17T23:09:40Z</time>
      </trkpt>
      <trkpt lat="45.43222" lon="7.00208">
        <ele>2408</ele>
        <time>2019-04-17T23:10:40Z</time>
      </trkpt>
      <trkpt lat="45.43199" lon="7.0018">
        <ele>2407</ele>
        <time>2019-04-17T23:11:40Z</time>
      </trkpt>
      <trkpt lat="45.43175" lon="7.00169">
        <ele>2410</ele>
        <time>2019-04-17T23:12:40Z</time>
      </trkpt>
      <trkpt lat="45.4315" lon="7.0017">
        <ele>2417</ele>
        <time>2019-04-17T23:13:40Z</time>
      </trkpt>
      <trkpt lat="45.43118" lon="7.0019">
        <ele>2429</ele>
        <time>2019-04-17T23:14:40Z</time>
      </trkpt>
      <trkpt lat="45.43116" lon="7.00213">
        <ele>2432</ele>
        <time>2019-04-17T23:15:40Z</time>
      </trkpt>
      <trkpt lat="45.43119" lon="7.00245">
        <ele>2433</ele>
        <time>2019-04-17T23:16:40Z</time>
      </trkpt>
      <trkpt lat="45.43126" lon="7.00269">
        <ele>2435</ele>
        <time>2019-04-17T23:17:40Z</time>
      </trkpt>
      <trkpt lat="45.43141" lon="7.00282">
        <ele>2432</ele>
        <time>2019-04-17T23:18:40Z</time>
      </trkpt>
      <trkpt lat="45.43156" lon="7.00292">
        <ele>2428</ele>
        <time>2019-04-17T23:19:40Z</time>
      </trkpt>
      <trkpt lat="45.43216" lon="7.00292">
        <ele>2423</ele>
        <time>2019-04-17T23:20:40Z</time>
      </trkpt>
      <trkpt lat="45.43286" lon="7.00336">
        <ele>2429</ele>
        <time>2019-04-17T23:21:40Z</time>
      </trkpt>
      <trkpt lat="45.43352" lon="7.0033">
        <ele>2423</ele>
        <time>2019-04-17T23:22:40Z</time>
      </trkpt>
      <trkpt lat="45.4336" lon="7.00333">
        <ele>2424</ele>
        <time>2019-04-17T23:23:40Z</time>
      </trkpt>
      <trkpt lat="45.4336" lon="7.00348">
        <ele>2427</ele>
        <time>2019-04-17T23:24:40Z</time>
      </trkpt>
      <trkpt lat="45.43366" lon="7.00365">
        <ele>2430</ele>
        <time>2019-04-17T23:25:40Z</time>
      </trkpt>
      <trkpt lat="45.43414" lon="7.00441">
        <ele>2441</ele>
        <time>2019-04-17T23:26:40Z</time>
      </trkpt>
      <trkpt lat="45.43453" lon="7.00484">
        <ele>2447</ele>
        <time>2019-04-17T23:27:40Z</time>
      </trkpt>
      <trkpt lat="45.43505" lon="7.00506">
        <ele>2450</ele>
        <time>2019-04-17T23:28:40Z</time>
      </trkpt>
      <trkpt lat="45.43571" lon="7.00517">
        <ele>2447</ele>
        <time>2019-04-17T23:29:40Z</time>
      </trkpt>
      <trkpt lat="45.43606" lon="7.00551">
        <ele>2452</ele>
        <time>2019-04-17T23:30:40Z</time>
      </trkpt>
      <trkpt lat="45.43636" lon="7.00575">
        <ele>2455</ele>
        <time>2019-04-17T23:31:40Z</time>
      </trkpt>
      <trkpt lat="45.43716" lon="7.00631">
        <ele>2450</ele>
        <time>2019-04-17T23:32:40Z</time>
      </trkpt>
      <trkpt lat="45.43719" lon="7.00639">
        <ele>2452</ele>
        <time>2019-04-17T23:33:40Z</time>
      </trkpt>
      <trkpt lat="45.43718" lon="7.00649">
        <ele>2456</ele>
        <time>2019-04-17T23:34:40Z</time>
      </trkpt>
      <trkpt lat="45.43708" lon="7.00653">
        <ele>2461</ele>
        <time>2019-04-17T23:35:40Z</time>
      </trkpt>
      <trkpt lat="45.43689" lon="7.00637">
        <ele>2462</ele>
        <time>2019-04-17T23:36:40Z</time>
      </trkpt>
      <trkpt lat="45.43569" lon="7.00574">
        <ele>2467</ele>
        <time>2019-04-17T23:37:40Z</time>
      </trkpt>
      <trkpt lat="45.43516" lon="7.00581">
        <ele>2475</ele>
        <time>2019-04-17T23:38:40Z</time>
      </trkpt>
      <trkpt lat="45.43471" lon="7.00601">
        <ele>2485</ele>
        <time>2019-04-17T23:39:40Z</time>
      </trkpt>
      <trkpt lat="45.43423" lon="7.00598">
        <ele>2485</ele>
        <time>2019-04-17T23:40:40Z</time>
      </trkpt>
      <trkpt lat="45.43419" lon="7.00607">
        <ele>2488</ele>
        <time>2019-04-17T23:41:40Z</time>
      </trkpt>
      <trkpt lat="45.43421" lon="7.00616">
        <ele>2491</ele>
        <time>2019-04-17T23:42:40Z</time>
      </trkpt>
      <trkpt lat="45.43483" lon="7.00632">
        <ele>2495</ele>
        <time>2019-04-17T23:43:40Z</time>
      </trkpt>
      <trkpt lat="45.43502" lon="7.00619">
        <ele>2490</ele>
        <time>2019-04-17T23:44:40Z</time>
      </trkpt>
      <trkpt lat="45.43533" lon="7.00618">
        <ele>2487</ele>
        <time>2019-04-17T23:45:40Z</time>
      </trkpt>
      <trkpt lat="45.43569" lon="7.00656">
        <ele>2497</ele>
        <time>2019-04-17T23:46:40Z</time>
      </trkpt>
      <trkpt lat="45.43609" lon="7.00676">
        <ele>2497</ele>
        <time>2019-04-17T23:47:40Z</time>
      </trkpt>
      <trkpt lat="45.43674" lon="7.00773">
        <ele>2510</ele>
        <time>2019-04-17T23:48:40Z</time>
      </trkpt>
      <trkpt lat="45.43712" lon="7.0084">
        <ele>2519</ele>
        <time>2019-04-17T23:49:40Z</time>
      </trkpt>
      <trkpt lat="45.43794" lon="7.00913">
        <ele>2508</ele>
        <time>2019-04-17T23:50:40Z</time>
      </trkpt>
      <trkpt lat="45.43827" lon="7.00956">
        <ele>2509</ele>
        <time>2019-04-17T23:51:40Z</time>
      </trkpt>
      <trkpt lat="45.43843" lon="7.00983">
        <ele>2513</ele>
        <time>2019-04-17T23:52:40Z</time>
      </trkpt>
      <trkpt lat="45.43858" lon="7.01019">
        <ele>2517</ele>
        <time>2019-04-17T23:53:40Z</time>
      </trkpt>
      <trkpt lat="45.43858" lon="7.01046">
        <ele>2520</ele>
        <time>2019-04-17T23:54:40Z</time>
      </trkpt>
      <trkpt lat="45.4384" lon="7.01047">
        <ele>2522</ele>
        <time>2019-04-17T23:55:40Z</time>
      </trkpt>
      <trkpt lat="45.43819" lon="7.01032">
        <ele>2526</ele>
        <time>2019-04-17T23:56:40Z</time>
      </trkpt>
      <trkpt lat="45.43805" lon="7.01029">
        <ele>2530</ele>
        <time>2019-04-17T23:57:40Z</time>
      </trkpt>
      <trkpt lat="45.4379" lon="7.01044">
        <ele>2535</ele>
        <time>2019-04-17T23:58:40Z</time>
      </trkpt>
      <trkpt lat="45.43762" lon="7.01108">
        <ele>2541</ele>
        <time>2019-04-17T23:59:40Z</time>
      </trkpt>
      <trkpt lat="45.43743" lon="7.01163">
        <ele>2540</ele>
        <time>2019-04-18T00:00:40Z</time>
      </trkpt>
      <trkpt lat="45.43722" lon="7.01186">
        <ele>2547</ele>
        <time>2019-04-18T00:01:40Z</time>
      </trkpt>
      <trkpt lat="45.43712" lon="7.01207">
        <ele>2549</ele>
        <time>2019-04-18T00:02:40Z</time>
      </trkpt>
      <trkpt lat="45.43712" lon="7.01235">
        <ele>2548</ele>
        <time>2019-04-18T00:03:40Z</time>
      </trkpt>
      <trkpt lat="45.43702" lon="7.01264">
        <ele>2548</ele>
        <time>2019-04-18T00:04:40Z</time>
      </trkpt>
      <trkpt lat="45.43687" lon="7.01283">
        <ele>2550</ele>
        <time>2019-04-18T00:05:40Z</time>
      </trkpt>
      <trkpt lat="45.43622" lon="7.01379">
        <ele>2549</ele>
        <time>2019-04-18T00:06:40Z</time>
      </trkpt>
      <trkpt lat="45.43607" lon="7.01389">
        <ele>2551</ele>
        <time>2019-04-18T00:07:40Z</time>
      </trkpt>
      <trkpt lat="45.4359" lon="7.01389">
        <ele>2554</ele>
        <time>2019-04-18T00:08:40Z</time>
      </trkpt>
      <trkpt lat="45.43557" lon="7.01379">
        <ele>2562</ele>
        <time>2019-04-18T00:09:40Z</time>
      </trkpt>
      <trkpt lat="45.43489" lon="7.01445">
        <ele>2564</ele>
        <time>2019-04-18T00:10:40Z</time>
      </trkpt>
      <trkpt lat="45.43384" lon="7.01525">
        <ele>2578</ele>
        <time>2019-04-18T00:11:40Z</time>
      </trkpt>
      <trkpt lat="45.43318" lon="7.0166">
        <ele>2578</ele>
        <time>2019-04-18T00:12:40Z</time>
      </trkpt>
      <trkpt lat="45.43298" lon="7.0171">
        <ele>2575</ele>
        <time>2019-04-18T00:13:40Z</time>
      </trkpt>
      <trkpt lat="45.4328" lon="7.01732">
        <ele>2576</ele>
        <time>2019-04-18T00:14:40Z</time>
      </trkpt>
      <trkpt lat="45.43235" lon="7.01773">
        <ele>2581</ele>
        <time>2019-04-18T00:15:40Z</time>
      </trkpt>
      <trkpt lat="45.43185" lon="7.01824">
        <ele>2582</ele>
        <time>2019-04-18T00:16:40Z</time>
      </trkpt>
      <trkpt lat="45.43153" lon="7.01841">
        <ele>2587</ele>
        <time>2019-04-18T00:17:40Z</time>
      </trkpt>
      <trkpt lat="45.43042" lon="7.01907">
        <ele>2602</ele>
        <time>2019-04-18T00:18:40Z</time>
      </trkpt>
      <trkpt lat="45.42898" lon="7.02107">
        <ele>2610</ele>
        <time>2019-04-18T00:19:40Z</time>
      </trkpt>
      <trkpt lat="45.42881" lon="7.02122">
        <ele>2611</ele>
        <time>2019-04-18T00:20:40Z</time>
      </trkpt>
      <trkpt lat="45.4286" lon="7.02133">
        <ele>2614</ele>
        <time>2019-04-18T00:21:40Z</time>
      </trkpt>
      <trkpt lat="45.4268" lon="7.02213">
        <ele>2627</ele>
        <time>2019-04-18T00:22:40Z</time>
      </trkpt>
      <trkpt lat="45.42635" lon="7.02247">
        <ele>2631</ele>
        <time>2019-04-18T00:23:40Z</time>
      </trkpt>
      <trkpt lat="45.42596" lon="7.02272">
        <ele>2634</ele>
        <time>2019-04-18T00:24:40Z</time>
      </trkpt>
      <trkpt lat="45.42523" lon="7.02265">
        <ele>2641</ele>
        <time>2019-04-18T00:25:40Z</time>
      </trkpt>
      <trkpt lat="45.42423" lon="7.02278">
        <ele>2650</ele>
        <time>2019-04-18T00:26:40Z</time>
      </trkpt>
      <trkpt lat="45.42394" lon="7.02291">
        <ele>2655</ele>
        <time>2019-04-18T00:27:40Z</time>
      </trkpt>
      <trkpt lat="45.42375" lon="7.02313">
        <ele>2657</ele>
        <time>2019-04-18T00:28:40Z</time>
      </trkpt>
      <trkpt lat="45.42363" lon="7.02333">
        <ele>2657</ele>
        <time>2019-04-18T00:29:40Z</time>
      </trkpt>
      <trkpt lat="45.42358" lon="7.02356">
        <ele>2658</ele>
        <time>2019-04-18T00:30:40Z</time>
      </trkpt>
      <trkpt lat="45.4236" lon="7.02386">
        <ele>2659</ele>
        <time>2019-04-18T00:31:40Z</time>
      </trkpt>
      <trkpt lat="45.42371" lon="7.02446">
        <ele>2658</ele>
        <time>2019-04-18T00:32:40Z</time>
      </trkpt>
      <trkpt lat="45.42371" lon="7.02473">
        <ele>2660</ele>
        <time>2019-04-18T00:33:40Z</time>
      </trkpt>
      <trkpt lat="45.42367" lon="7.02515">
        <ele>2663</ele>
        <time>2019-04-18T00:34:40Z</time>
      </trkpt>
      <trkpt lat="45.4236" lon="7.0253">
        <ele>2665</ele>
        <time>2019-04-18T00:35:40Z</time>
      </trkpt>
      <trkpt lat="45.42342" lon="7.026">
        <ele>2670</ele>
        <time>2019-04-18T00:36:40Z</time>
      </trkpt>
      <trkpt lat="45.42338" lon="7.02628">
        <ele>2674</ele>
        <time>2019-04-18T00:37:40Z</time>
      </trkpt>
      <trkpt lat="45.42345" lon="7.02659">
        <ele>2676</ele>
        <time>2019-04-18T00:38:40Z</time>
      </trkpt>
      <trkpt lat="45.42346" lon="7.02681">
        <ele>2677</ele>
        <time>2019-04-18T00:39:40Z</time>
      </trkpt>
      <trkpt lat="45.42343" lon="7.02696">
        <ele>2678</ele>
        <time>2019-04-18T00:40:40Z</time>
      </trkpt>
      <trkpt lat="45.42313" lon="7.02775">
        <ele>2684</ele>
        <time>2019-04-18T00:41:40Z</time>
      </trkpt>
      <trkpt lat="45.42282" lon="7.02832">
        <ele>2689</ele>
        <time>2019-04-18T00:42:40Z</time>
      </trkpt>
      <trkpt lat="45.42247" lon="7.02876">
        <ele>2696</ele>
        <time>2019-04-18T00:43:40Z</time>
      </trkpt>
      <trkpt lat="45.42232" lon="7.02881">
        <ele>2698</ele>
        <time>2019-04-18T00:44:40Z</time>
      </trkpt>
      <trkpt lat="45.42221" lon="7.02878">
        <ele>2698</ele>
        <time>2019-04-18T00:45:40Z</time>
      </trkpt>
      <trkpt lat="45.42215" lon="7.02874">
        <ele>2699</ele>
        <time>2019-04-18T00:46:40Z</time>
      </trkpt>
      <trkpt lat="45.4212" lon="7.02755">
        <ele>2704</ele>
        <time>2019-04-18T00:47:40Z</time>
      </trkpt>
      <trkpt lat="45.42109" lon="7.02745">
        <ele>2705</ele>
        <time>2019-04-18T00:48:40Z</time>
      </trkpt>
      <trkpt lat="45.42099" lon="7.02743">
        <ele>2705</ele>
        <time>2019-04-18T00:49:40Z</time>
      </trkpt>
      <trkpt lat="45.4209" lon="7.02745">
        <ele>2705</ele>
        <time>2019-04-18T00:50:40Z</time>
      </trkpt>
      <trkpt lat="45.42083" lon="7.02753">
        <ele>2706</ele>
        <time>2019-04-18T00:51:40Z</time>
      </trkpt>
      <trkpt lat="45.42076" lon="7.02769">
        <ele>2708</ele>
        <time>2019-04-18T00:52:40Z</time>
      </trkpt>
      <trkpt lat="45.42046" lon="7.02849">
        <ele>2714</ele>
        <time>2019-04-18T00:53:40Z</time>
      </trkpt>
      <trkpt lat="45.4204" lon="7.0286">
        <ele>2716</ele>
        <time>2019-04-18T00:54:40Z</time>
      </trkpt>
      <trkpt lat="45.4203" lon="7.02872">
        <ele>2718</ele>
        <time>2019-04-18T00:55:40Z</time>
      </trkpt>
      <trkpt lat="45.42022" lon="7.02877">
        <ele>2719</ele>
        <time>2019-04-18T00:56:40Z</time>
      </trkpt>
      <trkpt lat="45.42016" lon="7.02881">
        <ele>2719</ele>
        <time>2019-04-18T00:57:40Z</time>
      </trkpt>
      <trkpt lat="45.41996" lon="7.02883">
        <ele>2721</ele>
        <time>2019-04-18T00:58:40Z</time>
      </trkpt>
      <trkpt lat="45.41885" lon="7.0287">
        <ele>2730</ele>
        <time>2019-04-18T00:59:40Z</time>
      </trkpt>
      <trkpt lat="45.41874" lon="7.02874">
        <ele>2731</ele>
        <time>2019-04-18T01:00:40Z</time>
      </trkpt>
      <trkpt lat="45.41869" lon="7.02881">
        <ele>2732</ele>
        <time>2019-04-18T01:01:40Z</time>
      </trkpt>
      <trkpt lat="45.41869" lon="7.02888">
        <ele>2733</ele>
        <time>2019-04-18T01:02:40Z</time>
      </trkpt>
      <trkpt lat="45.41871" lon="7.02894">
        <ele>2733</ele>
        <time>2019-04-18T01:03:40Z</time>
      </trkpt>
      <trkpt lat="45.41878" lon="7.02901">
        <ele>2733</ele>
        <time>2019-04-18T01:04:40Z</time>
      </trkpt>
      <trkpt lat="45.41896" lon="7.02903">
        <ele>2732</ele>
        <time>2019-04-18T01:05:40Z</time>
      </trkpt>
      <trkpt lat="45.41902" lon="7.02908">
        <ele>2732</ele>
        <time>2019-04-18T01:06:40Z</time>
      </trkpt>
      <trkpt lat="45.41908" lon="7.02917">
        <ele>2732</ele>
        <time>2019-04-18T01:07:40Z</time>
      </trkpt>
      <trkpt lat="45.41929" lon="7.02967">
        <ele>2740</ele>
        <time>2019-04-18T01:08:40Z</time>
      </trkpt>
      <trkpt lat="45.41936" lon="7.02987">
        <ele>2743</ele>
        <time>2019-04-18T01:09:40Z</time>
      </trkpt>
      <trkpt lat="45.41939" lon="7.03005">
        <ele>2747</ele>
        <time>2019-04-18T01:10:40Z</time>
      </trkpt>
      <trkpt lat="45.41938" lon="7.03013">
        <ele>2748</ele>
        <time>2019-04-18T01:11:40Z</time>
      </trkpt>
      <trkpt lat="45.41934" lon="7.03019">
        <ele>2750</ele>
        <time>2019-04-18T01:12:40Z</time>
      </trkpt>
      <trkpt lat="45.41926" lon="7.03019">
        <ele>2750</ele>
        <time>2019-04-18T01:13:40Z</time>
      </trkpt>
      <trkpt lat="45.4192" lon="7.03009">
        <ele>2748</ele>
        <time>2019-04-18T01:14:40Z</time>
      </trkpt>
      <trkpt lat="45.41914" lon="7.02989">
        <ele>2744</ele>
        <time>2019-04-18T01:15:40Z</time>
      </trkpt>
      <trkpt lat="45.41909" lon="7.02981">
        <ele>2743</ele>
        <time>2019-04-18T01:16:40Z</time>
      </trkpt>
      <trkpt lat="45.419" lon="7.02972">
        <ele>2742</ele>
        <time>2019-04-18T01:17:40Z</time>
      </trkpt>
      <trkpt lat="45.41879" lon="7.02967">
        <ele>2743</ele>
        <time>2019-04-18T01:18:40Z</time>
      </trkpt>
      <trkpt lat="45.41867" lon="7.02972">
        <ele>2745</ele>
        <time>2019-04-18T01:19:40Z</time>
      </trkpt>
      <trkpt lat="45.41856" lon="7.02984">
        <ele>2748</ele>
        <time>2019-04-18T01:20:40Z</time>
      </trkpt>
      <trkpt lat="45.41823" lon="7.03032">
        <ele>2756</ele>
        <time>2019-04-18T01:21:40Z</time>
      </trkpt>
      <trkpt lat="45.41806" lon="7.03043">
        <ele>2758</ele>
        <time>2019-04-18T01:22:40Z</time>
      </trkpt>
      <trkpt lat="45.41739" lon="7.0306">
        <ele>2761</ele>
        <time>2019-04-18T01:23:40Z</time>
      </trkpt>
      <trkpt lat="45.41724" lon="7.03068">
        <ele>2762</ele>
        <time>2019-04-18T01:24:40Z</time>
      </trkpt>
      <trkpt lat="45.41711" lon="7.03083">
        <ele>2762</ele>
        <time>2019-04-18T01:25:40Z</time>
      </trkpt>
      <trkpt lat="45.41704" lon="7.03098">
        <ele>2761</ele>
        <time>2019-04-18T01:26:40Z</time>
      </trkpt>
      <trkpt lat="45.41697" lon="7.03121">
        <ele>2759</ele>
        <time>2019-04-18T01:27:40Z</time>
      </trkpt>
      <trkpt lat="45.41694" lon="7.03134">
        <ele>2758</ele>
        <time>2019-04-18T01:28:40Z</time>
      </trkpt>
      <trkpt lat="45.41694" lon="7.03148">
        <ele>2757</ele>
        <time>2019-04-18T01:29:40Z</time>
      </trkpt>
      <trkpt lat="45.41695" lon="7.03164">
        <ele>2756</ele>
        <time>2019-04-18T01:30:40Z</time>
      </trkpt>
      <trkpt lat="45.417" lon="7.03176">
        <ele>2753</ele>
        <time>2019-04-18T01:31:40Z</time>
      </trkpt>
      <trkpt lat="45.41708" lon="7.03187">
        <ele>2751</ele>
        <time>2019-04-18T01:32:40Z</time>
      </trkpt>
      <trkpt lat="45.41722" lon="7.03196">
        <ele>2750</ele>
        <time>2019-04-18T01:33:40Z</time>
      </trkpt>
      <trkpt lat="45.41773" lon="7.03208">
        <ele>2753</ele>
        <time>2019-04-18T01:34:40Z</time>
      </trkpt>
      <trkpt lat="45.41785" lon="7.03216">
        <ele>2752</ele>
        <time>2019-04-18T01:35:40Z</time>
      </trkpt>
      <trkpt lat="45.41807" lon="7.03238">
        <ele>2751</ele>
        <time>2019-04-18T01:36:40Z</time>
      </trkpt>
      <trkpt lat="45.41836" lon="7.03258">
        <ele>2751</ele>
        <time>2019-04-18T01:37:40Z</time>
      </trkpt>
      <trkpt lat="45.41859" lon="7.0327">
        <ele>2752</ele>
        <time>2019-04-18T01:38:40Z</time>
      </trkpt>
      <trkpt lat="45.41873" lon="7.03283">
        <ele>2752</ele>
        <time>2019-04-18T01:39:40Z</time>
      </trkpt>
      <trkpt lat="45.41881" lon="7.03307">
        <ele>2749</ele>
        <time>2019-04-18T01:40:40Z</time>
      </trkpt>
      <trkpt lat="45.41899" lon="7.03456">
        <ele>2729</ele>
        <time>2019-04-18T01:41:40Z</time>
      </trkpt>
      <trkpt lat="45.41906" lon="7.03487">
        <ele>2724</ele>
        <time>2019-04-18T01:42:40Z</time>
      </trkpt>
      <trkpt lat="45.4191" lon="7.03498">
        <ele>2723</ele>
        <time>2019-04-18T01:43:40Z</time>
      </trkpt>
      <trkpt lat="45.41915" lon="7.03511">
        <ele>2722</ele>
        <time>2019-04-18T01:44:40Z</time>
      </trkpt>
      <trkpt lat="45.41973" lon="7.03604">
        <ele>2718</ele>
        <time>2019-04-18T01:45:40Z</time>
      </trkpt>
      <trkpt lat="45.41993" lon="7.03633">
        <ele>2716</ele>
        <time>2019-04-18T01:46:40Z</time>
      </trkpt>
      <trkpt lat="45.42043" lon="7.03693">
        <ele>2718</ele>
        <time>2019-04-18T01:47:40Z</time>
      </trkpt>
      <trkpt lat="45.4207" lon="7.03733">
        <ele>2720</ele>
        <time>2019-04-18T01:48:40Z</time>
      </trkpt>
      <trkpt lat="45.42074" lon="7.03745">
        <ele>2719</ele>
        <time>2019-04-18T01:49:40Z</time>
      </trkpt>
      <trkpt lat="45.42074" lon="7.03751">
        <ele>2717</ele>
        <time>2019-04-18T01:50:40Z</time>
      </trkpt>
      <trkpt lat="45.42072" lon="7.03754">
        <ele>2716</ele>
        <time>2019-04-18T01:51:40Z</time>
      </trkpt>
      <trkpt lat="45.42067" lon="7.03759">
        <ele>2714</ele>
        <time>2019-04-18T01:52:40Z</time>
      </trkpt>
      <trkpt lat="45.4206" lon="7.03758">
        <ele>2711</ele>
        <time>2019-04-18T01:53:40Z</time>
      </trkpt>
      <trkpt lat="45.42053" lon="7.03753">
        <ele>2709</ele>
        <time>2019-04-18T01:54:40Z</time>
      </trkpt>
      <trkpt lat="45.42035" lon="7.03719">
        <ele>2710</ele>
        <time>2019-04-18T01:55:40Z</time>
      </trkpt>
      <trkpt lat="45.42027" lon="7.03706">
        <ele>2709</ele>
        <time>2019-04-18T01:56:40Z</time>
      </trkpt>
      <trkpt lat="45.42014" lon="7.03692">
        <ele>2708</ele>
        <time>2019-04-18T01:57:40Z</time>
      </trkpt>
      <trkpt lat="45.4198" lon="7.03662">
        <ele>2703</ele>
        <time>2019-04-18T01:58:40Z</time>
      </trkpt>
      <trkpt lat="45.41966" lon="7.03653">
        <ele>2701</ele>
        <time>2019-04-18T01:59:40Z</time>
      </trkpt>
      <trkpt lat="45.41929" lon="7.03635">
        <ele>2694</ele>
        <time>2019-04-18T02:00:40Z</time>
      </trkpt>
      <trkpt lat="45.41919" lon="7.03627">
        <ele>2692</ele>
        <time>2019-04-18T02:01:40Z</time>
      </trkpt>
      <trkpt lat="45.41862" lon="7.03574">
        <ele>2687</ele>
        <time>2019-04-18T02:02:40Z</time>
      </trkpt>
      <trkpt lat="45.41844" lon="7.03552">
        <ele>2687</ele>
        <time>2019-04-18T02:03:40Z</time>
      </trkpt>
      <trkpt lat="45.41824" lon="7.03534">
        <ele>2686</ele>
        <time>2019-04-18T02:04:40Z</time>
      </trkpt>
      <trkpt lat="45.41803" lon="7.03518">
        <ele>2684</ele>
        <time>2019-04-18T02:05:40Z</time>
      </trkpt>
      <trkpt lat="45.41791" lon="7.03513">
        <ele>2682</ele>
        <time>2019-04-18T02:06:40Z</time>
      </trkpt>
      <trkpt lat="45.41758" lon="7.03514">
        <ele>2672</ele>
        <time>2019-04-18T02:07:40Z</time>
      </trkpt>
      <trkpt lat="45.41748" lon="7.03511">
        <ele>2670</ele>
        <time>2019-04-18T02:08:40Z</time>
      </trkpt>
      <trkpt lat="45.4174" lon="7.03507">
        <ele>2669</ele>
        <time>2019-04-18T02:09:40Z</time>
      </trkpt>
      <trkpt lat="45.41715" lon="7.03489">
        <ele>2665</ele>
        <time>2019-04-18T02:10:40Z</time>
      </trkpt>
      <trkpt lat="45.41705" lon="7.03479">
        <ele>2664</ele>
        <time>2019-04-18T02:11:40Z</time>
      </trkpt>
      <trkpt lat="45.41685" lon="7.03442">
        <ele>2665</ele>
        <time>2019-04-18T02:12:40Z</time>
      </trkpt>
      <trkpt lat="45.41669" lon="7.03423">
        <ele>2664</ele>
        <time>2019-04-18T02:13:40Z</time>
      </trkpt>
      <trkpt lat="45.41654" lon="7.03408">
        <ele>2663</ele>
        <time>2019-04-18T02:14:40Z</time>
      </trkpt>
      <trkpt lat="45.41617" lon="7.03392">
        <ele>2656</ele>
        <time>2019-04-18T02:15:40Z</time>
      </trkpt>
      <trkpt lat="45.41555" lon="7.03352">
        <ele>2646</ele>
        <time>2019-04-18T02:16:40Z</time>
      </trkpt>
      <trkpt lat="45.41547" lon="7.03343">
        <ele>2645</ele>
        <time>2019-04-18T02:17:40Z</time>
      </trkpt>
      <trkpt lat="45.4153" lon="7.0331">
        <ele>2651</ele>
        <time>2019-04-18T02:18:40Z</time>
      </trkpt>
      <trkpt lat="45.41523" lon="7.03302">
        <ele>2651</ele>
        <time>2019-04-18T02:19:40Z</time>
      </trkpt>
      <trkpt lat="45.41473" lon="7.03267">
        <ele>2642</ele>
        <time>2019-04-18T02:20:40Z</time>
      </trkpt>
      <trkpt lat="45.41453" lon="7.03249">
        <ele>2638</ele>
        <time>2019-04-18T02:21:40Z</time>
      </trkpt>
      <trkpt lat="45.41436" lon="7.0323">
        <ele>2634</ele>
        <time>2019-04-18T02:22:40Z</time>
      </trkpt>
      <trkpt lat="45.41417" lon="7.03201">
        <ele>2631</ele>
        <time>2019-04-18T02:23:40Z</time>
      </trkpt>
      <trkpt lat="45.41386" lon="7.03143">
        <ele>2629</ele>
        <time>2019-04-18T02:24:40Z</time>
      </trkpt>
      <trkpt lat="45.41354" lon="7.03079">
        <ele>2626</ele>
        <time>2019-04-18T02:25:40Z</time>
      </trkpt>
      <trkpt lat="45.41315" lon="7.03027">
        <ele>2619</ele>
        <time>2019-04-18T02:26:40Z</time>
      </trkpt>
      <trkpt lat="45.41267" lon="7.02985">
        <ele>2610</ele>
        <time>2019-04-18T02:27:40Z</time>
      </trkpt>
      <trkpt lat="45.41243" lon="7.0297">
        <ele>2605</ele>
        <time>2019-04-18T02:28:40Z</time>
      </trkpt>
      <trkpt lat="45.41169" lon="7.02931">
        <ele>2592</ele>
        <time>2019-04-18T02:29:40Z</time>
      </trkpt>
      <trkpt lat="45.41138" lon="7.02919">
        <ele>2587</ele>
        <time>2019-04-18T02:30:40Z</time>
      </trkpt>
      <trkpt lat="45.41122" lon="7.02911">
        <ele>2584</ele>
        <time>2019-04-18T02:31:40Z</time>
      </trkpt>
      <trkpt lat="45.41108" lon="7.02898">
        <ele>2583</ele>
        <time>2019-04-18T02:32:40Z</time>
      </trkpt>
      <trkpt lat="45.41077" lon="7.02861">
        <ele>2581</ele>
        <time>2019-04-18T02:33:40Z</time>
      </trkpt>
      <trkpt lat="45.41034" lon="7.02801">
        <ele>2577</ele>
        <time>2019-04-18T02:34:40Z</time>
      </trkpt>
      <trkpt lat="45.41019" lon="7.02784">
        <ele>2575</ele>
        <time>2019-04-18T02:35:40Z</time>
      </trkpt>
      <trkpt lat="45.41001" lon="7.0277">
        <ele>2571</ele>
        <time>2019-04-18T02:36:40Z</time>
      </trkpt>
      <trkpt lat="45.40961" lon="7.02755">
        <ele>2566</ele>
        <time>2019-04-18T02:37:40Z</time>
      </trkpt>
      <trkpt lat="45.40944" lon="7.02757">
        <ele>2562</ele>
        <time>2019-04-18T02:38:40Z</time>
      </trkpt>
      <trkpt lat="45.40928" lon="7.02763">
        <ele>2558</ele>
        <time>2019-04-18T02:39:40Z</time>
      </trkpt>
      <trkpt lat="45.40896" lon="7.02787">
        <ele>2551</ele>
        <time>2019-04-18T02:40:40Z</time>
      </trkpt>
      <trkpt lat="45.40878" lon="7.02796">
        <ele>2549</ele>
        <time>2019-04-18T02:41:40Z</time>
      </trkpt>
      <trkpt lat="45.4086" lon="7.02798">
        <ele>2547</ele>
        <time>2019-04-18T02:42:40Z</time>
      </trkpt>
      <trkpt lat="45.40843" lon="7.02795">
        <ele>2547</ele>
        <time>2019-04-18T02:43:40Z</time>
      </trkpt>
      <trkpt lat="45.40813" lon="7.02779">
        <ele>2546</ele>
        <time>2019-04-18T02:44:40Z</time>
      </trkpt>
      <trkpt lat="45.40795" lon="7.02774">
        <ele>2544</ele>
        <time>2019-04-18T02:45:40Z</time>
      </trkpt>
      <trkpt lat="45.40754" lon="7.02784">
        <ele>2536</ele>
        <time>2019-04-18T02:46:40Z</time>
      </trkpt>
      <trkpt lat="45.4074" lon="7.02783">
        <ele>2535</ele>
        <time>2019-04-18T02:47:40Z</time>
      </trkpt>
      <trkpt lat="45.40709" lon="7.0277">
        <ele>2536</ele>
        <time>2019-04-18T02:48:40Z</time>
      </trkpt>
      <trkpt lat="45.40695" lon="7.02769">
        <ele>2536</ele>
        <time>2019-04-18T02:49:40Z</time>
      </trkpt>
      <trkpt lat="45.40674" lon="7.0277">
        <ele>2535</ele>
        <time>2019-04-18T02:50:40Z</time>
      </trkpt>
      <trkpt lat="45.4065" lon="7.02783">
        <ele>2532</ele>
        <time>2019-04-18T02:51:40Z</time>
      </trkpt>
      <trkpt lat="45.40638" lon="7.02797">
        <ele>2530</ele>
        <time>2019-04-18T02:52:40Z</time>
      </trkpt>
      <trkpt lat="45.40627" lon="7.02817">
        <ele>2528</ele>
        <time>2019-04-18T02:53:40Z</time>
      </trkpt>
      <trkpt lat="45.40599" lon="7.0289">
        <ele>2530</ele>
        <time>2019-04-18T02:54:40Z</time>
      </trkpt>
      <trkpt lat="45.40593" lon="7.029">
        <ele>2530</ele>
        <time>2019-04-18T02:55:40Z</time>
      </trkpt>
      <trkpt lat="45.40584" lon="7.02906">
        <ele>2530</ele>
        <time>2019-04-18T02:56:40Z</time>
      </trkpt>
      <trkpt lat="45.40564" lon="7.02912">
        <ele>2526</ele>
        <time>2019-04-18T02:57:40Z</time>
      </trkpt>
      <trkpt lat="45.40551" lon="7.0292">
        <ele>2524</ele>
        <time>2019-04-18T02:58:40Z</time>
      </trkpt>
      <trkpt lat="45.40539" lon="7.02933">
        <ele>2523</ele>
        <time>2019-04-18T02:59:40Z</time>
      </trkpt>
      <trkpt lat="45.40519" lon="7.02959">
        <ele>2520</ele>
        <time>2019-04-18T03:00:40Z</time>
      </trkpt>
      <trkpt lat="45.40482" lon="7.03013">
        <ele>2511</ele>
        <time>2019-04-18T03:01:40Z</time>
      </trkpt>
      <trkpt lat="45.40476" lon="7.03031">
        <ele>2512</ele>
        <time>2019-04-18T03:02:40Z</time>
      </trkpt>
      <trkpt lat="45.40474" lon="7.03051">
        <ele>2514</ele>
        <time>2019-04-18T03:03:40Z</time>
      </trkpt>
      <trkpt lat="45.40476" lon="7.03066">
        <ele>2518</ele>
        <time>2019-04-18T03:04:40Z</time>
      </trkpt>
      <trkpt lat="45.40483" lon="7.03087">
        <ele>2525</ele>
        <time>2019-04-18T03:05:40Z</time>
      </trkpt>
      <trkpt lat="45.40484" lon="7.03102">
        <ele>2529</ele>
        <time>2019-04-18T03:06:40Z</time>
      </trkpt>
      <trkpt lat="45.4048" lon="7.03122">
        <ele>2531</ele>
        <time>2019-04-18T03:07:40Z</time>
      </trkpt>
      <trkpt lat="45.40468" lon="7.0315">
        <ele>2529</ele>
        <time>2019-04-18T03:08:40Z</time>
      </trkpt>
      <trkpt lat="45.40432" lon="7.03208">
        <ele>2524</ele>
        <time>2019-04-18T03:09:40Z</time>
      </trkpt>
      <trkpt lat="45.40419" lon="7.03217">
        <ele>2519</ele>
        <time>2019-04-18T03:10:40Z</time>
      </trkpt>
      <trkpt lat="45.40406" lon="7.0322">
        <ele>2514</ele>
        <time>2019-04-18T03:11:40Z</time>
      </trkpt>
      <trkpt lat="45.40387" lon="7.03229">
        <ele>2507</ele>
        <time>2019-04-18T03:12:40Z</time>
      </trkpt>
      <trkpt lat="45.40329" lon="7.03283">
        <ele>2499</ele>
        <time>2019-04-18T03:13:40Z</time>
      </trkpt>
      <trkpt lat="45.40312" lon="7.03306">
        <ele>2502</ele>
        <time>2019-04-18T03:14:40Z</time>
      </trkpt>
      <trkpt lat="45.40299" lon="7.03328">
        <ele>2504</ele>
        <time>2019-04-18T03:15:40Z</time>
      </trkpt>
      <trkpt lat="45.40292" lon="7.03353">
        <ele>2505</ele>
        <time>2019-04-18T03:16:40Z</time>
      </trkpt>
      <trkpt lat="45.40253" lon="7.03505">
        <ele>2505</ele>
        <time>2019-04-18T03:17:40Z</time>
      </trkpt>
      <trkpt lat="45.40244" lon="7.03531">
        <ele>2506</ele>
        <time>2019-04-18T03:18:40Z</time>
      </trkpt>
      <trkpt lat="45.40234" lon="7.03547">
        <ele>2503</ele>
        <time>2019-04-18T03:19:40Z</time>
      </trkpt>
      <trkpt lat="45.40221" lon="7.03562">
        <ele>2497</ele>
        <time>2019-04-18T03:20:40Z</time>
      </trkpt>
      <trkpt lat="45.40196" lon="7.03581">
        <ele>2483</ele>
        <time>2019-04-18T03:21:40Z</time>
      </trkpt>
      <trkpt lat="45.4016" lon="7.03611">
        <ele>2464</ele>
        <time>2019-04-18T03:22:40Z</time>
      </trkpt>
      <trkpt lat="45.40154" lon="7.0362">
        <ele>2462</ele>
        <time>2019-04-18T03:23:40Z</time>
      </trkpt>
      <trkpt lat="45.4015" lon="7.03631">
        <ele>2462</ele>
        <time>2019-04-18T03:24:40Z</time>
      </trkpt>
      <trkpt lat="45.40154" lon="7.03666">
        <ele>2472</ele>
        <time>2019-04-18T03:25:40Z</time>
      </trkpt>
      <trkpt lat="45.40152" lon="7.03769">
        <ele>2499</ele>
        <time>2019-04-18T03:26:40Z</time>
      </trkpt>
      <trkpt lat="45.40148" lon="7.03785">
        <ele>2500</ele>
        <time>2019-04-18T03:27:40Z</time>
      </trkpt>
      <trkpt lat="45.40138" lon="7.03797">
        <ele>2495</ele>
        <time>2019-04-18T03:28:40Z</time>
      </trkpt>
      <trkpt lat="45.40124" lon="7.0381">
        <ele>2487</ele>
        <time>2019-04-18T03:29:40Z</time>
      </trkpt>
      <trkpt lat="45.40118" lon="7.0382">
        <ele>2485</ele>
        <time>2019-04-18T03:30:40Z</time>
      </trkpt>
      <trkpt lat="45.40112" lon="7.0385">
        <ele>2486</ele>
        <time>2019-04-18T03:31:40Z</time>
      </trkpt>
      <trkpt lat="45.401" lon="7.0388">
        <ele>2480</ele>
        <time>2019-04-18T03:32:40Z</time>
      </trkpt>
      <trkpt lat="45.40098" lon="7.0389">
        <ele>2480</ele>
        <time>2019-04-18T03:33:40Z</time>
      </trkpt>
      <trkpt lat="45.40102" lon="7.03917">
        <ele>2488</ele>
        <time>2019-04-18T03:34:40Z</time>
      </trkpt>
      <trkpt lat="45.40101" lon="7.03939">
        <ele>2491</ele>
        <time>2019-04-18T03:35:40Z</time>
      </trkpt>
      <trkpt lat="45.40085" lon="7.0397">
        <ele>2481</ele>
        <time>2019-04-18T03:36:40Z</time>
      </trkpt>
      <trkpt lat="45.40077" lon="7.0401">
        <ele>2480</ele>
        <time>2019-04-18T03:37:40Z</time>
      </trkpt>
      <trkpt lat="45.40061" lon="7.04102">
        <ele>2484</ele>
        <time>2019-04-18T03:38:40Z</time>
      </trkpt>
      <trkpt lat="45.40061" lon="7.04135">
        <ele>2490</ele>
        <time>2019-04-18T03:39:40Z</time>
      </trkpt>
      <trkpt lat="45.40059" lon="7.04157">
        <ele>2493</ele>
        <time>2019-04-18T03:40:40Z</time>
      </trkpt>
      <trkpt lat="45.40053" lon="7.04185">
        <ele>2495</ele>
        <time>2019-04-18T03:41:40Z</time>
      </trkpt>
      <trkpt lat="45.40045" lon="7.04206">
        <ele>2494</ele>
        <time>2019-04-18T03:42:40Z</time>
      </trkpt>
      <trkpt lat="45.40037" lon="7.04222">
        <ele>2492</ele>
        <time>2019-04-18T03:43:40Z</time>
      </trkpt>
      <trkpt lat="45.40027" lon="7.04231">
        <ele>2488</ele>
        <time>2019-04-18T03:44:40Z</time>
      </trkpt>
      <trkpt lat="45.40011" lon="7.04242">
        <ele>2481</ele>
        <time>2019-04-18T03:45:40Z</time>
      </trkpt>
      <trkpt lat="45.39986" lon="7.04252">
        <ele>2472</ele>
        <time>2019-04-18T03:46:40Z</time>
      </trkpt>
      <trkpt lat="45.39974" lon="7.04264">
        <ele>2472</ele>
        <time>2019-04-18T03:47:40Z</time>
      </trkpt>
      <trkpt lat="45.39948" lon="7.04312">
        <ele>2476</ele>
        <time>2019-04-18T03:48:40Z</time>
      </trkpt>
      <trkpt lat="45.3993" lon="7.04335">
        <ele>2477</ele>
        <time>2019-04-18T03:49:40Z</time>
      </trkpt>
      <trkpt lat="45.39923" lon="7.0434">
        <ele>2477</ele>
        <time>2019-04-18T03:50:40Z</time>
      </trkpt>
      <trkpt lat="45.39896" lon="7.04341">
        <ele>2475</ele>
        <time>2019-04-18T03:51:40Z</time>
      </trkpt>
      <trkpt lat="45.39879" lon="7.04339">
        <ele>2475</ele>
        <time>2019-04-18T03:52:40Z</time>
      </trkpt>
      <trkpt lat="45.39865" lon="7.04335">
        <ele>2474</ele>
        <time>2019-04-18T03:53:40Z</time>
      </trkpt>
      <trkpt lat="45.39836" lon="7.04319">
        <ele>2468</ele>
        <time>2019-04-18T03:54:40Z</time>
      </trkpt>
      <trkpt lat="45.39794" lon="7.04312">
        <ele>2467</ele>
        <time>2019-04-18T03:55:40Z</time>
      </trkpt>
      <trkpt lat="45.39779" lon="7.04306">
        <ele>2465</ele>
        <time>2019-04-18T03:56:40Z</time>
      </trkpt>
      <trkpt lat="45.39744" lon="7.04281">
        <ele>2456</ele>
        <time>2019-04-18T03:57:40Z</time>
      </trkpt>
      <trkpt lat="45.39727" lon="7.04272">
        <ele>2453</ele>
        <time>2019-04-18T03:58:40Z</time>
      </trkpt>
      <trkpt lat="45.39698" lon="7.04263">
        <ele>2451</ele>
        <time>2019-04-18T03:59:40Z</time>
      </trkpt>
      <trkpt lat="45.39659" lon="7.04258">
        <ele>2449</ele>
        <time>2019-04-18T04:00:40Z</time>
      </trkpt>
      <trkpt lat="45.39629" lon="7.04257">
        <ele>2442</ele>
        <time>2019-04-18T04:01:40Z</time>
      </trkpt>
      <trkpt lat="45.39602" lon="7.0426">
        <ele>2436</ele>
        <time>2019-04-18T04:02:40Z</time>
      </trkpt>
      <trkpt lat="45.3955" lon="7.04275">
        <ele>2425</ele>
        <time>2019-04-18T04:03:40Z</time>
      </trkpt>
      <trkpt lat="45.39543" lon="7.04281">
        <ele>2425</ele>
        <time>2019-04-18T04:04:40Z</time>
      </trkpt>
      <trkpt lat="45.39476" lon="7.04379">
        <ele>2429</ele>
        <time>2019-04-18T04:05:40Z</time>
      </trkpt>
      <trkpt lat="45.39458" lon="7.04396">
        <ele>2427</ele>
        <time>2019-04-18T04:06:40Z</time>
      </trkpt>
      <trkpt lat="45.39446" lon="7.04404">
        <ele>2424</ele>
        <time>2019-04-18T04:07:40Z</time>
      </trkpt>
      <trkpt lat="45.39433" lon="7.04408">
        <ele>2420</ele>
        <time>2019-04-18T04:08:40Z</time>
      </trkpt>
      <trkpt lat="45.3941" lon="7.04407">
        <ele>2412</ele>
        <time>2019-04-18T04:09:40Z</time>
      </trkpt>
      <trkpt lat="45.39393" lon="7.04415">
        <ele>2411</ele>
        <time>2019-04-18T04:10:40Z</time>
      </trkpt>
      <trkpt lat="45.39351" lon="7.0444">
        <ele>2408</ele>
        <time>2019-04-18T04:11:40Z</time>
      </trkpt>
      <trkpt lat="45.39332" lon="7.04458">
        <ele>2408</ele>
        <time>2019-04-18T04:12:40Z</time>
      </trkpt>
      <trkpt lat="45.39309" lon="7.04489">
        <ele>2407</ele>
        <time>2019-04-18T04:13:40Z</time>
      </trkpt>
      <trkpt lat="45.39293" lon="7.04502">
        <ele>2406</ele>
        <time>2019-04-18T04:14:40Z</time>
      </trkpt>
      <trkpt lat="45.39245" lon="7.04532">
        <ele>2398</ele>
        <time>2019-04-18T04:15:40Z</time>
      </trkpt>
      <trkpt lat="45.39238" lon="7.04542">
        <ele>2398</ele>
        <time>2019-04-18T04:16:40Z</time>
      </trkpt>
      <trkpt lat="45.39211" lon="7.04591">
        <ele>2400</ele>
        <time>2019-04-18T04:17:40Z</time>
      </trkpt>
      <trkpt lat="45.39201" lon="7.04601">
        <ele>2400</ele>
        <time>2019-04-18T04:18:40Z</time>
      </trkpt>
      <trkpt lat="45.39193" lon="7.04605">
        <ele>2399</ele>
        <time>2019-04-18T04:19:40Z</time>
      </trkpt>
      <trkpt lat="45.39162" lon="7.04609">
        <ele>2390</ele>
        <time>2019-04-18T04:20:40Z</time>
      </trkpt>
      <trkpt lat="45.39136" lon="7.0462">
        <ele>2387</ele>
        <time>2019-04-18T04:21:40Z</time>
      </trkpt>
      <trkpt lat="45.39126" lon="7.04627">
        <ele>2386</ele>
        <time>2019-04-18T04:22:40Z</time>
      </trkpt>
      <trkpt lat="45.39117" lon="7.04637">
        <ele>2386</ele>
        <time>2019-04-18T04:23:40Z</time>
      </trkpt>
      <trkpt lat="45.39095" lon="7.04671">
        <ele>2388</ele>
        <time>2019-04-18T04:24:40Z</time>
      </trkpt>
      <trkpt lat="45.39084" lon="7.04685">
        <ele>2387</ele>
        <time>2019-04-18T04:25:40Z</time>
      </trkpt>
      <trkpt lat="45.39075" lon="7.047">
        <ele>2388</ele>
        <time>2019-04-18T04:26:40Z</time>
      </trkpt>
      <trkpt lat="45.39041" lon="7.04748">
        <ele>2384</ele>
        <time>2019-04-18T04:27:40Z</time>
      </trkpt>
      <trkpt lat="45.39034" lon="7.04753">
        <ele>2383</ele>
        <time>2019-04-18T04:28:40Z</time>
      </trkpt>
      <trkpt lat="45.39022" lon="7.04754">
        <ele>2378</ele>
        <time>2019-04-18T04:29:40Z</time>
      </trkpt>
      <trkpt lat="45.39011" lon="7.04753">
        <ele>2374</ele>
        <time>2019-04-18T04:30:40Z</time>
      </trkpt>
      <trkpt lat="45.38997" lon="7.04747">
        <ele>2368</ele>
        <time>2019-04-18T04:31:40Z</time>
      </trkpt>
      <trkpt lat="45.38985" lon="7.04739">
        <ele>2364</ele>
        <time>2019-04-18T04:32:40Z</time>
      </trkpt>
      <trkpt lat="45.38974" lon="7.04729">
        <ele>2361</ele>
        <time>2019-04-18T04:33:40Z</time>
      </trkpt>
      <trkpt lat="45.38965" lon="7.04714">
        <ele>2357</ele>
        <time>2019-04-18T04:34:40Z</time>
      </trkpt>
      <trkpt lat="45.38962" lon="7.04703">
        <ele>2355</ele>
        <time>2019-04-18T04:35:40Z</time>
      </trkpt>
      <trkpt lat="45.38963" lon="7.0469">
        <ele>2354</ele>
        <time>2019-04-18T04:36:40Z</time>
      </trkpt>
      <trkpt lat="45.38965" lon="7.04681">
        <ele>2353</ele>
        <time>2019-04-18T04:37:40Z</time>
      </trkpt>
      <trkpt lat="45.38971" lon="7.04669">
        <ele>2354</ele>
        <time>2019-04-18T04:38:40Z</time>
      </trkpt>
      <trkpt lat="45.38997" lon="7.04635">
        <ele>2355</ele>
        <time>2019-04-18T04:39:40Z</time>
      </trkpt>
      <trkpt lat="45.39018" lon="7.04599">
        <ele>2351</ele>
        <time>2019-04-18T04:40:40Z</time>
      </trkpt>
      <trkpt lat="45.3905" lon="7.0456">
        <ele>2348</ele>
        <time>2019-04-18T04:41:40Z</time>
      </trkpt>
      <trkpt lat="45.39076" lon="7.04522">
        <ele>2345</ele>
        <time>2019-04-18T04:42:40Z</time>
      </trkpt>
      <trkpt lat="45.39109" lon="7.0446">
        <ele>2336</ele>
        <time>2019-04-18T04:43:40Z</time>
      </trkpt>
      <trkpt lat="45.39121" lon="7.04442">
        <ele>2335</ele>
        <time>2019-04-18T04:44:40Z</time>
      </trkpt>
      <trkpt lat="45.39145" lon="7.04419">
        <ele>2338</ele>
        <time>2019-04-18T04:45:40Z</time>
      </trkpt>
      <trkpt lat="45.39155" lon="7.04407">
        <ele>2337</ele>
        <time>2019-04-18T04:46:40Z</time>
      </trkpt>
      <trkpt lat="45.39175" lon="7.04368">
        <ele>2327</ele>
        <time>2019-04-18T04:47:40Z</time>
      </trkpt>
      <trkpt lat="45.39186" lon="7.04353">
        <ele>2325</ele>
        <time>2019-04-18T04:48:40Z</time>
      </trkpt>
      <trkpt lat="45.39231" lon="7.04317">
        <ele>2325</ele>
        <time>2019-04-18T04:49:40Z</time>
      </trkpt>
      <trkpt lat="45.39271" lon="7.0428">
        <ele>2321</ele>
        <time>2019-04-18T04:50:40Z</time>
      </trkpt>
      <trkpt lat="45.3931" lon="7.04234">
        <ele>2314</ele>
        <time>2019-04-18T04:51:40Z</time>
      </trkpt>
      <trkpt lat="45.39371" lon="7.04167">
        <ele>2306</ele>
        <time>2019-04-18T04:52:40Z</time>
      </trkpt>
      <trkpt lat="45.39442" lon="7.04095">
        <ele>2294</ele>
        <time>2019-04-18T04:53:40Z</time>
      </trkpt>
      <trkpt lat="45.39486" lon="7.04055">
        <ele>2288</ele>
        <time>2019-04-18T04:54:40Z</time>
      </trkpt>
      <trkpt lat="45.39515" lon="7.04034">
        <ele>2286</ele>
        <time>2019-04-18T04:55:40Z</time>
      </trkpt>
      <trkpt lat="45.39607" lon="7.0398">
        <ele>2284</ele>
        <time>2019-04-18T04:56:40Z</time>
      </trkpt>
      <trkpt lat="45.39632" lon="7.03967">
        <ele>2284</ele>
        <time>2019-04-18T04:57:40Z</time>
      </trkpt>
      <trkpt lat="45.39666" lon="7.03961">
        <ele>2288</ele>
        <time>2019-04-18T04:58:40Z</time>
      </trkpt>
      <trkpt lat="45.39671" lon="7.03957">
        <ele>2288</ele>
        <time>2019-04-18T04:59:40Z</time>
      </trkpt>
      <trkpt lat="45.39673" lon="7.0395">
        <ele>2287</ele>
        <time>2019-04-18T05:00:40Z</time>
      </trkpt>
      <trkpt lat="45.39672" lon="7.03943">
        <ele>2285</ele>
        <time>2019-04-18T05:01:40Z</time>
      </trkpt>
      <trkpt lat="45.39665" lon="7.03936">
        <ele>2282</ele>
        <time>2019-04-18T05:02:40Z</time>
      </trkpt>
      <trkpt lat="45.39623" lon="7.03938">
        <ele>2275</ele>
        <time>2019-04-18T05:03:40Z</time>
      </trkpt>
      <trkpt lat="45.39596" lon="7.03946">
        <ele>2272</ele>
        <time>2019-04-18T05:04:40Z</time>
      </trkpt>
      <trkpt lat="45.39537" lon="7.03971">
        <ele>2270</ele>
        <time>2019-04-18T05:05:40Z</time>
      </trkpt>
      <trkpt lat="45.39488" lon="7.03987">
        <ele>2265</ele>
        <time>2019-04-18T05:06:40Z</time>
      </trkpt>
      <trkpt lat="45.39405" lon="7.04001">
        <ele>2256</ele>
        <time>2019-04-18T05:07:40Z</time>
      </trkpt>
      <trkpt lat="45.39348" lon="7.04014">
        <ele>2249</ele>
        <time>2019-04-18T05:08:40Z</time>
      </trkpt>
      <trkpt lat="45.39326" lon="7.04022">
        <ele>2246</ele>
        <time>2019-04-18T05:09:40Z</time>
      </trkpt>
      <trkpt lat="45.39313" lon="7.04037">
        <ele>2245</ele>
        <time>2019-04-18T05:10:40Z</time>
      </trkpt>
      <trkpt lat="45.39301" lon="7.04078">
        <ele>2250</ele>
        <time>2019-04-18T05:11:40Z</time>
      </trkpt>
      <trkpt lat="45.39295" lon="7.04086">
        <ele>2251</ele>
        <time>2019-04-18T05:12:40Z</time>
      </trkpt>
      <trkpt lat="45.39287" lon="7.04091">
        <ele>2251</ele>
        <time>2019-04-18T05:13:40Z</time>
      </trkpt>
      <trkpt lat="45.39206" lon="7.0413">
        <ele>2242</ele>
        <time>2019-04-18T05:14:40Z</time>
      </trkpt>
      <trkpt lat="45.3917" lon="7.04144">
        <ele>2236</ele>
        <time>2019-04-18T05:15:40Z</time>
      </trkpt>
      <trkpt lat="45.39121" lon="7.04163">
        <ele>2228</ele>
        <time>2019-04-18T05:16:40Z</time>
      </trkpt>
      <trkpt lat="45.39039" lon="7.04188">
        <ele>2215</ele>
        <time>2019-04-18T05:17:40Z</time>
      </trkpt>
      <trkpt lat="45.3901" lon="7.04201">
        <ele>2212</ele>
        <time>2019-04-18T05:18:40Z</time>
      </trkpt>
      <trkpt lat="45.39001" lon="7.04209">
        <ele>2212</ele>
        <time>2019-04-18T05:19:40Z</time>
      </trkpt>
      <trkpt lat="45.38984" lon="7.0423">
        <ele>2213</ele>
        <time>2019-04-18T05:20:40Z</time>
      </trkpt>
      <trkpt lat="45.38973" lon="7.04239">
        <ele>2212</ele>
        <time>2019-04-18T05:21:40Z</time>
      </trkpt>
      <trkpt lat="45.38938" lon="7.04257">
        <ele>2207</ele>
        <time>2019-04-18T05:22:40Z</time>
      </trkpt>
      <trkpt lat="45.38923" lon="7.04267">
        <ele>2205</ele>
        <time>2019-04-18T05:23:40Z</time>
      </trkpt>
      <trkpt lat="45.38882" lon="7.04304">
        <ele>2202</ele>
        <time>2019-04-18T05:24:40Z</time>
      </trkpt>
      <trkpt lat="45.38865" lon="7.04323">
        <ele>2201</ele>
        <time>2019-04-18T05:25:40Z</time>
      </trkpt>
      <trkpt lat="45.38782" lon="7.04392">
        <ele>2192</ele>
        <time>2019-04-18T05:26:40Z</time>
      </trkpt>
      <trkpt lat="45.38723" lon="7.04431">
        <ele>2184</ele>
        <time>2019-04-18T05:27:40Z</time>
      </trkpt>
      <trkpt lat="45.3868" lon="7.04477">
        <ele>2182</ele>
        <time>2019-04-18T05:28:40Z</time>
      </trkpt>
      <trkpt lat="45.38645" lon="7.04497">
        <ele>2176</ele>
        <time>2019-04-18T05:29:40Z</time>
      </trkpt>
      <trkpt lat="45.38626" lon="7.04513">
        <ele>2174</ele>
        <time>2019-04-18T05:30:40Z</time>
      </trkpt>
      <trkpt lat="45.38602" lon="7.04534">
        <ele>2171</ele>
        <time>2019-04-18T05:31:40Z</time>
      </trkpt>
      <trkpt lat="45.38586" lon="7.04566">
        <ele>2171</ele>
        <time>2019-04-18T05:32:40Z</time>
      </trkpt>
      <trkpt lat="45.38576" lon="7.04581">
        <ele>2171</ele>
        <time>2019-04-18T05:33:40Z</time>
      </trkpt>
      <trkpt lat="45.38562" lon="7.04592">
        <ele>2170</ele>
        <time>2019-04-18T05:34:40Z</time>
      </trkpt>
      <trkpt lat="45.38547" lon="7.046">
        <ele>2168</ele>
        <time>2019-04-18T05:35:40Z</time>
      </trkpt>
      <trkpt lat="45.38529" lon="7.04606">
        <ele>2165</ele>
        <time>2019-04-18T05:36:40Z</time>
      </trkpt>
      <trkpt lat="45.38514" lon="7.04607">
        <ele>2162</ele>
        <time>2019-04-18T05:37:40Z</time>
      </trkpt>
      <trkpt lat="45.38507" lon="7.04606">
        <ele>2160</ele>
        <time>2019-04-18T05:38:40Z</time>
      </trkpt>
      <trkpt lat="45.385" lon="7.04598">
        <ele>2157</ele>
        <time>2019-04-18T05:39:40Z</time>
      </trkpt>
      <trkpt lat="45.38497" lon="7.0459">
        <ele>2155</ele>
        <time>2019-04-18T05:40:40Z</time>
      </trkpt>
      <trkpt lat="45.38498" lon="7.0458">
        <ele>2154</ele>
        <time>2019-04-18T05:41:40Z</time>
      </trkpt>
      <trkpt lat="45.38501" lon="7.0457">
        <ele>2154</ele>
        <time>2019-04-18T05:42:40Z</time>
      </trkpt>
      <trkpt lat="45.38512" lon="7.04549">
        <ele>2154</ele>
        <time>2019-04-18T05:43:40Z</time>
      </trkpt>
      <trkpt lat="45.38523" lon="7.04515">
        <ele>2153</ele>
        <time>2019-04-18T05:44:40Z</time>
      </trkpt>
      <trkpt lat="45.38529" lon="7.04484">
        <ele>2150</ele>
        <time>2019-04-18T05:45:40Z</time>
      </trkpt>
      <trkpt lat="45.38539" lon="7.04403">
        <ele>2143</ele>
        <time>2019-04-18T05:46:40Z</time>
      </trkpt>
      <trkpt lat="45.38547" lon="7.04349">
        <ele>2141</ele>
        <time>2019-04-18T05:47:40Z</time>
      </trkpt>
      <trkpt lat="45.38547" lon="7.04335">
        <ele>2140</ele>
        <time>2019-04-18T05:48:40Z</time>
      </trkpt>
      <trkpt lat="45.38545" lon="7.04318">
        <ele>2139</ele>
        <time>2019-04-18T05:49:40Z</time>
      </trkpt>
      <trkpt lat="45.38538" lon="7.04303">
        <ele>2137</ele>
        <time>2019-04-18T05:50:40Z</time>
      </trkpt>
      <trkpt lat="45.38528" lon="7.04292">
        <ele>2136</ele>
        <time>2019-04-18T05:51:40Z</time>
      </trkpt>
      <trkpt lat="45.38509" lon="7.04279">
        <ele>2135</ele>
        <time>2019-04-18T05:52:40Z</time>
      </trkpt>
      <trkpt lat="45.38476" lon="7.04262">
        <ele>2139</ele>
        <time>2019-04-18T05:53:40Z</time>
      </trkpt>
      <trkpt lat="45.3847" lon="7.04263">
        <ele>2141</ele>
        <time>2019-04-18T05:54:40Z</time>
      </trkpt>
      <trkpt lat="45.38457" lon="7.0427">
        <ele>2143</ele>
        <time>2019-04-18T05:55:40Z</time>
      </trkpt>
      <trkpt lat="45.38449" lon="7.04282">
        <ele>2144</ele>
        <time>2019-04-18T05:56:40Z</time>
      </trkpt>
      <trkpt lat="45.38423" lon="7.04328">
        <ele>2143</ele>
        <time>2019-04-18T05:57:40Z</time>
      </trkpt>
      <trkpt lat="45.38357" lon="7.04454">
        <ele>2140</ele>
        <time>2019-04-18T05:58:40Z</time>
      </trkpt>
      <trkpt lat="45.3835" lon="7.04464">
        <ele>2139</ele>
        <time>2019-04-18T05:59:40Z</time>
      </trkpt>
      <trkpt lat="45.38322" lon="7.04494">
        <ele>2140</ele>
        <time>2019-04-18T06:00:40Z</time>
      </trkpt>
      <trkpt lat="45.38302" lon="7.04527">
        <ele>2144</ele>
        <time>2019-04-18T06:01:40Z</time>
      </trkpt>
      <trkpt lat="45.38265" lon="7.04609">
        <ele>2134</ele>
        <time>2019-04-18T06:02:40Z</time>
      </trkpt>
      <trkpt lat="45.38257" lon="7.04623">
        <ele>2132</ele>
        <time>2019-04-18T06:03:40Z</time>
      </trkpt>
      <trkpt lat="45.38249" lon="7.04633">
        <ele>2131</ele>
        <time>2019-04-18T06:04:40Z</time>
      </trkpt>
      <trkpt lat="45.3819" lon="7.04665">
        <ele>2132</ele>
        <time>2019-04-18T06:05:40Z</time>
      </trkpt>
      <trkpt lat="45.38166" lon="7.04683">
        <ele>2132</ele>
        <time>2019-04-18T06:06:40Z</time>
      </trkpt>
      <trkpt lat="45.38154" lon="7.04695">
        <ele>2136</ele>
        <time>2019-04-18T06:07:40Z</time>
      </trkpt>
      <trkpt lat="45.38145" lon="7.04708">
        <ele>2137</ele>
        <time>2019-04-18T06:08:40Z</time>
      </trkpt>
      <trkpt lat="45.38136" lon="7.04734">
        <ele>2134</ele>
        <time>2019-04-18T06:09:40Z</time>
      </trkpt>
      <trkpt lat="45.3812" lon="7.04798">
        <ele>2126</ele>
        <time>2019-04-18T06:10:40Z</time>
      </trkpt>
      <trkpt lat="45.38118" lon="7.04815">
        <ele>2123</ele>
        <time>2019-04-18T06:11:40Z</time>
      </trkpt>
      <trkpt lat="45.38118" lon="7.04851">
        <ele>2118</ele>
        <time>2019-04-18T06:12:40Z</time>
      </trkpt>
      <trkpt lat="45.38115" lon="7.04859">
        <ele>2119</ele>
        <time>2019-04-18T06:13:40Z</time>
      </trkpt>
      <trkpt lat="45.38077" lon="7.04925">
        <ele>2118</ele>
        <time>2019-04-18T06:14:40Z</time>
      </trkpt>
      <trkpt lat="45.38074" lon="7.04939">
        <ele>2117</ele>
        <time>2019-04-18T06:15:40Z</time>
      </trkpt>
      <trkpt lat="45.38073" lon="7.04968">
        <ele>2113</ele>
        <time>2019-04-18T06:16:40Z</time>
      </trkpt>
      <trkpt lat="45.38071" lon="7.04974">
        <ele>2113</ele>
        <time>2019-04-18T06:17:40Z</time>
      </trkpt>
      <trkpt lat="45.38063" lon="7.04987">
        <ele>2112</ele>
        <time>2019-04-18T06:18:40Z</time>
      </trkpt>
      <trkpt lat="45.37985" lon="7.05012">
        <ele>2115</ele>
        <time>2019-04-18T06:19:40Z</time>
      </trkpt>
      <trkpt lat="45.3796" lon="7.05011">
        <ele>2114</ele>
        <time>2019-04-18T06:20:40Z</time>
      </trkpt>
      <trkpt lat="45.37934" lon="7.05004">
        <ele>2116</ele>
        <time>2019-04-18T06:21:40Z</time>
      </trkpt>
      <trkpt lat="45.37905" lon="7.04991">
        <ele>2117</ele>
        <time>2019-04-18T06:22:40Z</time>
      </trkpt>
      <trkpt lat="45.37875" lon="7.04966">
        <ele>2114</ele>
        <time>2019-04-18T06:23:40Z</time>
      </trkpt>
      <trkpt lat="45.37867" lon="7.04956">
        <ele>2114</ele>
        <time>2019-04-18T06:24:40Z</time>
      </trkpt>
      <trkpt lat="45.37817" lon="7.04878">
        <ele>2110</ele>
        <time>2019-04-18T06:25:40Z</time>
      </trkpt>
      <trkpt lat="45.37792" lon="7.04851">
        <ele>2099</ele>
        <time>2019-04-18T06:26:40Z</time>
      </trkpt>
      <trkpt lat="45.37783" lon="7.04836">
        <ele>2096</ele>
        <time>2019-04-18T06:27:40Z</time>
      </trkpt>
      <trkpt lat="45.37777" lon="7.0482">
        <ele>2096</ele>
        <time>2019-04-18T06:28:40Z</time>
      </trkpt>
      <trkpt lat="45.37772" lon="7.04799">
        <ele>2099</ele>
        <time>2019-04-18T06:29:40Z</time>
      </trkpt>
      <trkpt lat="45.37767" lon="7.04786">
        <ele>2099</ele>
        <time>2019-04-18T06:30:40Z</time>
      </trkpt>
      <trkpt lat="45.37745" lon="7.04747">
        <ele>2092</ele>
        <time>2019-04-18T06:31:40Z</time>
      </trkpt>
      <trkpt lat="45.37741" lon="7.04735">
        <ele>2093</ele>
        <time>2019-04-18T06:32:40Z</time>
      </trkpt>
      <trkpt lat="45.37727" lon="7.04672">
        <ele>2100</ele>
        <time>2019-04-18T06:33:40Z</time>
      </trkpt>
      <trkpt lat="45.37713" lon="7.04636">
        <ele>2097</ele>
        <time>2019-04-18T06:34:40Z</time>
      </trkpt>
      <trkpt lat="45.37704" lon="7.04608">
        <ele>2096</ele>
        <time>2019-04-18T06:35:40Z</time>
      </trkpt>
      <trkpt lat="45.37695" lon="7.04561">
        <ele>2102</ele>
        <time>2019-04-18T06:36:40Z</time>
      </trkpt>
      <trkpt lat="45.37683" lon="7.04516">
        <ele>2105</ele>
        <time>2019-04-18T06:37:40Z</time>
      </trkpt>
      <trkpt lat="45.37657" lon="7.04472">
        <ele>2094</ele>
        <time>2019-04-18T06:38:40Z</time>
      </trkpt>
      <trkpt lat="45.37644" lon="7.04433">
        <ele>2091</ele>
        <time>2019-04-18T06:39:40Z</time>
      </trkpt>
      <trkpt lat="45.37614" lon="7.04357">
        <ele>2078</ele>
        <time>2019-04-18T06:40:40Z</time>
      </trkpt>
      <trkpt lat="45.37609" lon="7.0434">
        <ele>2076</ele>
        <time>2019-04-18T06:41:40Z</time>
      </trkpt>
      <trkpt lat="45.37604" lon="7.04304">
        <ele>2080</ele>
        <time>2019-04-18T06:42:40Z</time>
      </trkpt>
      <trkpt lat="45.37598" lon="7.04283">
        <ele>2080</ele>
        <time>2019-04-18T06:43:40Z</time>
      </trkpt>
      <trkpt lat="45.37581" lon="7.04248">
        <ele>2073</ele>
        <time>2019-04-18T06:44:40Z</time>
      </trkpt>
      <trkpt lat="45.37569" lon="7.0421">
        <ele>2073</ele>
        <time>2019-04-18T06:45:40Z</time>
      </trkpt>
      <trkpt lat="45.37547" lon="7.04148">
        <ele>2064</ele>
        <time>2019-04-18T06:46:40Z</time>
      </trkpt>
      <trkpt lat="45.37526" lon="7.04065">
        <ele>2053</ele>
        <time>2019-04-18T06:47:40Z</time>
      </trkpt>
      <trkpt lat="45.37519" lon="7.04044">
        <ele>2050</ele>
        <time>2019-04-18T06:48:40Z</time>
      </trkpt>
      <trkpt lat="45.37471" lon="7.03937">
        <ele>2036</ele>
        <time>2019-04-18T06:49:40Z</time>
      </trkpt>
      <trkpt lat="45.37421" lon="7.03814">
        <ele>2025</ele>
        <time>2019-04-18T06:50:40Z</time>
      </trkpt>
      <trkpt lat="45.37414" lon="7.03793">
        <ele>2023</ele>
        <time>2019-04-18T06:51:40Z</time>
      </trkpt>
      <trkpt lat="45.37394" lon="7.03749">
        <ele>2018</ele>
        <time>2019-04-18T06:52:40Z</time>
      </trkpt>
      <trkpt lat="45.37383" lon="7.03716">
        <ele>2016</ele>
        <time>2019-04-18T06:53:40Z</time>
      </trkpt>
      <trkpt lat="45.37377" lon="7.03702">
        <ele>2015</ele>
        <time>2019-04-18T06:54:40Z</time>
      </trkpt>
      <trkpt lat="45.37356" lon="7.03674">
        <ele>2008</ele>
        <time>2019-04-18T06:55:40Z</time>
      </trkpt>
      <trkpt lat="45.37354" lon="7.03658">
        <ele>2008</ele>
        <time>2019-04-18T06:56:40Z</time>
      </trkpt>
      <trkpt lat="45.37356" lon="7.03637">
        <ele>2011</ele>
        <time>2019-04-18T06:57:40Z</time>
      </trkpt>
      <trkpt lat="45.37354" lon="7.03625">
        <ele>2011</ele>
        <time>2019-04-18T06:58:40Z</time>
      </trkpt>
      <trkpt lat="45.37346" lon="7.03608">
        <ele>2008</ele>
        <time>2019-04-18T06:59:40Z</time>
      </trkpt>
      <trkpt lat="45.37336" lon="7.03577">
        <ele>2005</ele>
        <time>2019-04-18T07:00:40Z</time>
      </trkpt>
      <trkpt lat="45.37328" lon="7.03559">
        <ele>2002</ele>
        <time>2019-04-18T07:01:40Z</time>
      </trkpt>
      <trkpt lat="45.37326" lon="7.03551">
        <ele>2002</ele>
        <time>2019-04-18T07:02:40Z</time>
      </trkpt>
      <trkpt lat="45.37329" lon="7.03512">
        <ele>2007</ele>
        <time>2019-04-18T07:03:40Z</time>
      </trkpt>
      <trkpt lat="45.37328" lon="7.03504">
        <ele>2007</ele>
        <time>2019-04-18T07:04:40Z</time>
      </trkpt>
      <trkpt lat="45.37319" lon="7.0348">
        <ele>2006</ele>
        <time>2019-04-18T07:05:40Z</time>
      </trkpt>
      <trkpt lat="45.3724" lon="7.03376">
        <ele>1995</ele>
        <time>2019-04-18T07:06:40Z</time>
      </trkpt>
      <trkpt lat="45.3723" lon="7.03364">
        <ele>1994</ele>
        <time>2019-04-18T07:07:40Z</time>
      </trkpt>
      <trkpt lat="45.37217" lon="7.03355">
        <ele>1992</ele>
        <time>2019-04-18T07:08:40Z</time>
      </trkpt>
      <trkpt lat="45.3717" lon="7.0333">
        <ele>1980</ele>
        <time>2019-04-18T07:09:40Z</time>
      </trkpt>
      <trkpt lat="45.37149" lon="7.03314">
        <ele>1977</ele>
        <time>2019-04-18T07:10:40Z</time>
      </trkpt>
      <trkpt lat="45.37113" lon="7.03258">
        <ele>1980</ele>
        <time>2019-04-18T07:11:40Z</time>
      </trkpt>
      <trkpt lat="45.37102" lon="7.03245">
        <ele>1980</ele>
        <time>2019-04-18T07:12:40Z</time>
      </trkpt>
      <trkpt lat="45.37074" lon="7.03228">
        <ele>1976</ele>
        <time>2019-04-18T07:13:40Z</time>
      </trkpt>
      <trkpt lat="45.37064" lon="7.03224">
        <ele>1974</ele>
        <time>2019-04-18T07:14:40Z</time>
      </trkpt>
      <trkpt lat="45.37037" lon="7.03221">
        <ele>1966</ele>
        <time>2019-04-18T07:15:40Z</time>
      </trkpt>
      <trkpt lat="45.37027" lon="7.03217">
        <ele>1964</ele>
        <time>2019-04-18T07:16:40Z</time>
      </trkpt>
      <trkpt lat="45.36996" lon="7.0319">
        <ele>1962</ele>
        <time>2019-04-18T07:17:40Z</time>
      </trkpt>
      <trkpt lat="45.36985" lon="7.03177">
        <ele>1960</ele>
        <time>2019-04-18T07:18:40Z</time>
      </trkpt>
      <trkpt lat="45.36973" lon="7.03156">
        <ele>1961</ele>
        <time>2019-04-18T07:19:40Z</time>
      </trkpt>
      <trkpt lat="45.36969" lon="7.03153">
        <ele>1960</ele>
        <time>2019-04-18T07:20:40Z</time>
      </trkpt>
      <trkpt lat="45.36963" lon="7.03156">
        <ele>1956</ele>
        <time>2019-04-18T07:21:40Z</time>
      </trkpt>
      <trkpt lat="45.36961" lon="7.03162">
        <ele>1953</ele>
        <time>2019-04-18T07:22:40Z</time>
      </trkpt>
      <trkpt lat="45.36963" lon="7.03171">
        <ele>1951</ele>
        <time>2019-04-18T07:23:40Z</time>
      </trkpt>
      <trkpt lat="45.36971" lon="7.03184">
        <ele>1951</ele>
        <time>2019-04-18T07:24:40Z</time>
      </trkpt>
      <trkpt lat="45.37017" lon="7.03244">
        <ele>1952</ele>
        <time>2019-04-18T07:25:40Z</time>
      </trkpt>
      <trkpt lat="45.37061" lon="7.03282">
        <ele>1954</ele>
        <time>2019-04-18T07:26:40Z</time>
      </trkpt>
      <trkpt lat="45.3707" lon="7.03295">
        <ele>1953</ele>
        <time>2019-04-18T07:27:40Z</time>
      </trkpt>
      <trkpt lat="45.37078" lon="7.03312">
        <ele>1950</ele>
        <time>2019-04-18T07:28:40Z</time>
      </trkpt>
      <trkpt lat="45.37094" lon="7.03361">
        <ele>1942</ele>
        <time>2019-04-18T07:29:40Z</time>
      </trkpt>
      <trkpt lat="45.37103" lon="7.03385">
        <ele>1940</ele>
        <time>2019-04-18T07:30:40Z</time>
      </trkpt>
      <trkpt lat="45.37132" lon="7.0344">
        <ele>1937</ele>
        <time>2019-04-18T07:31:40Z</time>
      </trkpt>
      <trkpt lat="45.37147" lon="7.03467">
        <ele>1935</ele>
        <time>2019-04-18T07:32:40Z</time>
      </trkpt>
      <trkpt lat="45.37166" lon="7.03491">
        <ele>1935</ele>
        <time>2019-04-18T07:33:40Z</time>
      </trkpt>
      <trkpt lat="45.37176" lon="7.03512">
        <ele>1935</ele>
        <time>2019-04-18T07:34:40Z</time>
      </trkpt>
      <trkpt lat="45.37182" lon="7.03529">
        <ele>1934</ele>
        <time>2019-04-18T07:35:40Z</time>
      </trkpt>
      <trkpt lat="45.37187" lon="7.03566">
        <ele>1929</ele>
        <time>2019-04-18T07:36:40Z</time>
      </trkpt>
      <trkpt lat="45.37189" lon="7.03607">
        <ele>1924</ele>
        <time>2019-04-18T07:37:40Z</time>
      </trkpt>
      <trkpt lat="45.37195" lon="7.03639">
        <ele>1923</ele>
        <time>2019-04-18T07:38:40Z</time>
      </trkpt>
      <trkpt lat="45.37196" lon="7.03654">
        <ele>1922</ele>
        <time>2019-04-18T07:39:40Z</time>
      </trkpt>
      <trkpt lat="45.37198" lon="7.03668">
        <ele>1921</ele>
        <time>2019-04-18T07:40:40Z</time>
      </trkpt>
      <trkpt lat="45.37203" lon="7.03689">
        <ele>1921</ele>
        <time>2019-04-18T07:41:40Z</time>
      </trkpt>
      <trkpt lat="45.37204" lon="7.03701">
        <ele>1920</ele>
        <time>2019-04-18T07:42:40Z</time>
      </trkpt>
      <trkpt lat="45.37201" lon="7.03727">
        <ele>1915</ele>
        <time>2019-04-18T07:43:40Z</time>
      </trkpt>
      <trkpt lat="45.37214" lon="7.0379">
        <ele>1912</ele>
        <time>2019-04-18T07:44:40Z</time>
      </trkpt>
      <trkpt lat="45.37219" lon="7.03831">
        <ele>1908</ele>
        <time>2019-04-18T07:45:40Z</time>
      </trkpt>
      <trkpt lat="45.37226" lon="7.03852">
        <ele>1907</ele>
        <time>2019-04-18T07:46:40Z</time>
      </trkpt>
      <trkpt lat="45.37238" lon="7.03868">
        <ele>1910</ele>
        <time>2019-04-18T07:47:40Z</time>
      </trkpt>
      <trkpt lat="45.37247" lon="7.03887">
        <ele>1910</ele>
        <time>2019-04-18T07:48:40Z</time>
      </trkpt>
      <trkpt lat="45.37257" lon="7.03948">
        <ele>1900</ele>
        <time>2019-04-18T07:49:40Z</time>
      </trkpt>
      <trkpt lat="45.37287" lon="7.04051">
        <ele>1896</ele>
        <time>2019-04-18T07:50:40Z</time>
      </trkpt>
      <trkpt lat="45.37291" lon="7.04088">
        <ele>1890</ele>
        <time>2019-04-18T07:51:40Z</time>
      </trkpt>
      <trkpt lat="45.37334" lon="7.04257">
        <ele>1883</ele>
        <time>2019-04-18T07:52:40Z</time>
      </trkpt>
      <trkpt lat="45.37349" lon="7.04339">
        <ele>1881</ele>
        <time>2019-04-18T07:53:40Z</time>
      </trkpt>
      <trkpt lat="45.37354" lon="7.04381">
        <ele>1879</ele>
        <time>2019-04-18T07:54:40Z</time>
      </trkpt>
      <trkpt lat="45.37368" lon="7.04442">
        <ele>1881</ele>
        <time>2019-04-18T07:55:40Z</time>
      </trkpt>
      <trkpt lat="45.37372" lon="7.04486">
        <ele>1878</ele>
        <time>2019-04-18T07:56:40Z</time>
      </trkpt>
      <trkpt lat="45.37371" lon="7.04515">
        <ele>1873</ele>
        <time>2019-04-18T07:57:40Z</time>
      </trkpt>
      <trkpt lat="45.37363" lon="7.04565">
        <ele>1862</ele>
        <time>2019-04-18T07:58:40Z</time>
      </trkpt>
      <trkpt lat="45.3736" lon="7.04608">
        <ele>1856</ele>
        <time>2019-04-18T07:59:40Z</time>
      </trkpt>
      <trkpt lat="45.3736" lon="7.04671">
        <ele>1852</ele>
        <time>2019-04-18T08:00:40Z</time>
      </trkpt>
      <trkpt lat="45.37361" lon="7.04705">
        <ele>1849</ele>
        <time>2019-04-18T08:01:40Z</time>
      </trkpt>
      <trkpt lat="45.37369" lon="7.04749">
        <ele>1850</ele>
        <time>2019-04-18T08:02:40Z</time>
      </trkpt>
      <trkpt lat="45.37371" lon="7.04786">
        <ele>1846</ele>
        <time>2019-04-18T08:03:40Z</time>
      </trkpt>
      <trkpt lat="45.37377" lon="7.04818">
        <ele>1843</ele>
        <time>2019-04-18T08:04:40Z</time>
      </trkpt>
      <trkpt lat="45.37387" lon="7.04861">
        <ele>1842</ele>
        <time>2019-04-18T08:05:40Z</time>
      </trkpt>
      <trkpt lat="45.37397" lon="7.04913">
        <ele>1838</ele>
        <time>2019-04-18T08:06:40Z</time>
      </trkpt>
      <trkpt lat="45.37429" lon="7.05109">
        <ele>1828</ele>
        <time>2019-04-18T08:07:40Z</time>
      </trkpt>
      <trkpt lat="45.3743" lon="7.05164">
        <ele>1825</ele>
        <time>2019-04-18T08:08:40Z</time>
      </trkpt>
      <trkpt lat="45.37425" lon="7.05219">
        <ele>1821</ele>
        <time>2019-04-18T08:09:40Z</time>
      </trkpt>
      <trkpt lat="45.3741" lon="7.05252">
        <ele>1817</ele>
        <time>2019-04-18T08:10:40Z</time>
      </trkpt>
      <trkpt lat="45.37381" lon="7.05281">
        <ele>1812</ele>
        <time>2019-04-18T08:11:40Z</time>
      </trkpt>
      <trkpt lat="45.37347" lon="7.05283">
        <ele>1806</ele>
        <time>2019-04-18T08:12:40Z</time>
      </trkpt>
      <trkpt lat="45.37337" lon="7.0528">
        <ele>1804</ele>
        <time>2019-04-18T08:13:40Z</time>
      </trkpt>
      <trkpt lat="45.37325" lon="7.05273">
        <ele>1803</ele>
        <time>2019-04-18T08:14:40Z</time>
      </trkpt>
      <trkpt lat="45.37305" lon="7.05252">
        <ele>1801</ele>
        <time>2019-04-18T08:15:40Z</time>
      </trkpt>
      <trkpt lat="45.37279" lon="7.05202">
        <ele>1798</ele>
        <time>2019-04-18T08:16:40Z</time>
      </trkpt>
      <trkpt lat="45.37185" lon="7.04991">
        <ele>1792</ele>
        <time>2019-04-18T08:17:40Z</time>
      </trkpt>
      <trkpt lat="45.37141" lon="7.04892">
        <ele>1790</ele>
        <time>2019-04-18T08:18:40Z</time>
      </trkpt>
      <trkpt lat="45.37053" lon="7.04679">
        <ele>1788</ele>
        <time>2019-04-18T08:19:40Z</time>
      </trkpt>
      <trkpt lat="45.3695" lon="7.04334">
        <ele>1782</ele>
        <time>2019-04-18T08:20:40Z</time>
      </trkpt>
      <trkpt lat="45.36925" lon="7.04267">
        <ele>1782</ele>
        <time>2019-04-18T08:21:40Z</time>
      </trkpt>
      <trkpt lat="45.36898" lon="7.04228">
        <ele>1782</ele>
        <time>2019-04-18T08:22:40Z</time>
      </trkpt>
      <trkpt lat="45.36733" lon="7.0401">
        <ele>1783</ele>
        <time>2019-04-18T08:23:40Z</time>
      </trkpt>
      <trkpt lat="45.36417" lon="7.03684">
        <ele>1778</ele>
        <time>2019-04-18T08:24:40Z</time>
      </trkpt>
      <trkpt lat="45.36363" lon="7.03619">
        <ele>1781</ele>
        <time>2019-04-18T08:25:40Z</time>
      </trkpt>
      <trkpt lat="45.36304" lon="7.03534">
        <ele>1777</ele>
        <time>2019-04-18T08:26:40Z</time>
      </trkpt>
      <trkpt lat="45.3628" lon="7.03505">
        <ele>1774</ele>
        <time>2019-04-18T08:27:40Z</time>
      </trkpt>
      <trkpt lat="45.36194" lon="7.03434">
        <ele>1773</ele>
        <time>2019-04-18T08:28:40Z</time>
      </trkpt>
      <trkpt lat="45.35978" lon="7.03203">
        <ele>1767</ele>
        <time>2019-04-18T08:29:40Z</time>
      </trkpt>
      <trkpt lat="45.35956" lon="7.03187">
        <ele>1767</ele>
        <time>2019-04-18T08:30:40Z</time>
      </trkpt>
      <trkpt lat="45.35767" lon="7.03065">
        <ele>1777</ele>
        <time>2019-04-18T08:31:40Z</time>
      </trkpt>
      <trkpt lat="45.35735" lon="7.03035">
        <ele>1774</ele>
        <time>2019-04-18T08:32:40Z</time>
      </trkpt>
      <trkpt lat="45.35705" lon="7.03004">
        <ele>1768</ele>
        <time>2019-04-18T08:33:40Z</time>
      </trkpt>
      <trkpt lat="45.35667" lon="7.02979">
        <ele>1769</ele>
        <time>2019-04-18T08:34:40Z</time>
      </trkpt>
      <trkpt lat="45.35632" lon="7.02963">
        <ele>1768</ele>
        <time>2019-04-18T08:35:40Z</time>
      </trkpt>
      <trkpt lat="45.35608" lon="7.02959">
        <ele>1768</ele>
        <time>2019-04-18T08:36:40Z</time>
      </trkpt>
      <trkpt lat="45.35583" lon="7.02959">
        <ele>1769</ele>
        <time>2019-04-18T08:37:40Z</time>
      </trkpt>
      <trkpt lat="45.35211" lon="7.03017">
        <ele>1757</ele>
        <time>2019-04-18T08:38:40Z</time>
      </trkpt>
      <trkpt lat="45.35156" lon="7.03016">
        <ele>1756</ele>
        <time>2019-04-18T08:39:40Z</time>
      </trkpt>
      <trkpt lat="45.35098" lon="7.03009">
        <ele>1758</ele>
        <time>2019-04-18T08:40:40Z</time>
      </trkpt>
      <trkpt lat="45.34924" lon="7.02977">
        <ele>1756</ele>
        <time>2019-04-18T08:41:40Z</time>
      </trkpt>
      <trkpt lat="45.34753" lon="7.02961">
        <ele>1754</ele>
        <time>2019-04-18T08:42:40Z</time>
      </trkpt>
      <trkpt lat="45.3467" lon="7.02948">
        <ele>1754</ele>
        <time>2019-04-18T08:43:40Z</time>
      </trkpt>
      <trkpt lat="45.34584" lon="7.02919">
        <ele>1749</ele>
        <time>2019-04-18T08:44:40Z</time>
      </trkpt>
      <trkpt lat="45.34423" lon="7.02852">
        <ele>1750</ele>
        <time>2019-04-18T08:45:40Z</time>
      </trkpt>
      <trkpt lat="45.34354" lon="7.02813">
        <ele>1748</ele>
        <time>2019-04-18T08:46:40Z</time>
      </trkpt>
      <trkpt lat="45.34081" lon="7.02614">
        <ele>1749</ele>
        <time>2019-04-18T08:47:40Z</time>
      </trkpt>
      <trkpt lat="45.34047" lon="7.02585">
        <ele>1748</ele>
        <time>2019-04-18T08:48:40Z</time>
      </trkpt>
      <trkpt lat="45.34002" lon="7.02535">
        <ele>1747</ele>
        <time>2019-04-18T08:49:40Z</time>
      </trkpt>
      <trkpt lat="45.3392" lon="7.02423">
        <ele>1744</ele>
        <time>2019-04-18T08:50:40Z</time>
      </trkpt>
      <trkpt lat="45.33898" lon="7.02393">
        <ele>1743</ele>
        <time>2019-04-18T08:51:40Z</time>
      </trkpt>
      <trkpt lat="45.33872" lon="7.02364">
        <ele>1743</ele>
        <time>2019-04-18T08:52:40Z</time>
      </trkpt>
      <trkpt lat="45.33176" lon="7.01654">
        <ele>1734</ele>
        <time>2019-04-18T08:53:40Z</time>
      </trkpt>
      <trkpt lat="45.33152" lon="7.01625">
        <ele>1734</ele>
        <time>2019-04-18T08:54:40Z</time>
      </trkpt>
      <trkpt lat="45.33134" lon="7.01599">
        <ele>1735</ele>
        <time>2019-04-18T08:55:40Z</time>
      </trkpt>
      <trkpt lat="45.33052" lon="7.0147">
        <ele>1740</ele>
        <time>2019-04-18T08:56:40Z</time>
      </trkpt>
      <trkpt lat="45.33029" lon="7.01429">
        <ele>1743</ele>
        <time>2019-04-18T08:57:40Z</time>
      </trkpt>
      <trkpt lat="45.33013" lon="7.01392">
        <ele>1745</ele>
        <time>2019-04-18T08:58:40Z</time>
      </trkpt>
      <trkpt lat="45.33" lon="7.01352">
        <ele>1746</ele>
        <time>2019-04-18T08:59:40Z</time>
      </trkpt>
      <trkpt lat="45.32939" lon="7.01153">
        <ele>1741</ele>
        <time>2019-04-18T09:00:40Z</time>
      </trkpt>
      <trkpt lat="45.32926" lon="7.01116">
        <ele>1739</ele>
        <time>2019-04-18T09:01:40Z</time>
      </trkpt>
      <trkpt lat="45.32911" lon="7.01081">
        <ele>1737</ele>
        <time>2019-04-18T09:02:40Z</time>
      </trkpt>
      <trkpt lat="45.32855" lon="7.00969">
        <ele>1734</ele>
        <time>2019-04-18T09:03:40Z</time>
      </trkpt>
      <trkpt lat="45.32717" lon="7.00682">
        <ele>1731</ele>
        <time>2019-04-18T09:04:40Z</time>
      </trkpt>
      <trkpt lat="45.32617" lon="7.00481">
        <ele>1738</ele>
        <time>2019-04-18T09:05:40Z</time>
      </trkpt>
      <trkpt lat="45.32584" lon="7.00419">
        <ele>1736</ele>
        <time>2019-04-18T09:06:40Z</time>
      </trkpt>
      <trkpt lat="45.32548" lon="7.00367">
        <ele>1735</ele>
        <time>2019-04-18T09:07:40Z</time>
      </trkpt>
      <trkpt lat="45.32515" lon="7.00327">
        <ele>1734</ele>
        <time>2019-04-18T09:08:40Z</time>
      </trkpt>
      <trkpt lat="45.32399" lon="7.00214">
        <ele>1732</ele>
        <time>2019-04-18T09:09:40Z</time>
      </trkpt>
      <trkpt lat="45.32353" lon="7.00174">
        <ele>1732</ele>
        <time>2019-04-18T09:10:40Z</time>
      </trkpt>
      <trkpt lat="45.32342" lon="7.00153">
        <ele>1732</ele>
        <time>2019-04-18T09:11:40Z</time>
      </trkpt>
      <trkpt lat="45.32326" lon="7.00143">
        <ele>1732</ele>
        <time>2019-04-18T09:12:40Z</time>
      </trkpt>
      <trkpt lat="45.32302" lon="7.0012">
        <ele>1733</ele>
        <time>2019-04-18T09:13:40Z</time>
      </trkpt>
      <trkpt lat="45.3219" lon="7.0001">
        <ele>1733</ele>
        <time>2019-04-18T09:14:40Z</time>
      </trkpt>
      <trkpt lat="45.32095" lon="6.99919">
        <ele>1730</ele>
        <time>2019-04-18T09:15:40Z</time>
      </trkpt>
      <trkpt lat="45.31995" lon="6.9982">
        <ele>1731</ele>
        <time>2019-04-18T09:16:40Z</time>
      </trkpt>
      <trkpt lat="45.3134" lon="6.99189">
        <ele>1743</ele>
        <time>2019-04-18T09:17:40Z</time>
      </trkpt>
      <trkpt lat="45.31294" lon="6.9914">
        <ele>1743</ele>
        <time>2019-04-18T09:18:40Z</time>
      </trkpt>
      <trkpt lat="45.31268" lon="6.99094">
        <ele>1742</ele>
        <time>2019-04-18T09:19:40Z</time>
      </trkpt>
      <trkpt lat="45.31252" lon="6.99054">
        <ele>1739</ele>
        <time>2019-04-18T09:20:40Z</time>
      </trkpt>
      <trkpt lat="45.31217" lon="6.98939">
        <ele>1745</ele>
        <time>2019-04-18T09:21:40Z</time>
      </trkpt>
      <trkpt lat="45.31215" lon="6.98931">
        <ele>1747</ele>
        <time>2019-04-18T09:22:40Z</time>
      </trkpt>
      <trkpt lat="45.31212" lon="6.98899">
        <ele>1753</ele>
        <time>2019-04-18T09:23:40Z</time>
      </trkpt>
      <trkpt lat="45.31214" lon="6.98861">
        <ele>1758</ele>
        <time>2019-04-18T09:24:40Z</time>
      </trkpt>
      <trkpt lat="45.31227" lon="6.98795">
        <ele>1755</ele>
        <time>2019-04-18T09:25:40Z</time>
      </trkpt>
      <trkpt lat="45.31229" lon="6.98738">
        <ele>1754</ele>
        <time>2019-04-18T09:26:40Z</time>
      </trkpt>
      <trkpt lat="45.31224" lon="6.98677">
        <ele>1749</ele>
        <time>2019-04-18T09:27:40Z</time>
      </trkpt>
      <trkpt lat="45.31208" lon="6.98617">
        <ele>1748</ele>
        <time>2019-04-18T09:28:40Z</time>
      </trkpt>
      <trkpt lat="45.31021" lon="6.98181">
        <ele>1733</ele>
        <time>2019-04-18T09:29:40Z</time>
      </trkpt>
      <trkpt lat="45.30869" lon="6.97838">
        <ele>1703</ele>
        <time>2019-04-18T09:30:40Z</time>
      </trkpt>
      <trkpt lat="45.30852" lon="6.97796">
        <ele>1699</ele>
        <time>2019-04-18T09:31:40Z</time>
      </trkpt>
      <trkpt lat="45.30838" lon="6.97747">
        <ele>1692</ele>
        <time>2019-04-18T09:32:40Z</time>
      </trkpt>
      <trkpt lat="45.30834" lon="6.97716">
        <ele>1691</ele>
        <time>2019-04-18T09:33:40Z</time>
      </trkpt>
      <trkpt lat="45.30832" lon="6.97681">
        <ele>1688</ele>
        <time>2019-04-18T09:34:40Z</time>
      </trkpt>
      <trkpt lat="45.30836" lon="6.9762">
        <ele>1685</ele>
        <time>2019-04-18T09:35:40Z</time>
      </trkpt>
      <trkpt lat="45.3084" lon="6.97596">
        <ele>1684</ele>
        <time>2019-04-18T09:36:40Z</time>
      </trkpt>
      <trkpt lat="45.3086" lon="6.97518">
        <ele>1681</ele>
        <time>2019-04-18T09:37:40Z</time>
      </trkpt>
      <trkpt lat="45.30864" lon="6.97494">
        <ele>1681</ele>
        <time>2019-04-18T09:38:40Z</time>
      </trkpt>
      <trkpt lat="45.30889" lon="6.97395">
        <ele>1681</ele>
        <time>2019-04-18T09:39:40Z</time>
      </trkpt>
      <trkpt lat="45.30894" lon="6.97369">
        <ele>1681</ele>
        <time>2019-04-18T09:40:40Z</time>
      </trkpt>
      <trkpt lat="45.309" lon="6.97313">
        <ele>1682</ele>
        <time>2019-04-18T09:41:40Z</time>
      </trkpt>
      <trkpt lat="45.30899" lon="6.97274">
        <ele>1682</ele>
        <time>2019-04-18T09:42:40Z</time>
      </trkpt>
      <trkpt lat="45.30894" lon="6.97244">
        <ele>1682</ele>
        <time>2019-04-18T09:43:40Z</time>
      </trkpt>
      <trkpt lat="45.30884" lon="6.97209">
        <ele>1682</ele>
        <time>2019-04-18T09:44:40Z</time>
      </trkpt>
      <trkpt lat="45.30863" lon="6.97162">
        <ele>1682</ele>
        <time>2019-04-18T09:45:40Z</time>
      </trkpt>
      <trkpt lat="45.30808" lon="6.97057">
        <ele>1682</ele>
        <time>2019-04-18T09:46:40Z</time>
      </trkpt>
      <trkpt lat="45.30708" lon="6.96877">
        <ele>1678</ele>
        <time>2019-04-18T09:47:40Z</time>
      </trkpt>
      <trkpt lat="45.30683" lon="6.9682">
        <ele>1677</ele>
        <time>2019-04-18T09:48:40Z</time>
      </trkpt>
      <trkpt lat="45.30661" lon="6.9675">
        <ele>1675</ele>
        <time>2019-04-18T09:49:40Z</time>
      </trkpt>
      <trkpt lat="45.30644" lon="6.96678">
        <ele>1677</ele>
        <time>2019-04-18T09:50:40Z</time>
      </trkpt>
      <trkpt lat="45.30636" lon="6.96598">
        <ele>1677</ele>
        <time>2019-04-18T09:51:40Z</time>
      </trkpt>
      <trkpt lat="45.3063" lon="6.9648">
        <ele>1678</ele>
        <time>2019-04-18T09:52:40Z</time>
      </trkpt>
      <trkpt lat="45.30628" lon="6.9638">
        <ele>1676</ele>
        <time>2019-04-18T09:53:40Z</time>
      </trkpt>
      <trkpt lat="45.30634" lon="6.96254">
        <ele>1676</ele>
        <time>2019-04-18T09:54:40Z</time>
      </trkpt>
      <trkpt lat="45.30645" lon="6.96094">
        <ele>1682</ele>
        <time>2019-04-18T09:55:40Z</time>
      </trkpt>
      <trkpt lat="45.30644" lon="6.96048">
        <ele>1682</ele>
        <time>2019-04-18T09:56:40Z</time>
      </trkpt>
      <trkpt lat="45.30639" lon="6.96005">
        <ele>1681</ele>
        <time>2019-04-18T09:57:40Z</time>
      </trkpt>
      <trkpt lat="45.3062" lon="6.95904">
        <ele>1688</ele>
        <time>2019-04-18T09:58:40Z</time>
      </trkpt>
      <trkpt lat="45.30596" lon="6.95817">
        <ele>1695</ele>
        <time>2019-04-18T09:59:40Z</time>
      </trkpt>
      <trkpt lat="45.3057" lon="6.95759">
        <ele>1692</ele>
        <time>2019-04-18T10:00:40Z</time>
      </trkpt>
      <trkpt lat="45.30544" lon="6.95721">
        <ele>1694</ele>
        <time>2019-04-18T10:01:40Z</time>
      </trkpt>
      <trkpt lat="45.30502" lon="6.95686">
        <ele>1689</ele>
        <time>2019-04-18T10:02:40Z</time>
      </trkpt>
      <trkpt lat="45.30353" lon="6.95605">
        <ele>1699</ele>
        <time>2019-04-18T10:03:40Z</time>
      </trkpt>
      <trkpt lat="45.3033" lon="6.95585">
        <ele>1701</ele>
        <time>2019-04-18T10:04:40Z</time>
      </trkpt>
      <trkpt lat="45.30317" lon="6.95567">
        <ele>1702</ele>
        <time>2019-04-18T10:05:40Z</time>
      </trkpt>
      <trkpt lat="45.30307" lon="6.95546">
        <ele>1703</ele>
        <time>2019-04-18T10:06:40Z</time>
      </trkpt>
      <trkpt lat="45.30296" lon="6.95515">
        <ele>1706</ele>
        <time>2019-04-18T10:07:40Z</time>
      </trkpt>
      <trkpt lat="45.30289" lon="6.95488">
        <ele>1708</ele>
        <time>2019-04-18T10:08:40Z</time>
      </trkpt>
      <trkpt lat="45.30261" lon="6.95349">
        <ele>1716</ele>
        <time>2019-04-18T10:09:40Z</time>
      </trkpt>
      <trkpt lat="45.30249" lon="6.95317">
        <ele>1718</ele>
        <time>2019-04-18T10:10:40Z</time>
      </trkpt>
      <trkpt lat="45.30239" lon="6.95302">
        <ele>1719</ele>
        <time>2019-04-18T10:11:40Z</time>
      </trkpt>
      <trkpt lat="45.30231" lon="6.95294">
        <ele>1720</ele>
        <time>2019-04-18T10:12:40Z</time>
      </trkpt>
      <trkpt lat="45.30219" lon="6.95289">
        <ele>1721</ele>
        <time>2019-04-18T10:13:40Z</time>
      </trkpt>
      <trkpt lat="45.30196" lon="6.95289">
        <ele>1723</ele>
        <time>2019-04-18T10:14:40Z</time>
      </trkpt>
      <trkpt lat="45.30134" lon="6.95304">
        <ele>1723</ele>
        <time>2019-04-18T10:15:40Z</time>
      </trkpt>
      <trkpt lat="45.30117" lon="6.95305">
        <ele>1723</ele>
        <time>2019-04-18T10:16:40Z</time>
      </trkpt>
      <trkpt lat="45.301" lon="6.95299">
        <ele>1724</ele>
        <time>2019-04-18T10:17:40Z</time>
      </trkpt>
      <trkpt lat="45.30085" lon="6.95287">
        <ele>1725</ele>
        <time>2019-04-18T10:18:40Z</time>
      </trkpt>
      <trkpt lat="45.30076" lon="6.95274">
        <ele>1723</ele>
        <time>2019-04-18T10:19:40Z</time>
      </trkpt>
      <trkpt lat="45.30069" lon="6.95256">
        <ele>1721</ele>
        <time>2019-04-18T10:20:40Z</time>
      </trkpt>
      <trkpt lat="45.3001" lon="6.94988">
        <ele>1736</ele>
        <time>2019-04-18T10:21:40Z</time>
      </trkpt>
      <trkpt lat="45.30006" lon="6.94953">
        <ele>1737</ele>
        <time>2019-04-18T10:22:40Z</time>
      </trkpt>
      <trkpt lat="45.30007" lon="6.94923">
        <ele>1738</ele>
        <time>2019-04-18T10:23:40Z</time>
      </trkpt>
      <trkpt lat="45.30009" lon="6.94906">
        <ele>1739</ele>
        <time>2019-04-18T10:24:40Z</time>
      </trkpt>
      <trkpt lat="45.30068" lon="6.9472">
        <ele>1739</ele>
        <time>2019-04-18T10:25:40Z</time>
      </trkpt>
      <trkpt lat="45.30078" lon="6.94681">
        <ele>1738</ele>
        <time>2019-04-18T10:26:40Z</time>
      </trkpt>
      <trkpt lat="45.30086" lon="6.9462">
        <ele>1736</ele>
        <time>2019-04-18T10:27:40Z</time>
      </trkpt>
      <trkpt lat="45.30087" lon="6.94544">
        <ele>1735</ele>
        <time>2019-04-18T10:28:40Z</time>
      </trkpt>
      <trkpt lat="45.30079" lon="6.94358">
        <ele>1728</ele>
        <time>2019-04-18T10:29:40Z</time>
      </trkpt>
      <trkpt lat="45.30077" lon="6.9433">
        <ele>1727</ele>
        <time>2019-04-18T10:30:40Z</time>
      </trkpt>
      <trkpt lat="45.30072" lon="6.94305">
        <ele>1724</ele>
        <time>2019-04-18T10:31:40Z</time>
      </trkpt>
      <trkpt lat="45.30046" lon="6.94225">
        <ele>1716</ele>
        <time>2019-04-18T10:32:40Z</time>
      </trkpt>
      <trkpt lat="45.30029" lon="6.94194">
        <ele>1716</ele>
        <time>2019-04-18T10:33:40Z</time>
      </trkpt>
      <trkpt lat="45.30011" lon="6.94165">
        <ele>1716</ele>
        <time>2019-04-18T10:34:40Z</time>
      </trkpt>
      <trkpt lat="45.29939" lon="6.94063">
        <ele>1715</ele>
        <time>2019-04-18T10:35:40Z</time>
      </trkpt>
      <trkpt lat="45.2993" lon="6.94045">
        <ele>1715</ele>
        <time>2019-04-18T10:36:40Z</time>
      </trkpt>
      <trkpt lat="45.29924" lon="6.94028">
        <ele>1715</ele>
        <time>2019-04-18T10:37:40Z</time>
      </trkpt>
      <trkpt lat="45.2992" lon="6.94013">
        <ele>1716</ele>
        <time>2019-04-18T10:38:40Z</time>
      </trkpt>
      <trkpt lat="45.29919" lon="6.93998">
        <ele>1717</ele>
        <time>2019-04-18T10:39:40Z</time>
      </trkpt>
      <trkpt lat="45.29921" lon="6.93981">
        <ele>1716</ele>
        <time>2019-04-18T10:40:40Z</time>
      </trkpt>
      <trkpt lat="45.29926" lon="6.93959">
        <ele>1715</ele>
        <time>2019-04-18T10:41:40Z</time>
      </trkpt>
      <trkpt lat="45.29972" lon="6.93817">
        <ele>1703</ele>
        <time>2019-04-18T10:42:40Z</time>
      </trkpt>
      <trkpt lat="45.29978" lon="6.93791">
        <ele>1702</ele>
        <time>2019-04-18T10:43:40Z</time>
      </trkpt>
      <trkpt lat="45.29981" lon="6.93752">
        <ele>1702</ele>
        <time>2019-04-18T10:44:40Z</time>
      </trkpt>
      <trkpt lat="45.29979" lon="6.93726">
        <ele>1702</ele>
        <time>2019-04-18T10:45:40Z</time>
      </trkpt>
      <trkpt lat="45.29974" lon="6.93695">
        <ele>1703</ele>
        <time>2019-04-18T10:46:40Z</time>
      </trkpt>
      <trkpt lat="45.29948" lon="6.93575">
        <ele>1698</ele>
        <time>2019-04-18T10:47:40Z</time>
      </trkpt>
      <trkpt lat="45.29942" lon="6.93557">
        <ele>1697</ele>
        <time>2019-04-18T10:48:40Z</time>
      </trkpt>
      <trkpt lat="45.29936" lon="6.93547">
        <ele>1695</ele>
        <time>2019-04-18T10:49:40Z</time>
      </trkpt>
      <trkpt lat="45.29928" lon="6.93537">
        <ele>1693</ele>
        <time>2019-04-18T10:50:40Z</time>
      </trkpt>
      <trkpt lat="45.2992" lon="6.93532">
        <ele>1690</ele>
        <time>2019-04-18T10:51:40Z</time>
      </trkpt>
      <trkpt lat="45.29912" lon="6.9353">
        <ele>1688</ele>
        <time>2019-04-18T10:52:40Z</time>
      </trkpt>
      <trkpt lat="45.29902" lon="6.9353">
        <ele>1686</ele>
        <time>2019-04-18T10:53:40Z</time>
      </trkpt>
      <trkpt lat="45.29885" lon="6.93537">
        <ele>1683</ele>
        <time>2019-04-18T10:54:40Z</time>
      </trkpt>
      <trkpt lat="45.29829" lon="6.93595">
        <ele>1680</ele>
        <time>2019-04-18T10:55:40Z</time>
      </trkpt>
      <trkpt lat="45.29768" lon="6.9364">
        <ele>1679</ele>
        <time>2019-04-18T10:56:40Z</time>
      </trkpt>
      <trkpt lat="45.29741" lon="6.93665">
        <ele>1679</ele>
        <time>2019-04-18T10:57:40Z</time>
      </trkpt>
      <trkpt lat="45.29726" lon="6.93676">
        <ele>1677</ele>
        <time>2019-04-18T10:58:40Z</time>
      </trkpt>
      <trkpt lat="45.2972" lon="6.93677">
        <ele>1675</ele>
        <time>2019-04-18T10:59:40Z</time>
      </trkpt>
      <trkpt lat="45.29706" lon="6.93673">
        <ele>1672</ele>
        <time>2019-04-18T11:00:40Z</time>
      </trkpt>
      <trkpt lat="45.29699" lon="6.93666">
        <ele>1670</ele>
        <time>2019-04-18T11:01:40Z</time>
      </trkpt>
      <trkpt lat="45.29693" lon="6.93656">
        <ele>1667</ele>
        <time>2019-04-18T11:02:40Z</time>
      </trkpt>
      <trkpt lat="45.29687" lon="6.93637">
        <ele>1663</ele>
        <time>2019-04-18T11:03:40Z</time>
      </trkpt>
      <trkpt lat="45.29687" lon="6.93622">
        <ele>1661</ele>
        <time>2019-04-18T11:04:40Z</time>
      </trkpt>
      <trkpt lat="45.29689" lon="6.9361">
        <ele>1659</ele>
        <time>2019-04-18T11:05:40Z</time>
      </trkpt>
      <trkpt lat="45.29692" lon="6.93602">
        <ele>1659</ele>
        <time>2019-04-18T11:06:40Z</time>
      </trkpt>
      <trkpt lat="45.29698" lon="6.93594">
        <ele>1658</ele>
        <time>2019-04-18T11:07:40Z</time>
      </trkpt>
      <trkpt lat="45.29758" lon="6.9356">
        <ele>1660</ele>
        <time>2019-04-18T11:08:40Z</time>
      </trkpt>
      <trkpt lat="45.29768" lon="6.93551">
        <ele>1661</ele>
        <time>2019-04-18T11:09:40Z</time>
      </trkpt>
      <trkpt lat="45.29783" lon="6.93526">
        <ele>1661</ele>
        <time>2019-04-18T11:10:40Z</time>
      </trkpt>
      <trkpt lat="45.29787" lon="6.93513">
        <ele>1660</ele>
        <time>2019-04-18T11:11:40Z</time>
      </trkpt>
      <trkpt lat="45.29792" lon="6.93484">
        <ele>1658</ele>
        <time>2019-04-18T11:12:40Z</time>
      </trkpt>
      <trkpt lat="45.29798" lon="6.93425">
        <ele>1655</ele>
        <time>2019-04-18T11:13:40Z</time>
      </trkpt>
      <trkpt lat="45.29796" lon="6.93394">
        <ele>1654</ele>
        <time>2019-04-18T11:14:40Z</time>
      </trkpt>
      <trkpt lat="45.29786" lon="6.93365">
        <ele>1652</ele>
        <time>2019-04-18T11:15:40Z</time>
      </trkpt>
      <trkpt lat="45.29777" lon="6.9335">
        <ele>1651</ele>
        <time>2019-04-18T11:16:40Z</time>
      </trkpt>
      <trkpt lat="45.29765" lon="6.93336">
        <ele>1649</ele>
        <time>2019-04-18T11:17:40Z</time>
      </trkpt>
      <trkpt lat="45.29755" lon="6.93328">
        <ele>1647</ele>
        <time>2019-04-18T11:18:40Z</time>
      </trkpt>
      <trkpt lat="45.29732" lon="6.93321">
        <ele>1645</ele>
        <time>2019-04-18T11:19:40Z</time>
      </trkpt>
      <trkpt lat="45.2972" lon="6.93322">
        <ele>1644</ele>
        <time>2019-04-18T11:20:40Z</time>
      </trkpt>
      <trkpt lat="45.29706" lon="6.93326">
        <ele>1643</ele>
        <time>2019-04-18T11:21:40Z</time>
      </trkpt>
      <trkpt lat="45.29694" lon="6.93332">
        <ele>1642</ele>
        <time>2019-04-18T11:22:40Z</time>
      </trkpt>
      <trkpt lat="45.29669" lon="6.93359">
        <ele>1641</ele>
        <time>2019-04-18T11:23:40Z</time>
      </trkpt>
      <trkpt lat="45.29636" lon="6.93412">
        <ele>1638</ele>
        <time>2019-04-18T11:24:40Z</time>
      </trkpt>
      <trkpt lat="45.29625" lon="6.93426">
        <ele>1636</ele>
        <time>2019-04-18T11:25:40Z</time>
      </trkpt>
      <trkpt lat="45.29604" lon="6.93434">
        <ele>1633</ele>
        <time>2019-04-18T11:26:40Z</time>
      </trkpt>
      <trkpt lat="45.29578" lon="6.93434">
        <ele>1628</ele>
        <time>2019-04-18T11:27:40Z</time>
      </trkpt>
      <trkpt lat="45.2954" lon="6.93407">
        <ele>1621</ele>
        <time>2019-04-18T11:28:40Z</time>
      </trkpt>
      <trkpt lat="45.29494" lon="6.93355">
        <ele>1616</ele>
        <time>2019-04-18T11:29:40Z</time>
      </trkpt>
      <trkpt lat="45.2948" lon="6.93335">
        <ele>1613</ele>
        <time>2019-04-18T11:30:40Z</time>
      </trkpt>
      <trkpt lat="45.29445" lon="6.93271">
        <ele>1606</ele>
        <time>2019-04-18T11:31:40Z</time>
      </trkpt>
      <trkpt lat="45.29388" lon="6.93131">
        <ele>1596</ele>
        <time>2019-04-18T11:32:40Z</time>
      </trkpt>
      <trkpt lat="45.29381" lon="6.93108">
        <ele>1594</ele>
        <time>2019-04-18T11:33:40Z</time>
      </trkpt>
      <trkpt lat="45.2937" lon="6.93046">
        <ele>1590</ele>
        <time>2019-04-18T11:34:40Z</time>
      </trkpt>
      <trkpt lat="45.29366" lon="6.93003">
        <ele>1590</ele>
        <time>2019-04-18T11:35:40Z</time>
      </trkpt>
      <trkpt lat="45.29365" lon="6.92971">
        <ele>1587</ele>
        <time>2019-04-18T11:36:40Z</time>
      </trkpt>
      <trkpt lat="45.29368" lon="6.92945">
        <ele>1587</ele>
        <time>2019-04-18T11:37:40Z</time>
      </trkpt>
      <trkpt lat="45.29373" lon="6.92926">
        <ele>1587</ele>
        <time>2019-04-18T11:38:40Z</time>
      </trkpt>
      <trkpt lat="45.29383" lon="6.92902">
        <ele>1586</ele>
        <time>2019-04-18T11:39:40Z</time>
      </trkpt>
      <trkpt lat="45.29447" lon="6.92801">
        <ele>1582</ele>
        <time>2019-04-18T11:40:40Z</time>
      </trkpt>
      <trkpt lat="45.2948" lon="6.92731">
        <ele>1583</ele>
        <time>2019-04-18T11:41:40Z</time>
      </trkpt>
      <trkpt lat="45.29483" lon="6.92716">
        <ele>1584</ele>
        <time>2019-04-18T11:42:40Z</time>
      </trkpt>
      <trkpt lat="45.29482" lon="6.92685">
        <ele>1582</ele>
        <time>2019-04-18T11:43:40Z</time>
      </trkpt>
      <trkpt lat="45.2948" lon="6.92667">
        <ele>1581</ele>
        <time>2019-04-18T11:44:40Z</time>
      </trkpt>
      <trkpt lat="45.29476" lon="6.92652">
        <ele>1580</ele>
        <time>2019-04-18T11:45:40Z</time>
      </trkpt>
      <trkpt lat="45.29472" lon="6.92647">
        <ele>1578</ele>
        <time>2019-04-18T11:46:40Z</time>
      </trkpt>
      <trkpt lat="45.29461" lon="6.92642">
        <ele>1574</ele>
        <time>2019-04-18T11:47:40Z</time>
      </trkpt>
      <trkpt lat="45.29433" lon="6.92654">
        <ele>1565</ele>
        <time>2019-04-18T11:48:40Z</time>
      </trkpt>
      <trkpt lat="45.29423" lon="6.92655">
        <ele>1562</ele>
        <time>2019-04-18T11:49:40Z</time>
      </trkpt>
      <trkpt lat="45.29414" lon="6.92649">
        <ele>1559</ele>
        <time>2019-04-18T11:50:40Z</time>
      </trkpt>
      <trkpt lat="45.29409" lon="6.92639">
        <ele>1558</ele>
        <time>2019-04-18T11:51:40Z</time>
      </trkpt>
      <trkpt lat="45.29406" lon="6.9263">
        <ele>1557</ele>
        <time>2019-04-18T11:52:40Z</time>
      </trkpt>
      <trkpt lat="45.29407" lon="6.9261">
        <ele>1556</ele>
        <time>2019-04-18T11:53:40Z</time>
      </trkpt>
      <trkpt lat="45.29419" lon="6.92565">
        <ele>1556</ele>
        <time>2019-04-18T11:54:40Z</time>
      </trkpt>
      <trkpt lat="45.29421" lon="6.92549">
        <ele>1556</ele>
        <time>2019-04-18T11:55:40Z</time>
      </trkpt>
      <trkpt lat="45.29417" lon="6.92493">
        <ele>1551</ele>
        <time>2019-04-18T11:56:40Z</time>
      </trkpt>
      <trkpt lat="45.29418" lon="6.92451">
        <ele>1551</ele>
        <time>2019-04-18T11:57:40Z</time>
      </trkpt>
      <trkpt lat="45.29417" lon="6.92445">
        <ele>1550</ele>
        <time>2019-04-18T11:58:40Z</time>
      </trkpt>
      <trkpt lat="45.29408" lon="6.92436">
        <ele>1548</ele>
        <time>2019-04-18T11:59:40Z</time>
      </trkpt>
      <trkpt lat="45.29402" lon="6.92435">
        <ele>1547</ele>
        <time>2019-04-18T12:00:40Z</time>
      </trkpt>
      <trkpt lat="45.29382" lon="6.9244">
        <ele>1543</ele>
        <time>2019-04-18T12:01:40Z</time>
      </trkpt>
      <trkpt lat="45.29369" lon="6.9244">
        <ele>1540</ele>
        <time>2019-04-18T12:02:40Z</time>
      </trkpt>
      <trkpt lat="45.2936" lon="6.92435">
        <ele>1538</ele>
        <time>2019-04-18T12:03:40Z</time>
      </trkpt>
      <trkpt lat="45.29345" lon="6.92416">
        <ele>1533</ele>
        <time>2019-04-18T12:04:40Z</time>
      </trkpt>
      <trkpt lat="45.29337" lon="6.92394">
        <ele>1530</ele>
        <time>2019-04-18T12:05:40Z</time>
      </trkpt>
      <trkpt lat="45.29335" lon="6.92375">
        <ele>1529</ele>
        <time>2019-04-18T12:06:40Z</time>
      </trkpt>
      <trkpt lat="45.29339" lon="6.92359">
        <ele>1529</ele>
        <time>2019-04-18T12:07:40Z</time>
      </trkpt>
      <trkpt lat="45.29367" lon="6.92281">
        <ele>1533</ele>
        <time>2019-04-18T12:08:40Z</time>
      </trkpt>
      <trkpt lat="45.29368" lon="6.92259">
        <ele>1532</ele>
        <time>2019-04-18T12:09:40Z</time>
      </trkpt>
      <trkpt lat="45.29366" lon="6.92252">
        <ele>1531</ele>
        <time>2019-04-18T12:10:40Z</time>
      </trkpt>
      <trkpt lat="45.29363" lon="6.92246">
        <ele>1530</ele>
        <time>2019-04-18T12:11:40Z</time>
      </trkpt>
      <trkpt lat="45.29354" lon="6.92242">
        <ele>1527</ele>
        <time>2019-04-18T12:12:40Z</time>
      </trkpt>
      <trkpt lat="45.29333" lon="6.92241">
        <ele>1519</ele>
        <time>2019-04-18T12:13:40Z</time>
      </trkpt>
      <trkpt lat="45.29329" lon="6.92238">
        <ele>1519</ele>
        <time>2019-04-18T12:14:40Z</time>
      </trkpt>
      <trkpt lat="45.29324" lon="6.92229">
        <ele>1518</ele>
        <time>2019-04-18T12:15:40Z</time>
      </trkpt>
      <trkpt lat="45.29316" lon="6.92185">
        <ele>1514</ele>
        <time>2019-04-18T12:16:40Z</time>
      </trkpt>
      <trkpt lat="45.29304" lon="6.92135">
        <ele>1509</ele>
        <time>2019-04-18T12:17:40Z</time>
      </trkpt>
      <trkpt lat="45.29294" lon="6.92112">
        <ele>1506</ele>
        <time>2019-04-18T12:18:40Z</time>
      </trkpt>
      <trkpt lat="45.29257" lon="6.92043">
        <ele>1500</ele>
        <time>2019-04-18T12:19:40Z</time>
      </trkpt>
      <trkpt lat="45.29214" lon="6.91987">
        <ele>1495</ele>
        <time>2019-04-18T12:20:40Z</time>
      </trkpt>
      <trkpt lat="45.29187" lon="6.91942">
        <ele>1489</ele>
        <time>2019-04-18T12:21:40Z</time>
      </trkpt>
      <trkpt lat="45.29172" lon="6.9191">
        <ele>1483</ele>
        <time>2019-04-18T12:22:40Z</time>
      </trkpt>
      <trkpt lat="45.29163" lon="6.91882">
        <ele>1481</ele>
        <time>2019-04-18T12:23:40Z</time>
      </trkpt>
      <trkpt lat="45.29158" lon="6.91856">
        <ele>1479</ele>
        <time>2019-04-18T12:24:40Z</time>
      </trkpt>
      <trkpt lat="45.2915" lon="6.9183">
        <ele>1477</ele>
        <time>2019-04-18T12:25:40Z</time>
      </trkpt>
      <trkpt lat="45.29149" lon="6.91822">
        <ele>1476</ele>
        <time>2019-04-18T12:26:40Z</time>
      </trkpt>
      <trkpt lat="45.29149" lon="6.91695">
        <ele>1473</ele>
        <time>2019-04-18T12:27:40Z</time>
      </trkpt>
      <trkpt lat="45.29141" lon="6.91631">
        <ele>1472</ele>
        <time>2019-04-18T12:28:40Z</time>
      </trkpt>
      <trkpt lat="45.29144" lon="6.91589">
        <ele>1471</ele>
        <time>2019-04-18T12:29:40Z</time>
      </trkpt>
      <trkpt lat="45.29143" lon="6.91579">
        <ele>1471</ele>
        <time>2019-04-18T12:30:40Z</time>
      </trkpt>
      <trkpt lat="45.29138" lon="6.91559">
        <ele>1471</ele>
        <time>2019-04-18T12:31:40Z</time>
      </trkpt>
      <trkpt lat="45.29123" lon="6.91515">
        <ele>1470</ele>
        <time>2019-04-18T12:32:40Z</time>
      </trkpt>
      <trkpt lat="45.29113" lon="6.91491">
        <ele>1470</ele>
        <time>2019-04-18T12:33:40Z</time>
      </trkpt>
      <trkpt lat="45.29051" lon="6.91389">
        <ele>1468</ele>
        <time>2019-04-18T12:34:40Z</time>
      </trkpt>
      <trkpt lat="45.29038" lon="6.91352">
        <ele>1467</ele>
        <time>2019-04-18T12:35:40Z</time>
      </trkpt>
      <trkpt lat="45.29033" lon="6.91328">
        <ele>1467</ele>
        <time>2019-04-18T12:36:40Z</time>
      </trkpt>
      <trkpt lat="45.29033" lon="6.9131">
        <ele>1467</ele>
        <time>2019-04-18T12:37:40Z</time>
      </trkpt>
      <trkpt lat="45.29035" lon="6.91278">
        <ele>1466</ele>
        <time>2019-04-18T12:38:40Z</time>
      </trkpt>
      <trkpt lat="45.2904" lon="6.91259">
        <ele>1466</ele>
        <time>2019-04-18T12:39:40Z</time>
      </trkpt>
      <trkpt lat="45.29041" lon="6.91245">
        <ele>1466</ele>
        <time>2019-04-18T12:40:40Z</time>
      </trkpt>
      <trkpt lat="45.2904" lon="6.90728">
        <ele>1460</ele>
        <time>2019-04-18T12:41:40Z</time>
      </trkpt>
      <trkpt lat="45.29036" lon="6.90688">
        <ele>1458</ele>
        <time>2019-04-18T12:42:40Z</time>
      </trkpt>
      <trkpt lat="45.29033" lon="6.90673">
        <ele>1457</ele>
        <time>2019-04-18T12:43:40Z</time>
      </trkpt>
      <trkpt lat="45.29022" lon="6.90643">
        <ele>1456</ele>
        <time>2019-04-18T12:44:40Z</time>
      </trkpt>
      <trkpt lat="45.28991" lon="6.90596">
        <ele>1455</ele>
        <time>2019-04-18T12:45:40Z</time>
      </trkpt>
      <trkpt lat="45.2895" lon="6.90529">
        <ele>1453</ele>
        <time>2019-04-18T12:46:40Z</time>
      </trkpt>
      <trkpt lat="45.28932" lon="6.90493">
        <ele>1451</ele>
        <time>2019-04-18T12:47:40Z</time>
      </trkpt>
      <trkpt lat="45.28846" lon="6.90289">
        <ele>1441</ele>
        <time>2019-04-18T12:48:40Z</time>
      </trkpt>
      <trkpt lat="45.2883" lon="6.90244">
        <ele>1438</ele>
        <time>2019-04-18T12:49:40Z</time>
      </trkpt>
      <trkpt lat="45.28832" lon="6.90237">
        <ele>1437</ele>
        <time>2019-04-18T12:50:40Z</time>
      </trkpt>
      <trkpt lat="45.28831" lon="6.90231">
        <ele>1436</ele>
        <time>2019-04-18T12:51:40Z</time>
      </trkpt>
      <trkpt lat="45.28827" lon="6.90226">
        <ele>1436</ele>
        <time>2019-04-18T12:52:40Z</time>
      </trkpt>
      <trkpt lat="45.28824" lon="6.90225">
        <ele>1436</ele>
        <time>2019-04-18T12:53:40Z</time>
      </trkpt>
      <trkpt lat="45.28822" lon="6.90221">
        <ele>1436</ele>
        <time>2019-04-18T12:54:40Z</time>
      </trkpt>
      <trkpt lat="45.28791" lon="6.90205">
        <ele>1437</ele>
        <time>2019-04-18T12:55:40Z</time>
      </trkpt>
      <trkpt lat="45.28765" lon="6.90173">
        <ele>1436</ele>
        <time>2019-04-18T12:56:40Z</time>
      </trkpt>
      <trkpt lat="45.28756" lon="6.90157">
        <ele>1435</ele>
        <time>2019-04-18T12:57:40Z</time>
      </trkpt>
      <trkpt lat="45.28742" lon="6.90122">
        <ele>1432</ele>
        <time>2019-04-18T12:58:40Z</time>
      </trkpt>
      <trkpt lat="45.28727" lon="6.90069">
        <ele>1428</ele>
        <time>2019-04-18T12:59:40Z</time>
      </trkpt>
      <trkpt lat="45.28696" lon="6.89941">
        <ele>1426</ele>
        <time>2019-04-18T13:00:40Z</time>
      </trkpt>
      <trkpt lat="45.28675" lon="6.89876">
        <ele>1424</ele>
        <time>2019-04-18T13:01:40Z</time>
      </trkpt>
      <trkpt lat="45.28654" lon="6.89832">
        <ele>1424</ele>
        <time>2019-04-18T13:02:40Z</time>
      </trkpt>
      <trkpt lat="45.2864" lon="6.89798">
        <ele>1426</ele>
        <time>2019-04-18T13:03:40Z</time>
      </trkpt>
      <trkpt lat="45.28628" lon="6.89752">
        <ele>1426</ele>
        <time>2019-04-18T13:04:40Z</time>
      </trkpt>
      <trkpt lat="45.28624" lon="6.89716">
        <ele>1426</ele>
        <time>2019-04-18T13:05:40Z</time>
      </trkpt>
      <trkpt lat="45.28623" lon="6.89676">
        <ele>1426</ele>
        <time>2019-04-18T13:06:40Z</time>
      </trkpt>
      <trkpt lat="45.28634" lon="6.89371">
        <ele>1421</ele>
        <time>2019-04-18T13:07:40Z</time>
      </trkpt>
      <trkpt lat="45.28632" lon="6.89291">
        <ele>1420</ele>
        <time>2019-04-18T13:08:40Z</time>
      </trkpt>
      <trkpt lat="45.28622" lon="6.89095">
        <ele>1417</ele>
        <time>2019-04-18T13:09:40Z</time>
      </trkpt>
      <trkpt lat="45.28612" lon="6.8896">
        <ele>1409</ele>
        <time>2019-04-18T13:10:40Z</time>
      </trkpt>
      <trkpt lat="45.28602" lon="6.88834">
        <ele>1403</ele>
        <time>2019-04-18T13:11:40Z</time>
      </trkpt>
      <trkpt lat="45.28567" lon="6.88464">
        <ele>1400</ele>
        <time>2019-04-18T13:12:40Z</time>
      </trkpt>
      <trkpt lat="45.28567" lon="6.88425">
        <ele>1400</ele>
        <time>2019-04-18T13:13:40Z</time>
      </trkpt>
      <trkpt lat="45.28572" lon="6.88406">
        <ele>1400</ele>
        <time>2019-04-18T13:14:40Z</time>
      </trkpt>
      <trkpt lat="45.28569" lon="6.88398">
        <ele>1399</ele>
        <time>2019-04-18T13:15:40Z</time>
      </trkpt>
      <trkpt lat="45.28566" lon="6.88395">
        <ele>1399</ele>
        <time>2019-04-18T13:16:40Z</time>
      </trkpt>
      <trkpt lat="45.28559" lon="6.88375">
        <ele>1399</ele>
        <time>2019-04-18T13:17:40Z</time>
      </trkpt>
      <trkpt lat="45.28557" lon="6.88311">
        <ele>1399</ele>
        <time>2019-04-18T13:18:40Z</time>
      </trkpt>
      <trkpt lat="45.28607" lon="6.88299">
        <ele>1403</ele>
        <time>2019-04-18T13:19:40Z</time>
      </trkpt>
    </trkseg>
  </trk>
</gpx>